ftp/pub/palmer/observations_modified/2017/November/AR171126_BASE.txt

Download

Sample DateTime	Unit Id	WS Avg 2min	WD Avg 2min	WGS 10min	WGD 10min	Air Temp	Rel Humidity	Dew Point	Pyranometer	Quantum	Air Pressure	Snow Level	Rainfall	PW Current	Visibility	CBase 1	CBase 2	CBase 3	Vert Vis
2017/11/26 00:00:00	BASE	3.70	218	5.56	219	-3.0	80	-6.0	33	79	964.8	NA	0.0000		9999	6430	0	0	0
2017/11/26 00:01:00	BASE	3.64	216	5.56	219	-3.0	80	-5.9	32	78	964.8	NA	0.0000		9999	6430	0	0	0
2017/11/26 00:02:00	BASE	3.80	214	5.56	219	-3.0	80	-5.9	32	77	964.8	NA	0.0000		9999	6430	0	0	0
2017/11/26 00:03:00	BASE	4.31	216	5.56	219	-3.0	81	-5.8	31	75	964.8	NA	0.0000		9999	6430	0	0	0
2017/11/26 00:04:00	BASE	4.44	217	5.56	219	-3.0	81	-5.9	31	74	964.8	NA	0.0000		9999	6430	0	0	0
2017/11/26 00:05:00	BASE	4.53	220	5.56	219	-3.0	81	-5.9	30	73	964.8	NA	0.0000		9999	6460	0	0	0
2017/11/26 00:06:00	BASE	4.43	224	5.14	225	-3.0	80	-5.9	30	72	964.8	NA	0.0000		9999	6500	0	0	0
2017/11/26 00:07:00	BASE	4.07	224	5.14	225	-3.0	80	-6.0	29	71	964.8	NA	0.0000		9999	6500	0	0	0
2017/11/26 00:08:00	BASE	3.90	220	5.14	225	-3.0	80	-6.0	29	70	964.8	NA	0.0000		9999	6500	0	0	0
2017/11/26 00:09:00	BASE	3.71	218	5.14	225	-3.0	80	-6.0	28	68	964.8	NA	0.0000		9999	6460	0	0	0
2017/11/26 00:10:00	BASE	3.51	219	5.14	225	-3.0	80	-5.9	28	67	964.8	NA	0.0000		9999	4560	6530	0	0
2017/11/26 00:11:00	BASE	3.46	222	5.14	225	-3.0	80	-5.9	27	66	964.8	NA	0.0000		9999	4560	6500	0	0
2017/11/26 00:12:00	BASE	3.89	225	5.14	225	-3.0	81	-5.8	27	65	964.8	NA	0.0000		9999	6500	0	0	0
2017/11/26 00:13:00	BASE	4.01	222	5.14	225	-3.0	81	-5.8	26	64	964.8	NA	0.0000		9999	6500	0	0	0
2017/11/26 00:14:00	BASE	3.84	216	5.14	225	-3.0	81	-5.8	26	63	964.8	NA	0.0000		9999	6430	0	0	0
2017/11/26 00:15:00	BASE	3.84	219	4.84	225	-3.0	80	-5.9	25	62	964.8	NA	0.0000		9999	6500	0	0	0
2017/11/26 00:16:00	BASE	3.75	220	4.68	208	-3.0	80	-5.9	25	61	964.8	NA	0.0000		9999	6500	0	0	0
2017/11/26 00:17:00	BASE	3.86	216	4.68	208	-3.0	80	-6.0	25	60	964.8	NA	0.0000		9999	6460	0	0	0
2017/11/26 00:18:00	BASE	3.70	216	4.68	208	-3.0	80	-6.0	24	59	964.8	NA	0.0000		9999	6500	0	0	0
2017/11/26 00:19:00	BASE	3.30	223	4.68	208	-3.0	80	-5.9	24	58	964.8	NA	0.0000		9999	6460	0	0	0
2017/11/26 00:20:00	BASE	3.70	231	4.89	225	-2.9	81	-5.8	23	57	964.8	NA	0.0000		9999	6460	0	0	0
2017/11/26 00:21:00	BASE	4.21	229	4.89	227	-2.9	81	-5.8	23	56	964.8	NA	0.0000		9999	6460	0	0	0
2017/11/26 00:22:00	BASE	3.83	228	4.89	227	-2.9	81	-5.8	23	55	964.8	NA	0.0000		9999	6430	0	0	0
2017/11/26 00:23:00	BASE	3.63	231	4.89	227	-2.9	81	-5.8	22	54	964.8	NA	0.0000		9999	6460	0	0	0
2017/11/26 00:24:00	BASE	4.42	232	5.45	231	-3.0	81	-5.8	22	53	964.8	NA	0.0000		9999	6430	0	0	0
2017/11/26 00:25:00	BASE	5.03	228	5.61	233	-3.0	80	-5.9	21	52	964.8	NA	0.0000		9999	6460	0	0	0
2017/11/26 00:26:00	BASE	5.04	224	5.61	233	-3.0	80	-6.0	21	51	964.8	NA	0.0000		9999	6460	0	0	0
2017/11/26 00:27:00	BASE	4.62	221	5.61	233	-3.0	80	-6.0	20	50	964.8	NA	0.0000		9999	6500	0	0	0
2017/11/26 00:28:00	BASE	4.28	221	5.61	233	-3.0	80	-6.0	20	49	964.8	NA	0.0000		9999	6400	0	0	0
2017/11/26 00:29:00	BASE	4.13	224	5.61	233	-3.0	80	-6.0	19	48	964.8	NA	0.0000		9999	6500	0	0	0
2017/11/26 00:30:00	BASE	4.19	221	5.61	233	-3.0	80	-6.0	19	47	964.8	NA	0.0000		9999	6500	0	0	0
2017/11/26 00:31:00	BASE	4.41	223	5.61	233	-3.0	80	-5.9	18	45	964.8	NA	0.0000		9999	6430	0	0	0
2017/11/26 00:32:00	BASE	4.35	226	5.61	233	-3.0	80	-5.9	18	44	964.8	NA	0.0000		9999	6460	0	0	0
2017/11/26 00:33:00	BASE	4.38	223	5.61	233	-3.0	80	-5.9	17	43	964.8	NA	0.0000		9999	6460	0	0	0
2017/11/26 00:34:00	BASE	4.12	220	5.61	233	-2.9	80	-5.9	17	42	964.8	NA	0.0000		9999	6460	0	0	0
2017/11/26 00:35:00	BASE	4.17	217	5.50	222	-2.9	80	-5.9	17	41	964.8	NA	0.0000		9999	6430	0	0	0
2017/11/26 00:36:00	BASE	4.54	216	5.25	217	-3.0	80	-5.9	16	41	964.8	NA	0.0000		9999	1900	6430	0	0
2017/11/26 00:37:00	BASE	4.79	215	5.25	213	-3.0	80	-5.9	16	40	964.8	NA	0.0000		9999	6460	0	0	0
2017/11/26 00:38:00	BASE	4.64	215	5.25	213	-3.0	80	-6.0	16	39	964.8	NA	0.0000		9999	6400	0	0	0
2017/11/26 00:39:00	BASE	4.14	219	5.25	213	-3.0	80	-6.1	15	38	964.8	NA	0.0000		9999	6460	0	0	0
2017/11/26 00:40:00	BASE	4.18	218	5.25	213	-3.0	80	-6.1	15	38	964.8	NA	0.0000		9999	6500	0	0	0
2017/11/26 00:41:00	BASE	4.44	216	5.35	219	-3.0	80	-6.1	15	37	964.8	NA	0.0000		9999	6530	0	0	0
2017/11/26 00:42:00	BASE	4.29	221	5.35	219	-3.0	80	-6.0	15	36	964.8	NA	0.0000		9999	6430	0	0	0
2017/11/26 00:43:00	BASE	4.11	221	5.35	219	-3.0	80	-6.0	14	36	964.8	NA	0.0000		9999	6460	0	0	0
2017/11/26 00:44:00	BASE	4.37	217	5.35	219	-3.0	80	-6.0	14	35	964.8	NA	0.0000		9999	6430	0	0	0
2017/11/26 00:45:00	BASE	4.66	220	5.35	219	-3.0	80	-6.0	13	34	964.8	NA	0.0000		9999	6500	0	0	0
2017/11/26 00:46:00	BASE	4.58	224	5.35	219	-3.1	80	-6.1	13	33	964.8	NA	0.0000		9999	6460	0	0	0
2017/11/26 00:47:00	BASE	4.26	222	5.35	219	-3.0	80	-6.1	13	32	964.8	NA	0.0000		9999	1870	6500	0	0
2017/11/26 00:48:00	BASE	3.89	221	5.35	219	-3.0	80	-6.1	12	32	964.8	NA	0.0000		9999	1940	6500	0	0
2017/11/26 00:49:00	BASE	3.48	223	5.35	219	-3.0	80	-6.0	12	31	964.8	NA	0.0000		9999	2000	6460	0	0
2017/11/26 00:50:00	BASE	3.89	224	5.35	219	-2.9	80	-5.9	12	30	964.8	NA	0.0000		9999	6460	0	0	0
2017/11/26 00:51:00	BASE	4.11	220	5.14	217	-2.9	80	-5.8	12	30	964.8	NA	0.0000		9999	6400	0	0	0
2017/11/26 00:52:00	BASE	3.96	215	5.14	217	-2.9	81	-5.7	11	30	964.8	NA	0.0000		9999	6460	0	0	0
2017/11/26 00:53:00	BASE	4.15	212	5.14	217	-2.9	81	-5.7	11	29	964.8	NA	0.0000		9999	6460	0	0	0
2017/11/26 00:54:00	BASE	3.76	213	5.14	217	-3.0	81	-5.8	11	28	964.8	NA	0.0000		9999	6460	0	0	0
2017/11/26 00:55:00	BASE	3.51	217	5.14	217	-3.0	81	-5.8	11	28	964.8	NA	0.0000		9999	6430	0	0	0
2017/11/26 00:56:00	BASE	4.00	222	5.14	217	-3.0	81	-5.8	10	27	964.8	NA	0.0000		9999	6500	0	0	0
2017/11/26 00:57:00	BASE	4.40	225	5.14	217	-3.0	81	-5.8	10	27	964.8	NA	0.0000		9999	6500	0	0	0
2017/11/26 00:58:00	BASE	4.39	225	5.14	217	-3.0	81	-5.8	10	26	964.8	NA	0.0000		9999	6460	0	0	0
2017/11/26 00:59:00	BASE	4.19	223	5.14	217	-3.0	81	-5.8	10	25	964.8	NA	0.0000		9999	6460	0	0	0
2017/11/26 01:00:00	BASE	4.13	221	5.04	215	-3.0	81	-5.8	9	25	964.8	NA	0.0000		9999	6460	0	0	0
2017/11/26 01:01:00	BASE	4.39	217	5.04	215	-3.0	81	-5.7	9	24	964.8	NA	0.0000		9999	6500	0	0	0
2017/11/26 01:02:00	BASE	4.28	213	5.04	215	-3.0	82	-5.7	9	24	964.8	NA	0.0000		9999	6500	0	0	0
2017/11/26 01:03:00	BASE	4.04	210	5.04	215	-3.0	82	-5.7	8	23	964.8	NA	0.0000		9999	6460	0	0	0
2017/11/26 01:04:00	BASE	3.96	210	5.04	215	-3.1	82	-5.7	8	22	964.8	NA	0.0000		9999	6500	0	0	0
2017/11/26 01:05:00	BASE	3.50	218	5.04	215	-3.0	82	-5.7	8	22	964.8	NA	0.0000		9999	6460	0	0	0
2017/11/26 01:06:00	BASE	3.40	223	5.04	215	-3.0	82	-5.6	7	21	964.8	NA	0.0000		9999	6460	0	0	0
2017/11/26 01:07:00	BASE	3.73	222	5.04	215	-3.0	82	-5.6	7	20	964.8	NA	0.0000		9999	6430	0	0	0
2017/11/26 01:08:00	BASE	4.13	220	4.99	217	-3.0	82	-5.6	7	20	964.8	NA	0.0000		9999	6400	0	0	0
2017/11/26 01:09:00	BASE	4.11	218	4.99	217	-3.0	82	-5.6	7	19	964.8	NA	0.0000		9999	6430	0	0	0
2017/11/26 01:10:00	BASE	3.68	217	4.99	217	-3.0	82	-5.6	6	19	964.8	NA	0.0000		9999	6460	0	0	0
2017/11/26 01:11:00	BASE	3.85	213	4.84	208	-3.0	82	-5.7	6	18	964.8	NA	0.0000		9999	6370	0	0	0
2017/11/26 01:12:00	BASE	4.09	213	4.84	208	-3.1	82	-5.7	6	18	964.8	NA	0.0000		9999	6460	0	0	0
2017/11/26 01:13:00	BASE	4.30	214	5.35	212	-3.1	82	-5.7	6	17	964.8	NA	0.0000		9999	6460	0	0	0
2017/11/26 01:14:00	BASE	4.51	212	5.35	212	-3.1	82	-5.7	6	17	964.8	NA	0.0000		9999	6500	0	0	0
2017/11/26 01:15:00	BASE	4.43	212	5.35	212	-3.1	82	-5.8	5	16	964.8	NA	0.0000		9999	2000	6400	0	0
2017/11/26 01:16:00	BASE	3.94	216	5.35	212	-3.1	82	-5.8	5	16	964.8	NA	0.0000		9999	6400	0	0	0
2017/11/26 01:17:00	BASE	3.83	221	5.35	212	-3.1	82	-5.8	5	16	964.8	NA	0.0000		9999	6430	0	0	0
2017/11/26 01:18:00	BASE	4.38	221	5.35	212	-3.1	82	-5.8	5	15	964.8	NA	0.0000		9999	6430	0	0	0
2017/11/26 01:19:00	BASE	4.39	221	5.35	212	-3.1	82	-5.8	5	15	964.8	NA	0.0000		9999	6430	0	0	0
2017/11/26 01:20:00	BASE	4.25	221	5.35	212	-3.1	82	-5.8	5	14	964.8	NA	0.0000		9999	6430	0	0	0
2017/11/26 01:21:00	BASE	4.57	223	5.45	223	-3.1	81	-5.8	5	14	964.8	NA	0.0000		9999	6460	0	0	0
2017/11/26 01:22:00	BASE	4.83	225	5.45	223	-3.1	81	-5.9	4	14	964.8	NA	0.0000		9999	6430	0	0	0
2017/11/26 01:23:00	BASE	4.44	225	5.45	223	-3.1	81	-5.9	4	13	964.8	NA	0.0000		9999	6430	0	0	0
2017/11/26 01:24:00	BASE	3.91	225	5.45	223	-3.1	81	-5.9	4	13	964.8	NA	0.0000		9999	6400	0	0	0
2017/11/26 01:25:00	BASE	3.59	227	5.45	223	-3.1	81	-5.8	4	13	964.8	NA	0.0000		9999	6430	0	0	0
2017/11/26 01:26:00	BASE	3.62	226	5.45	223	-3.1	81	-5.8	4	12	964.8	NA	0.0000		9999	6430	0	0	0
2017/11/26 01:27:00	BASE	3.94	224	5.45	223	-3.0	82	-5.7	4	12	964.8	NA	0.0000		9999	2000	6430	0	0
2017/11/26 01:28:00	BASE	4.13	220	5.45	223	-3.0	82	-5.7	4	12	964.8	NA	0.0000		9999	6430	0	0	0
2017/11/26 01:29:00	BASE	4.34	217	5.45	223	-3.0	82	-5.6	4	11	964.8	NA	0.0000		9999	6400	0	0	0
2017/11/26 01:30:00	BASE	4.32	219	5.45	223	-3.0	82	-5.7	4	11	964.8	NA	0.0000		9999	6370	0	0	0
2017/11/26 01:31:00	BASE	3.99	223	5.14	226	-3.1	82	-5.7	3	11	964.8	NA	0.0000		9999	6430	0	0	0
2017/11/26 01:32:00	BASE	3.87	224	5.09	218	-3.1	82	-5.8	3	11	964.8	NA	0.0000		9999	6430	0	0	0
2017/11/26 01:33:00	BASE	4.13	220	5.09	218	-3.1	82	-5.8	3	10	964.8	NA	0.0000		9999	6370	0	0	0
2017/11/26 01:34:00	BASE	4.00	214	5.09	218	-3.1	81	-5.9	3	10	964.8	NA	0.0000		9999	6430	0	0	0
2017/11/26 01:35:00	BASE	3.52	216	5.09	218	-3.1	81	-5.9	3	10	964.8	NA	0.0000		9999	6430	0	0	0
2017/11/26 01:36:00	BASE	3.47	219	5.09	218	-3.1	81	-5.9	3	10	964.8	NA	0.0000		9999	6430	0	0	0
2017/11/26 01:37:00	BASE	3.57	220	5.09	218	-3.1	81	-5.9	3	9	964.8	NA	0.0000		9999	6370	0	0	0
2017/11/26 01:38:00	BASE	3.48	221	4.89	212	-3.1	81	-5.9	3	9	964.8	NA	0.0000		9999	6400	0	0	0
2017/11/26 01:39:00	BASE	3.68	220	5.14	215	-3.1	82	-5.8	3	9	964.8	NA	0.0000		9999	6430	0	0	0
2017/11/26 01:40:00	BASE	4.25	221	5.14	215	-3.1	82	-5.8	3	8	964.8	NA	0.0000		9999	6400	0	0	0
2017/11/26 01:41:00	BASE	4.41	221	5.14	215	-3.1	82	-5.8	3	8	964.8	NA	0.0000		9999	6400	0	0	0
2017/11/26 01:42:00	BASE	4.31	218	5.35	213	-3.1	82	-5.8	2	8	964.8	NA	0.0000		9999	6400	0	0	0
2017/11/26 01:43:00	BASE	4.71	214	5.71	214	-3.2	81	-5.9	2	8	964.8	NA	0.0000		9999	6370	0	0	0
2017/11/26 01:44:00	BASE	4.87	213	5.71	214	-3.2	81	-6.0	2	8	964.8	NA	0.0000		9999	6300	0	0	0
2017/11/26 01:45:00	BASE	4.36	216	5.71	214	-3.2	81	-6.0	2	7	964.8	NA	0.0000		9999	6400	0	0	0
2017/11/26 01:46:00	BASE	4.06	217	5.71	214	-3.2	81	-6.0	2	7	964.8	NA	0.0000		9999	6400	0	0	0
2017/11/26 01:47:00	BASE	4.13	216	5.86	214	-3.2	81	-6.0	2	7	964.8	NA	0.0000		9999	6400	0	0	0
2017/11/26 01:48:00	BASE	4.74	214	5.86	214	-3.2	81	-6.0	2	7	964.8	NA	0.0000		9999	6400	0	0	0
2017/11/26 01:49:00	BASE	4.98	213	5.86	214	-3.2	81	-6.0	2	6	964.8	NA	0.0000		9999	6430	0	0	0
2017/11/26 01:50:00	BASE	4.80	211	5.86	214	-3.2	81	-6.1	2	6	964.8	NA	0.0000		9999	6430	0	0	0
2017/11/26 01:51:00	BASE	4.74	209	5.86	214	-3.2	80	-6.1	2	6	964.8	NA	0.0000		9999	6400	0	0	0
2017/11/26 01:52:00	BASE	4.38	210	5.86	214	-3.2	80	-6.1	2	6	964.8	NA	0.0000		9999	6430	0	0	0
2017/11/26 01:53:00	BASE	3.77	216	5.86	214	-3.2	80	-6.1	2	6	964.8	NA	0.0000		9999	6370	0	0	0
2017/11/26 01:54:00	BASE	3.65	219	5.86	214	-3.2	80	-6.1	2	6	964.8	NA	0.0000		9999	6400	0	0	0
2017/11/26 01:55:00	BASE	4.02	214	5.86	214	-3.2	81	-6.1	2	5	964.8	NA	0.0000		9999	6430	0	0	0
2017/11/26 01:56:00	BASE	3.96	212	5.86	214	-3.2	81	-6.0	2	5	964.8	NA	0.0000		9999	6430	0	0	0
2017/11/26 01:57:00	BASE	3.76	218	5.45	211	-3.2	81	-6.0	2	5	964.8	NA	0.0000		9999	6400	0	0	0
2017/11/26 01:58:00	BASE	4.05	218	5.45	211	-3.2	81	-6.0	2	5	964.8	NA	0.0000		9999	6430	0	0	0
2017/11/26 01:59:00	BASE	4.39	214	5.30	209	-3.2	81	-6.0	2	5	964.8	NA	0.0000		9999	6300	0	0	0
2017/11/26 02:00:00	BASE	4.19	215	5.25	213	-3.2	81	-6.0	2	4	964.8	NA	0.0000		9999	6330	0	0	0
2017/11/26 02:01:00	BASE	3.98	213	4.84	218	-3.2	81	-6.0	1	4	964.8	NA	0.0000		9999	6400	0	0	0
2017/11/26 02:02:00	BASE	3.60	214	4.84	218	-3.2	81	-6.0	1	4	964.8	NA	0.0000		9999	6370	0	0	0
2017/11/26 02:03:00	BASE	3.28	221	4.84	218	-3.2	81	-5.9	1	4	964.8	NA	0.0000		9999	6330	0	0	0
2017/11/26 02:04:00	BASE	3.34	224	4.84	218	-3.2	81	-5.9	1	4	964.8	NA	0.0000		9999	6330	0	0	0
2017/11/26 02:05:00	BASE	3.29	221	4.78	216	-3.2	82	-5.9	1	4	964.8	NA	0.0000		9999	6330	0	0	0
2017/11/26 02:06:00	BASE	3.15	224	4.78	216	-3.2	82	-5.8	1	4	964.8	NA	0.0000		9999	6330	0	0	0
2017/11/26 02:07:00	BASE	2.91	225	4.78	216	-3.1	82	-5.7	1	3	964.8	NA	0.0000		9999	6370	0	0	0
2017/11/26 02:08:00	BASE	3.31	217	4.78	216	-3.2	83	-5.7	1	3	964.8	NA	0.0000		9999	6300	0	0	0
2017/11/26 02:09:00	BASE	3.95	214	4.53	214	-3.2	83	-5.7	1	3	964.8	NA	0.0000		9999	6270	0	0	0
2017/11/26 02:10:00	BASE	3.76	214	4.42	213	-3.2	83	-5.7	1	3	964.8	NA	0.0000		9999	6300	0	0	0
2017/11/26 02:11:00	BASE	3.35	215	4.32	211	-3.2	83	-5.7	1	3	964.8	NA	0.0000		9999	1840	6330	0	0
2017/11/26 02:12:00	BASE	3.13	221	4.32	211	-3.2	83	-5.7	1	3	964.8	NA	0.0000		9999	6270	0	0	0
2017/11/26 02:13:00	BASE	3.26	221	4.32	211	-3.2	83	-5.7	1	3	964.8	NA	0.0000		9999	6300	0	0	0
2017/11/26 02:14:00	BASE	3.54	213	4.32	211	-3.2	83	-5.6	1	3	964.8	NA	0.0000		9999	6330	0	0	0
2017/11/26 02:15:00	BASE	4.02	209	5.25	212	-3.2	83	-5.6	1	3	964.8	NA	0.0000		9999	1840	6330	0	0
2017/11/26 02:16:00	BASE	4.51	209	5.25	212	-3.2	84	-5.6	1	2	964.8	NA	0.0000		9999	1840	6370	0	0
2017/11/26 02:17:00	BASE	4.43	210	5.25	212	-3.2	84	-5.6	1	2	964.8	NA	0.0000		9999	6330	0	0	0
2017/11/26 02:18:00	BASE	4.59	213	5.66	217	-3.2	84	-5.6	1	2	964.8	NA	0.0000		9999	6330	0	0	0
2017/11/26 02:19:00	BASE	4.67	210	5.66	217	-3.2	83	-5.7	1	2	964.8	NA	0.0000		9999	6370	0	0	0
2017/11/26 02:20:00	BASE	4.68	207	5.66	206	-3.3	83	-5.8	1	2	964.8	NA	0.0000		9999	6330	0	0	0
2017/11/26 02:21:00	BASE	4.80	206	5.66	206	-3.3	82	-5.9	1	2	964.8	NA	0.0000		9999	6330	0	0	0
2017/11/26 02:22:00	BASE	5.22	207	6.12	206	-3.3	82	-5.9	1	2	964.8	NA	0.0000		9999	6270	0	0	0
2017/11/26 02:23:00	BASE	5.33	205	6.12	206	-3.3	82	-5.9	1	2	964.8	NA	0.0000		9999	2030	6330	0	0
2017/11/26 02:24:00	BASE	5.03	202	6.28	201	-3.3	82	-5.9	1	2	964.8	NA	0.0000		9999	2000	6400	0	0
2017/11/26 02:25:00	BASE	4.91	204	6.28	201	-3.3	82	-5.9	1	2	964.8	NA	0.0000		9999	6370	0	0	0
2017/11/26 02:26:00	BASE	4.45	208	6.28	201	-3.3	82	-5.9	1	2	964.8	NA	0.0000		9999	6370	0	0	0
2017/11/26 02:27:00	BASE	4.32	210	6.28	201	-3.2	82	-5.9	1	2	964.8	NA	0.0000		9999	1970	6330	0	0
2017/11/26 02:28:00	BASE	4.37	216	6.28	201	-3.2	82	-5.8	1	2	964.8	NA	0.0000		9999	2030	6400	0	0
2017/11/26 02:29:00	BASE	4.23	218	6.28	201	-3.2	82	-5.8	1	1	964.8	NA	0.0000		9999	6370	0	0	0
2017/11/26 02:30:00	BASE	4.48	216	6.28	201	-3.2	82	-5.8	1	1	964.8	NA	0.0000		9999	6370	0	0	0
2017/11/26 02:31:00	BASE	4.58	214	6.28	201	-3.2	82	-5.8	1	1	964.8	NA	0.0000		9999	6300	0	0	0
2017/11/26 02:32:00	BASE	4.93	212	6.28	201	-3.2	82	-5.8	0	1	964.8	NA	0.0000		9999	6400	0	0	0
2017/11/26 02:33:00	BASE	5.35	213	6.28	201	-3.2	82	-5.8	1	1	964.8	NA	0.0000		9999	6330	0	0	0
2017/11/26 02:34:00	BASE	5.20	214	6.07	210	-3.2	83	-5.7	0	1	964.8	NA	0.0000		9999	6230	0	0	0
2017/11/26 02:35:00	BASE	5.07	214	6.07	210	-3.2	83	-5.7	0	1	964.8	NA	0.0000		9999	6430	0	0	0
2017/11/26 02:36:00	BASE	5.21	211	6.17	204	-3.2	83	-5.7	0	1	964.8	NA	0.0000		9999	6460	0	0	0
2017/11/26 02:37:00	BASE	5.20	206	6.17	204	-3.2	83	-5.7	0	1	964.8	NA	0.0000		9999	6430	0	0	0
2017/11/26 02:38:00	BASE	5.08	205	6.17	204	-3.2	83	-5.7	0	1	964.8	NA	0.0000		9999	6460	0	0	0
2017/11/26 02:39:00	BASE	5.53	208	6.48	215	-3.2	83	-5.6	0	1	964.7	NA	0.0000		9999	6300	0	0	0
2017/11/26 02:40:00	BASE	5.46	212	6.48	215	-3.2	84	-5.6	0	1	964.7	NA	0.0000		9999	6330	0	0	0
2017/11/26 02:41:00	BASE	5.09	215	6.48	215	-3.2	84	-5.6	0	1	964.7	NA	0.0000		9999	6200	0	0	0
2017/11/26 02:42:00	BASE	4.66	210	6.48	215	-3.2	84	-5.6	0	1	964.8	NA	0.0000		9999	6370	0	0	0
2017/11/26 02:43:00	BASE	4.38	211	6.48	215	-3.2	84	-5.5	0	1	964.8	NA	0.0000		9999	1640	6300	0	0
2017/11/26 02:44:00	BASE	4.24	216	6.48	215	-3.2	84	-5.5	0	1	964.8	NA	0.0000		9999	6140	0	0	0
2017/11/26 02:45:00	BASE	4.49	218	6.48	215	-3.2	85	-5.4	0	1	964.7	NA	0.0000		9999	6070	0	0	0
2017/11/26 02:46:00	BASE	5.09	220	6.48	215	-3.2	85	-5.4	0	1	964.8	NA	0.0000		9999	1640	6170	0	0
2017/11/26 02:47:00	BASE	5.17	217	6.48	215	-3.2	85	-5.4	0	1	964.8	NA	0.0000		9999	1710	6170	0	0
2017/11/26 02:48:00	BASE	4.87	214	6.48	215	-3.2	85	-5.4	0	1	964.7	NA	0.0000		9999	6200	0	0	0
2017/11/26 02:49:00	BASE	4.79	212	6.02	208	-3.3	85	-5.4	0	1	964.8	NA	0.0000		9999	6140	0	0	0
2017/11/26 02:50:00	BASE	4.70	209	5.92	217	-3.3	85	-5.4	0	1	964.8	NA	0.0000		9999	6140	0	0	0
2017/11/26 02:51:00	BASE	4.77	208	5.92	217	-3.3	85	-5.4	0	1	964.7	NA	0.0000		9999	6170	0	0	0
2017/11/26 02:52:00	BASE	4.70	209	5.92	217	-3.3	86	-5.4	0	1	964.7	NA	0.0000		9999	6140	0	0	0
2017/11/26 02:53:00	BASE	4.52	209	5.92	217	-3.3	86	-5.3	0	1	964.7	NA	0.0000		9999	1480	6140	0	0
2017/11/26 02:54:00	BASE	4.78	208	5.92	217	-3.3	86	-5.3	0	1	964.7	NA	0.0000		9999	1440	6230	0	0
2017/11/26 02:55:00	BASE	4.53	211	5.92	217	-3.3	86	-5.2	0	1	964.7	NA	0.0000		9999	1440	6200	0	0
2017/11/26 02:56:00	BASE	4.83	216	6.22	218	-3.3	87	-5.2	0	1	964.7	NA	0.0000		9999	6200	0	0	0
2017/11/26 02:57:00	BASE	5.14	215	6.22	218	-3.3	87	-5.2	0	1	964.7	NA	0.0000		9999	6100	0	0	0
2017/11/26 02:58:00	BASE	4.76	210	6.22	218	-3.3	87	-5.2	0	1	964.7	NA	0.0000		9999	6000	0	0	0
2017/11/26 02:59:00	BASE	4.80	211	6.22	218	-3.3	87	-5.1	0	0	964.7	NA	0.0000		9999	6140	0	0	0
2017/11/26 03:00:00	BASE	5.04	214	6.22	218	-3.3	87	-5.1	0	0	964.7	NA	0.0000		9999	6200	0	0	0
2017/11/26 03:01:00	BASE	4.96	208	6.22	218	-3.3	88	-5.1	0	0	964.7	NA	0.0000		9999	3220	6330	0	0
2017/11/26 03:02:00	BASE	5.11	211	6.22	218	-3.3	88	-5.0	0	0	964.7	NA	0.0000		9999	1640	6170	0	0
2017/11/26 03:03:00	BASE	4.86	217	6.22	218	-3.3	88	-5.0	0	0	964.7	NA	0.0000		9999	1670	6270	0	0
2017/11/26 03:04:00	BASE	4.76	216	6.22	218	-3.3	88	-5.0	0	0	964.7	NA	0.0000		9999	6300	0	0	0
2017/11/26 03:05:00	BASE	5.39	213	6.38	206	-3.3	88	-5.0	0	0	964.7	NA	0.0000		9999	3310	6330	0	0
2017/11/26 03:06:00	BASE	5.00	214	6.38	206	-3.3	88	-5.0	0	0	964.7	NA	0.0000		9999	6330	0	0	0
2017/11/26 03:07:00	BASE	4.19	220	6.38	206	-3.3	88	-4.9	0	0	964.7	NA	0.0000		9999	1350	6460	0	0
2017/11/26 03:08:00	BASE	4.56	225	6.38	206	-3.3	88	-4.9	0	0	964.7	NA	0.0000		9999	1310	0	0	0
2017/11/26 03:09:00	BASE	4.86	219	6.38	206	-3.3	89	-4.9	0	0	964.7	NA	0.0000		9999	1380	6460	0	0
2017/11/26 03:10:00	BASE	4.67	214	6.38	206	-3.3	89	-4.8	0	0	964.7	NA	0.0000		9999	1510	6430	0	0
2017/11/26 03:11:00	BASE	4.28	220	6.38	206	-3.3	89	-4.8	0	0	964.7	NA	0.0000		9999	1970	6460	0	0
2017/11/26 03:12:00	BASE	4.03	220	6.38	206	-3.2	89	-4.7	0	0	964.6	NA	0.0000		9999	1280	6460	0	0
2017/11/26 03:13:00	BASE	4.40	218	6.38	206	-3.2	90	-4.7	0	0	964.6	NA	0.0000		9999	6460	0	0	0
2017/11/26 03:14:00	BASE	4.71	219	6.38	206	-3.2	90	-4.7	0	0	964.6	NA	0.0000		9999	6430	0	0	0
2017/11/26 03:15:00	BASE	4.81	218	5.97	225	-3.3	90	-4.7	0	0	964.6	NA	0.0000		9999	6500	0	0	0
2017/11/26 03:16:00	BASE	4.73	218	5.97	225	-3.3	90	-4.7	0	0	964.6	NA	0.0000		9999	6400	0	0	0
2017/11/26 03:17:00	BASE	4.86	217	5.97	225	-3.3	90	-4.7	0	0	964.6	NA	0.0000		9999	6460	0	0	0
2017/11/26 03:18:00	BASE	4.42	217	5.92	216	-3.3	90	-4.7	0	0	964.6	NA	0.0000		9999	6460	0	0	0
2017/11/26 03:19:00	BASE	4.27	218	5.92	216	-3.3	90	-4.7	0	0	964.6	NA	0.0000		9999	6500	0	0	0
2017/11/26 03:20:01	BASE	4.84	217	6.02	220	-3.3	90	-4.7	0	0	964.6	NA	0.0000		9999	1540	6530	0	0
2017/11/26 03:21:00	BASE	5.44	216	6.64	217	-3.3	90	-4.7	0	0	964.6	NA	0.0000		9999	1640	6530	0	0
2017/11/26 03:22:00	BASE	5.51	214	6.74	213	-3.3	90	-4.7	0	0	964.6	NA	0.0000		9999	1350	6590	0	0
2017/11/26 03:23:00	BASE	5.07	212	6.74	213	-3.3	90	-4.7	0	0	964.6	NA	0.0000		9999	1380	0	0	0
2017/11/26 03:24:00	BASE	5.54	210	6.74	213	-3.3	90	-4.7	0	0	964.6	NA	0.0000		9999	1440	0	0	0
2017/11/26 03:25:00	BASE	5.84	211	6.74	213	-3.3	91	-4.6	0	0	964.6	NA	0.0000		9999	1510	0	0	0
2017/11/26 03:26:00	BASE	5.27	213	6.74	213	-3.3	91	-4.6	0	0	964.6	NA	0.0000		9999	1480	6560	0	0
2017/11/26 03:27:00	BASE	5.10	215	6.74	213	-3.3	91	-4.6	0	0	964.6	NA	0.0000		9999	6530	0	0	0
2017/11/26 03:28:00	BASE	4.95	213	6.74	213	-3.3	91	-4.6	0	0	964.7	NA	0.0000		9999	1440	6590	0	0
2017/11/26 03:29:00	BASE	4.61	213	6.74	213	-3.3	91	-4.6	0	0	964.6	NA	0.0000		9999	1310	6590	0	0
2017/11/26 03:30:00	BASE	5.06	217	6.74	213	-3.3	91	-4.5	0	0	964.6	NA	0.0000		9999	6590	0	0	0
2017/11/26 03:31:00	BASE	5.71	218	6.74	213	-3.3	91	-4.5	0	0	964.6	NA	0.0000		9999	1380	6630	0	0
2017/11/26 03:32:00	BASE	5.84	215	6.69	219	-3.3	92	-4.4	0	0	964.6	NA	0.0000		9999	1250	6630	0	0
2017/11/26 03:33:00	BASE	5.93	214	7.05	212	-3.3	92	-4.4	0	0	964.6	NA	0.0000		9999	1440	6590	0	0
2017/11/26 03:34:00	BASE	5.86	216	7.05	212	-3.3	92	-4.4	0	0	964.6	NA	0.0000		9999	6590	0	0	0
2017/11/26 03:35:00	BASE	5.67	208	7.05	212	-3.3	92	-4.4	0	0	964.6	NA	0.0000		9999	1380	6630	0	0
2017/11/26 03:36:00	BASE	5.82	201	7.05	212	-3.3	92	-4.4	0	0	964.6	NA	0.0000		9999	1310	6590	0	0
2017/11/26 03:37:00	BASE	5.61	204	7.05	212	-3.3	92	-4.5	0	0	964.6	NA	0.0000		9999	6630	0	0	0
2017/11/26 03:38:00	BASE	5.23	210	7.05	212	-3.4	92	-4.5	0	0	964.6	NA	0.0000		9999	1410	6660	0	0
2017/11/26 03:39:00	BASE	5.44	213	7.05	212	-3.3	92	-4.5	0	0	964.6	NA	0.0000		9999	6630	0	0	0
2017/11/26 03:40:00	BASE	5.98	208	7.05	212	-3.4	92	-4.5	0	0	964.6	NA	0.0000		9999	6630	0	0	0
2017/11/26 03:41:00	BASE	5.82	207	7.05	212	-3.4	92	-4.5	0	0	964.6	NA	0.0000		9999	6630	0	0	0
2017/11/26 03:42:00	BASE	5.32	210	7.05	212	-3.4	92	-4.5	0	0	964.6	NA	0.0000		9999	6660	0	0	0
2017/11/26 03:43:00	BASE	5.40	208	6.94	215	-3.4	91	-4.6	0	0	964.6	NA	0.0000		9999	6530	0	0	0
2017/11/26 03:44:00	BASE	5.66	208	6.94	215	-3.4	91	-4.6	0	0	964.6	NA	0.0000		9999	6530	0	0	0
2017/11/26 03:45:00	BASE	5.88	212	6.94	215	-3.4	91	-4.6	0	0	964.6	NA	0.0000		9999	6560	0	0	0
2017/11/26 03:46:00	BASE	6.17	215	7.36	219	-3.3	92	-4.5	0	0	964.6	NA	0.0000		9999	1380	2100	0	0
2017/11/26 03:47:00	BASE	6.36	216	7.36	219	-3.4	92	-4.5	0	0	964.6	NA	0.0000		9999	1210	2000	0	0
2017/11/26 03:48:00	BASE	6.06	213	7.36	219	-3.4	92	-4.5	0	0	964.6	NA	0.0000		9999	1180	0	0	0
2017/11/26 03:49:00	BASE	5.89	211	7.36	219	-3.3	92	-4.5	0	0	964.6	NA	0.0000		9999	1250	0	0	0
2017/11/26 03:50:00	BASE	6.29	209	7.41	205	-3.3	92	-4.4	0	0	964.6	NA	0.0000		9999	1310	2130	0	0
2017/11/26 03:51:00	BASE	6.69	206	7.41	205	-3.4	92	-4.5	0	0	964.6	NA	0.0000		9999	2170	6660	0	0
2017/11/26 03:52:00	BASE	6.67	207	7.41	205	-3.4	92	-4.5	0	0	964.6	NA	0.0000		9999	6370	0	0	0
2017/11/26 03:53:00	BASE	6.17	205	7.41	205	-3.4	92	-4.5	0	0	964.6	NA	0.0000		9999	1440	0	0	0
2017/11/26 03:54:00	BASE	6.17	204	7.46	205	-3.4	92	-4.5	0	0	964.6	NA	0.0000		9999	6300	0	0	0
2017/11/26 03:55:00	BASE	6.46	202	7.46	205	-3.4	92	-4.5	0	0	964.6	NA	0.0000		9999	1440	0	0	0
2017/11/26 03:56:00	BASE	6.17	200	7.46	205	-3.3	91	-4.5	0	0	964.6	NA	0.0000		9999	1770	6430	0	0
2017/11/26 03:57:00	BASE	6.14	204	7.46	205	-3.3	91	-4.6	0	0	964.6	NA	0.0000		9999	6460	0	0	0
2017/11/26 03:58:00	BASE	6.42	207	7.51	207	-3.3	91	-4.6	0	0	964.6	NA	0.0000		9999	6730	0	0	0
2017/11/26 03:59:00	BASE	6.80	208	7.61	210	-3.3	91	-4.6	0	0	964.5	NA	0.0000		9999	6790	0	0	0
2017/11/26 04:00:00	BASE	6.78	206	7.61	210	-3.4	91	-4.6	0	0	964.5	NA	0.0000		9999	6860	0	0	0
2017/11/26 04:01:00	BASE	6.85	204	7.77	203	-3.4	91	-4.7	0	0	964.5	NA	0.0000		9999	7090	0	0	0
2017/11/26 04:02:00	BASE	7.00	204	7.77	203	-3.4	90	-4.7	0	0	964.5	NA	0.0000		9999	5450	0	0	0
2017/11/26 04:03:00	BASE	6.95	206	7.82	208	-3.4	90	-4.8	0	0	964.5	NA	0.0000		9999	5450	0	0	0
2017/11/26 04:04:00	BASE	7.29	207	7.92	209	-3.4	90	-4.9	0	0	964.5	NA	0.0000		9999	5810	6760	0	0
2017/11/26 04:05:00	BASE	7.62	207	8.44	203	-3.4	89	-4.9	0	0	964.5	NA	0.0000		9999	6690	0	0	0
2017/11/26 04:06:00	BASE	7.78	206	8.44	203	-3.4	89	-5.0	0	0	964.5	NA	0.0000		9999	6920	0	0	0
2017/11/26 04:07:00	BASE	7.75	206	8.49	208	-3.4	89	-5.0	0	0	964.5	NA	0.0000		9999	7150	0	0	0
2017/11/26 04:08:00	BASE	7.68	208	8.49	208	-3.4	88	-5.1	0	0	964.5	NA	0.0000		9999	6790	0	0	0
2017/11/26 04:09:00	BASE	7.42	209	8.49	208	-3.4	88	-5.1	0	0	964.5	NA	0.0000		9999	6790	0	0	0
2017/11/26 04:10:00	BASE	7.39	212	8.49	215	-3.4	87	-5.2	0	0	964.5	NA	0.0000		9999	6860	0	0	0
2017/11/26 04:11:00	BASE	7.15	210	8.49	215	-3.4	87	-5.3	0	0	964.5	NA	0.0000		9999	6860	0	0	0
2017/11/26 04:12:00	BASE	6.84	203	8.49	215	-3.4	86	-5.4	0	0	964.5	NA	0.0000		9999	6860	0	0	0
2017/11/26 04:13:00	BASE	6.64	200	8.49	215	-3.4	86	-5.4	0	0	964.5	NA	0.0000		9999	6820	0	0	0
2017/11/26 04:14:00	BASE	6.81	202	8.49	215	-3.3	85	-5.5	0	0	964.5	NA	0.0000		9999	1870	7020	0	0
2017/11/26 04:15:00	BASE	7.47	205	8.49	215	-3.3	85	-5.5	0	0	964.5	NA	0.0000		9999	6890	0	0	0
2017/11/26 04:16:00	BASE	7.05	208	8.49	215	-3.3	85	-5.5	0	0	964.5	NA	0.0000		9999	6860	0	0	0
2017/11/26 04:17:00	BASE	6.69	205	8.49	215	-3.3	85	-5.4	0	0	964.5	NA	0.0000		9999	6820	0	0	0
2017/11/26 04:18:00	BASE	6.89	206	8.49	215	-3.3	85	-5.4	0	0	964.5	NA	0.0000		9999	6820	0	0	0
2017/11/26 04:19:00	BASE	7.13	209	8.49	215	-3.3	85	-5.4	0	0	964.5	NA	0.0000		9999	6790	0	0	0
2017/11/26 04:20:00	BASE	6.86	209	8.33	202	-3.3	85	-5.4	0	0	964.5	NA	0.0000		9999	1840	6820	0	0
2017/11/26 04:21:00	BASE	6.50	209	8.33	202	-3.3	85	-5.4	0	0	964.5	NA	0.0000		9999	6790	0	0	0
2017/11/26 04:22:00	BASE	6.69	206	8.33	202	-3.3	85	-5.4	0	0	964.5	NA	0.0000		9999	6730	0	0	0
2017/11/26 04:23:00	BASE	7.00	208	8.33	202	-3.3	85	-5.4	0	0	964.5	NA	0.0000		9999	6860	0	0	0
2017/11/26 04:24:00	BASE	7.07	209	8.33	202	-3.3	86	-5.4	0	0	964.5	NA	0.0000		9999	6760	0	0	0
2017/11/26 04:25:00	BASE	6.73	210	8.33	202	-3.3	86	-5.3	0	0	964.5	NA	0.0000		9999	7050	0	0	0
2017/11/26 04:26:00	BASE	6.79	211	8.33	202	-3.3	86	-5.2	0	0	964.5	NA	0.0000		9999	7020	0	0	0
2017/11/26 04:27:00	BASE	7.58	210	9.31	206	-3.3	87	-5.2	0	0	964.5	NA	0.0000		9999	6990	0	0	0
2017/11/26 04:28:00	BASE	8.33	208	9.31	206	-3.4	87	-5.2	0	0	964.5	NA	0.0000		9999	6920	0	0	0
2017/11/26 04:29:00	BASE	8.17	206	9.31	206	-3.4	87	-5.2	0	0	964.5	NA	0.0000		9999	6820	0	0	0
2017/11/26 04:30:00	BASE	7.74	205	9.31	206	-3.4	87	-5.3	0	0	964.5	NA	0.0000		9999	6860	0	0	0
2017/11/26 04:31:00	BASE	7.83	204	9.31	206	-3.5	87	-5.3	0	0	964.5	NA	0.0000		9999	6820	0	0	0
2017/11/26 04:32:00	BASE	7.93	204	9.31	206	-3.5	86	-5.4	0	0	964.5	NA	0.0000		9999	6860	0	0	0
2017/11/26 04:33:00	BASE	7.64	204	9.31	206	-3.5	86	-5.4	0	0	964.5	NA	0.0000		9999	6960	0	0	0
2017/11/26 04:34:00	BASE	7.61	205	9.31	206	-3.5	86	-5.5	0	0	964.5	NA	0.0000		9999	6920	0	0	0
2017/11/26 04:35:00	BASE	7.60	209	9.31	206	-3.5	86	-5.5	0	0	964.5	NA	0.0000		9999	1640	6860	0	0
2017/11/26 04:36:00	BASE	7.51	208	9.31	206	-3.4	86	-5.4	0	0	964.5	NA	0.0000		9999	1710	7090	0	0
2017/11/26 04:37:00	BASE	7.42	208	9.16	206	-3.4	86	-5.4	0	0	964.5	NA	0.0000		9999	6990	0	0	0
2017/11/26 04:38:00	BASE	7.07	205	8.69	212	-3.4	86	-5.4	0	0	964.5	NA	0.0000		9999	6960	0	0	0
2017/11/26 04:39:00	BASE	7.47	199	8.69	212	-3.4	86	-5.4	0	0	964.5	NA	0.0000		9999	6990	0	0	0
2017/11/26 04:40:00	BASE	7.73	198	8.69	212	-3.4	86	-5.4	0	0	964.5	NA	0.0000		9999	7050	0	0	0
2017/11/26 04:41:00	BASE	7.36	201	8.69	212	-3.4	86	-5.4	0	0	964.5	NA	0.0000		9999	7090	0	0	0
2017/11/26 04:42:00	BASE	7.43	205	8.69	212	-3.5	86	-5.5	0	0	964.5	NA	0.0000		9999	7090	0	0	0
2017/11/26 04:43:00	BASE	7.69	202	8.69	212	-3.5	85	-5.6	0	0	964.5	NA	0.0000		9999	2130	6960	0	0
2017/11/26 04:44:00	BASE	7.60	200	8.80	203	-3.5	85	-5.7	0	0	964.5	NA	0.0000		9999	7020	0	0	0
2017/11/26 04:45:00	BASE	7.83	203	9.31	207	-3.5	85	-5.7	0	0	964.5	NA	0.0000		9999	1940	6990	0	0
2017/11/26 04:46:00	BASE	8.23	204	9.31	207	-3.5	84	-5.8	0	0	964.5	NA	0.0000		9999	6990	0	0	0
2017/11/26 04:47:00	BASE	7.86	205	9.31	207	-3.5	84	-5.8	0	0	964.5	NA	0.0000		9999	7050	0	0	0
2017/11/26 04:48:00	BASE	7.47	206	9.31	207	-3.4	84	-5.7	0	0	964.5	NA	0.0000		9999	7090	0	0	0
2017/11/26 04:49:00	BASE	7.85	207	9.31	207	-3.4	85	-5.6	0	0	964.5	NA	0.0000		9999	7120	0	0	0
2017/11/26 04:50:00	BASE	8.23	210	9.31	207	-3.4	85	-5.6	0	0	964.5	NA	0.0000		9999	1800	7090	0	0
2017/11/26 04:51:00	BASE	7.98	211	9.31	207	-3.5	85	-5.6	0	1	964.5	NA	0.0000		9999	2170	7120	0	0
2017/11/26 04:52:00	BASE	7.74	209	9.31	207	-3.5	85	-5.6	0	1	964.6	NA	0.0000		9999	7020	0	0	0
2017/11/26 04:53:00	BASE	7.81	208	9.31	207	-3.5	85	-5.7	0	1	964.5	NA	0.0000		9999	7150	0	0	0
2017/11/26 04:54:00	BASE	7.76	201	9.31	207	-3.6	84	-5.8	0	1	964.6	NA	0.0000		9999	7120	0	0	0
2017/11/26 04:55:00	BASE	7.52	198	9.11	203	-3.6	84	-5.9	0	1	964.5	NA	0.0000		9999	1800	0	0	0
2017/11/26 04:56:00	BASE	7.70	201	9.11	203	-3.5	84	-5.9	0	1	964.6	NA	0.0000		9999	1870	7090	0	0
2017/11/26 04:57:00	BASE	7.70	201	9.11	203	-3.5	84	-5.9	0	1	964.6	NA	0.0000		9999	1940	7150	0	0
2017/11/26 04:58:00	BASE	7.58	200	9.21	202	-3.5	84	-5.8	0	1	964.6	NA	0.0000		9999	1640	0	0	0
2017/11/26 04:59:00	BASE	7.89	199	9.21	202	-3.5	85	-5.7	0	1	964.6	NA	0.0000		9999	1670	7480	0	0
2017/11/26 05:00:00	BASE	8.30	203	9.21	210	-3.5	85	-5.6	0	1	964.6	NA	0.0000		9999	1670	7420	0	0
2017/11/26 05:01:00	BASE	8.28	205	9.21	203	-3.5	86	-5.6	0	1	964.6	NA	0.0000		9999	1610	7510	0	0
2017/11/26 05:02:00	BASE	8.34	206	9.21	208	-3.5	86	-5.6	0	1	964.6	NA	0.0000		9999	1970	7420	0	0
2017/11/26 05:03:00	BASE	8.48	206	9.21	206	-3.6	86	-5.5	0	1	964.6	NA	0.0000		9999	7420	0	0	0
2017/11/26 05:04:00	BASE	8.23	204	9.21	206	-3.6	87	-5.5	0	1	964.6	NA	0.0000		9999	1610	7480	0	0
2017/11/26 05:05:00	BASE	8.09	201	9.21	206	-3.6	87	-5.5	0	1	964.6	NA	0.0000		9999	7480	0	0	0
2017/11/26 05:06:00	BASE	8.13	199	9.21	206	-3.6	87	-5.4	0	1	964.6	NA	0.0000		9999	1710	2170	7450	0
2017/11/26 05:07:00	BASE	8.25	195	9.21	206	-3.6	87	-5.5	0	1	964.6	NA	0.0000		9999	1710	7420	0	0
2017/11/26 05:08:00	BASE	7.88	192	9.21	206	-3.6	87	-5.5	0	1	964.6	NA	0.0000		9999	1640	0	0	0
2017/11/26 05:09:00	BASE	7.38	198	9.21	206	-3.6	87	-5.5	0	1	964.6	NA	0.0000		9999	7450	0	0	0
2017/11/26 05:10:00	BASE	7.51	204	9.21	206	-3.6	87	-5.5	0	1	964.6	NA	0.0000		9999	7480	0	0	0
2017/11/26 05:11:00	BASE	7.78	200	9.21	206	-3.6	87	-5.5	0	1	964.6	NA	0.0000		9999	7450	0	0	0
2017/11/26 05:12:00	BASE	7.99	198	9.21	206	-3.6	87	-5.5	0	1	964.6	NA	0.0000		9999	7450	0	0	0
2017/11/26 05:13:00	BASE	8.20	201	9.36	202	-3.6	87	-5.5	0	1	964.6	NA	0.0000		9999	7480	0	0	0
2017/11/26 05:14:00	BASE	8.22	200	9.36	202	-3.6	87	-5.5	0	1	964.6	NA	0.0000		9999	7420	0	0	0
2017/11/26 05:15:00	BASE	8.70	198	9.72	198	-3.7	87	-5.6	0	1	964.6	NA	0.0000		9999	7510	0	0	0
2017/11/26 05:16:00	BASE	8.77	197	9.72	198	-3.7	86	-5.6	0	1	964.6	NA	0.0000		9999	7480	0	0	0
2017/11/26 05:17:00	BASE	8.00	195	9.72	198	-3.7	86	-5.7	0	1	964.6	NA	0.0000		9999	1840	7450	0	0
2017/11/26 05:18:00	BASE	7.27	197	9.72	198	-3.7	86	-5.7	0	1	964.7	NA	0.0000		9999	1770	7510	0	0
2017/11/26 05:19:00	BASE	7.28	199	9.72	198	-3.6	86	-5.7	1	1	964.7	NA	0.0000		9999	7480	0	0	0
2017/11/26 05:20:00	BASE	7.87	197	9.72	198	-3.6	86	-5.7	0	1	964.7	NA	0.0000		9999	7480	0	0	0
2017/11/26 05:21:00	BASE	8.24	196	9.72	198	-3.6	86	-5.6	1	1	964.6	NA	0.0000		9999	7480	0	0	0
2017/11/26 05:22:00	BASE	8.58	198	9.72	198	-3.6	86	-5.6	0	1	964.7	NA	0.0000		9999	7450	0	0	0
2017/11/26 05:23:00	BASE	8.56	201	9.72	198	-3.6	86	-5.6	0	1	964.7	NA	0.0000		9999	7450	0	0	0
2017/11/26 05:24:00	BASE	8.18	201	9.72	198	-3.7	86	-5.7	1	1	964.7	NA	0.0000		9999	7480	0	0	0
2017/11/26 05:25:00	BASE	7.82	198	9.62	193	-3.7	86	-5.7	1	1	964.7	NA	0.0000		9999	1970	7450	0	0
2017/11/26 05:26:00	BASE	7.95	199	9.62	193	-3.7	86	-5.8	1	1	964.6	NA	0.0000		9999	7420	0	0	0
2017/11/26 05:27:00	BASE	8.38	203	9.62	193	-3.7	85	-5.8	1	2	964.6	NA	0.0000		9999	7320	0	0	0
2017/11/26 05:28:00	BASE	8.49	200	9.62	193	-3.7	85	-5.8	1	2	964.6	NA	0.0000		9999	7420	0	0	0
2017/11/26 05:29:00	BASE	8.26	196	9.62	193	-3.7	85	-5.9	1	2	964.6	NA	0.0000		9999	7380	0	0	0
2017/11/26 05:30:00	BASE	8.54	198	9.67	203	-3.7	85	-5.9	1	2	964.6	NA	0.0000		9999	7380	0	0	0
2017/11/26 05:31:00	BASE	8.64	197	9.67	203	-3.7	85	-5.9	1	2	964.7	NA	0.0000		9999	7380	0	0	0
2017/11/26 05:32:00	BASE	7.69	198	9.67	203	-3.7	85	-5.9	1	2	964.7	NA	0.0000		9999	7480	0	0	0
2017/11/26 05:33:00	BASE	7.39	201	9.67	203	-3.7	85	-5.9	1	2	964.7	NA	0.0000		9999	7550	0	0	0
2017/11/26 05:34:00	BASE	7.51	204	9.67	203	-3.6	85	-5.9	1	2	964.7	NA	0.0000		9999	1970	7550	0	0
2017/11/26 05:35:00	BASE	7.24	202	9.67	203	-3.6	85	-5.8	1	2	964.7	NA	0.0000		9999	1870	7550	0	0
2017/11/26 05:36:00	BASE	7.94	197	9.67	203	-3.6	85	-5.8	1	2	964.6	NA	0.0000		9999	7510	0	0	0
2017/11/26 05:37:00	BASE	8.24	196	9.67	203	-3.6	85	-5.8	1	2	964.7	NA	0.0000		9999	7580	0	0	0
2017/11/26 05:38:00	BASE	7.56	193	9.67	203	-3.7	85	-5.8	1	2	964.7	NA	0.0000		9999	1770	7580	0	0
2017/11/26 05:39:00	BASE	7.30	196	9.67	203	-3.7	85	-5.8	1	2	964.7	NA	0.0000		9999	1770	2260	7610	0
2017/11/26 05:40:00	BASE	7.32	201	9.11	197	-3.7	85	-5.8	1	2	964.7	NA	0.0000		9999	1770	7610	0	0
2017/11/26 05:41:00	BASE	6.93	200	9.11	197	-3.6	85	-5.7	1	3	964.7	NA	0.0000		9999	7610	0	0	0
2017/11/26 05:42:00	BASE	6.91	199	9.11	197	-3.6	86	-5.7	1	3	964.7	NA	0.0000		9999	1770	7640	0	0
2017/11/26 05:43:00	BASE	7.36	194	9.11	197	-3.6	86	-5.6	1	3	964.7	NA	0.0000		9999	1800	7640	0	0
2017/11/26 05:44:00	BASE	7.55	193	9.11	197	-3.6	87	-5.5	1	3	964.7	NA	0.0000		9999	1840	7640	0	0
2017/11/26 05:45:00	BASE	7.92	199	9.11	197	-3.6	87	-5.5	1	3	964.7	NA	0.0000		9999	7610	0	0	0
2017/11/26 05:46:00	BASE	8.09	206	9.16	214	-3.6	87	-5.5	1	3	964.7	NA	0.0000		9999	1710	7680	0	0
2017/11/26 05:47:00	BASE	8.27	208	9.16	214	-3.6	87	-5.6	1	3	964.8	NA	0.0000		9999	7610	0	0	0
2017/11/26 05:48:00	BASE	8.43	207	9.16	214	-3.7	86	-5.6	1	3	964.8	NA	0.0000		9999	7640	0	0	0
2017/11/26 05:49:00	BASE	8.50	205	9.36	203	-3.7	86	-5.6	1	3	964.8	NA	0.0000		9999	1770	0	0	0
2017/11/26 05:50:00	BASE	7.99	197	9.36	203	-3.7	86	-5.7	1	3	964.8	NA	0.0000		9999	1800	7580	0	0
2017/11/26 05:51:00	BASE	7.42	194	9.36	203	-3.7	86	-5.7	1	4	964.8	NA	0.0000		9999	1840	7550	0	0
2017/11/26 05:52:00	BASE	8.02	197	9.41	194	-3.7	86	-5.7	1	4	964.8	NA	0.0000		9999	1770	7510	0	0
2017/11/26 05:53:00	BASE	8.44	198	9.41	202	-3.6	86	-5.7	1	4	964.8	NA	0.0000		9999	1740	7550	0	0
2017/11/26 05:54:00	BASE	8.07	198	9.41	202	-3.7	86	-5.7	1	4	964.8	NA	0.0000		9999	7510	0	0	0
2017/11/26 05:55:00	BASE	7.86	200	9.41	202	-3.7	86	-5.7	1	4	964.8	NA	0.0000		9999	7550	0	0	0
2017/11/26 05:56:00	BASE	7.62	206	9.41	202	-3.7	86	-5.7	1	4	964.8	NA	0.0000		9999	7510	0	0	0
2017/11/26 05:57:00	BASE	7.48	209	9.41	202	-3.7	86	-5.7	1	4	964.8	NA	0.0000		9999	7480	0	0	0
2017/11/26 05:58:00	BASE	8.08	205	9.83	194	-3.7	86	-5.7	1	4	964.8	NA	0.0000		9999	7550	0	0	0
2017/11/26 05:59:00	BASE	8.68	199	9.83	194	-3.7	86	-5.7	2	4	964.8	NA	0.0000		9999	7550	0	0	0
2017/11/26 06:00:00	BASE	8.24	199	9.83	194	-3.7	86	-5.7	2	5	964.8	NA	0.0000		9999	7450	0	0	0
2017/11/26 06:01:00	BASE	7.33	202	9.83	194	-3.7	86	-5.7	2	5	964.9	NA	0.0000		9999	1800	7450	0	0
2017/11/26 06:02:00	BASE	7.27	201	9.83	194	-3.7	86	-5.7	2	5	964.9	NA	0.0000		9999	7450	0	0	0
2017/11/26 06:03:00	BASE	7.68	199	9.83	194	-3.7	86	-5.7	2	5	964.9	NA	0.0000		9999	7480	0	0	0
2017/11/26 06:04:00	BASE	8.14	202	9.83	194	-3.7	86	-5.7	2	5	964.8	NA	0.0000		9999	7480	0	0	0
2017/11/26 06:05:00	BASE	8.04	202	9.83	194	-3.7	86	-5.7	2	5	964.9	NA	0.0000		9999	7450	0	0	0
2017/11/26 06:06:00	BASE	7.50	203	9.83	194	-3.7	86	-5.7	2	6	964.9	NA	0.0000		9999	7420	0	0	0
2017/11/26 06:07:00	BASE	6.94	203	9.83	194	-3.7	86	-5.7	2	6	964.9	NA	0.0000		9999	7510	0	0	0
2017/11/26 06:08:00	BASE	6.68	203	9.67	199	-3.7	86	-5.7	2	6	964.9	NA	0.0000		9999	1840	7480	0	0
2017/11/26 06:09:00	BASE	7.17	205	9.11	206	-3.6	86	-5.7	2	6	964.9	NA	0.0000		9999	1800	7450	0	0
2017/11/26 06:10:00	BASE	8.08	206	9.31	207	-3.6	86	-5.6	2	6	964.9	NA	0.0000		9999	1870	7380	0	0
2017/11/26 06:11:00	BASE	8.37	207	9.31	207	-3.6	86	-5.6	2	6	964.9	NA	0.0000		9999	7450	0	0	0
2017/11/26 06:12:00	BASE	7.93	207	9.31	207	-3.7	86	-5.6	2	7	964.9	NA	0.0000		9999	7450	0	0	0
2017/11/26 06:13:00	BASE	7.64	204	9.31	207	-3.7	86	-5.6	2	7	965.0	NA	0.0000		9999	1940	7510	0	0
2017/11/26 06:14:00	BASE	8.03	200	9.57	196	-3.7	86	-5.6	2	7	965.0	NA	0.0000		9999	1870	7480	0	0
2017/11/26 06:15:00	BASE	8.17	197	9.57	196	-3.7	86	-5.7	2	7	965.1	NA	0.0000		9999	7380	0	0	0
2017/11/26 06:16:00	BASE	7.64	201	9.57	196	-3.7	86	-5.7	2	7	965.1	NA	0.0000		9999	7320	0	0	0
2017/11/26 06:17:00	BASE	7.46	205	9.57	196	-3.6	86	-5.6	2	7	965.1	NA	0.0000		9999	7280	0	0	0
2017/11/26 06:18:00	BASE	8.08	205	9.57	196	-3.6	86	-5.6	2	7	965.1	NA	0.0000		9999	7380	0	0	0
2017/11/26 06:19:00	BASE	8.22	202	9.57	196	-3.6	86	-5.6	2	8	965.1	NA	0.0000		9999	1870	7280	0	0
2017/11/26 06:20:00	BASE	7.75	195	9.57	196	-3.6	86	-5.6	3	8	965.1	NA	0.0000		9999	1900	7250	0	0
2017/11/26 06:21:00	BASE	8.01	196	9.57	196	-3.6	86	-5.6	3	8	965.1	NA	0.0000		9999	1840	7420	0	0
2017/11/26 06:22:00	BASE	8.26	204	9.57	196	-3.6	86	-5.6	3	9	965.1	NA	0.0000		9999	7420	0	0	0
2017/11/26 06:23:00	BASE	8.25	206	9.57	196	-3.6	86	-5.7	3	9	965.1	NA	0.0000		9999	7350	0	0	0
2017/11/26 06:24:00	BASE	7.74	207	9.52	205	-3.7	86	-5.7	3	9	965.2	NA	0.0000		9999	6230	0	0	0
2017/11/26 06:25:00	BASE	7.18	207	9.52	205	-3.6	86	-5.7	3	9	965.2	NA	0.0000		9999	7350	0	0	0
2017/11/26 06:26:00	BASE	7.67	208	9.52	205	-3.6	86	-5.7	3	9	965.2	NA	0.0000		9999	7350	0	0	0
2017/11/26 06:27:00	BASE	8.46	211	9.52	205	-3.6	86	-5.7	3	10	965.1	NA	0.0000		9999	1870	7380	0	0
2017/11/26 06:28:00	BASE	8.58	212	9.52	205	-3.6	86	-5.7	3	10	965.2	NA	0.0000		9999	7320	0	0	0
2017/11/26 06:29:00	BASE	7.92	211	9.52	205	-3.6	86	-5.6	3	10	965.2	NA	0.0000		9999	7190	0	0	0
2017/11/26 06:30:00	BASE	7.44	210	9.52	205	-3.6	86	-5.6	3	10	965.2	NA	0.0000		9999	1940	7320	0	0
2017/11/26 06:31:00	BASE	8.05	205	9.52	203	-3.6	86	-5.6	4	11	965.2	NA	0.0000		9999	2000	6430	0	0
2017/11/26 06:32:00	BASE	8.71	201	9.52	203	-3.6	86	-5.6	4	11	965.2	NA	0.0000		9999	7220	0	0	0
2017/11/26 06:33:00	BASE	8.79	201	9.77	207	-3.6	86	-5.7	4	11	965.2	NA	0.0000		9999	1870	7220	0	0
2017/11/26 06:34:00	BASE	8.76	199	9.77	207	-3.6	86	-5.7	4	12	965.2	NA	0.0000		9999	7250	0	0	0
2017/11/26 06:35:00	BASE	8.73	199	9.77	207	-3.6	85	-5.7	4	12	965.2	NA	0.0000		9999	6430	7280	0	0
2017/11/26 06:36:00	BASE	8.54	201	9.77	207	-3.6	85	-5.8	4	13	965.2	NA	0.0000		9999	6270	0	0	0
2017/11/26 06:37:00	BASE	8.99	204	10.08	204	-3.6	85	-5.8	5	13	965.2	NA	0.0000		9999	7250	0	0	0
2017/11/26 06:38:00	BASE	8.90	206	10.08	204	-3.6	85	-5.7	5	13	965.3	NA	0.0000		9999	7280	0	0	0
2017/11/26 06:39:00	BASE	8.25	205	10.08	204	-3.6	86	-5.7	5	13	965.3	NA	0.0000		9999	1870	7380	0	0
2017/11/26 06:40:00	BASE	8.59	201	10.08	204	-3.6	86	-5.6	5	13	965.3	NA	0.0000		9999	1740	2950	7190	0
2017/11/26 06:41:00	BASE	8.71	200	10.08	204	-3.6	86	-5.6	5	13	965.3	NA	0.0000		9999	2820	0	0	0
2017/11/26 06:42:00	BASE	7.78	201	10.08	204	-3.6	86	-5.6	5	13	965.3	NA	0.0000		9999	2000	2820	0	0
2017/11/26 06:43:00	BASE	7.33	202	10.08	204	-3.6	86	-5.6	5	13	965.3	NA	0.0000		9999	2000	2820	7350	0
2017/11/26 06:44:00	BASE	7.20	204	10.08	204	-3.6	86	-5.6	5	14	965.3	NA	0.0000		9999	1670	0	0	0
2017/11/26 06:45:00	BASE	7.14	207	10.08	204	-3.6	86	-5.6	5	14	965.3	NA	0.0000		9999	1740	0	0	0
2017/11/26 06:46:00	BASE	7.66	207	10.08	204	-3.6	86	-5.5	6	15	965.3	NA	0.0000		9999	2720	7320	0	0
2017/11/26 06:47:00	BASE	7.78	208	9.77	198	-3.6	87	-5.5	6	15	965.4	NA	0.0000		9999	6660	0	0	0
2017/11/26 06:48:00	BASE	8.18	211	9.77	198	-3.6	87	-5.5	6	15	965.4	NA	0.0000		9999	1710	0	0	0
2017/11/26 06:49:00	BASE	8.24	212	9.67	199	-3.6	87	-5.4	6	16	965.4	NA	0.0000		9999	1670	2200	0	0
2017/11/26 06:50:00	BASE	7.60	210	9.26	208	-3.6	87	-5.5	6	17	965.4	NA	0.0000		9999	1670	7120	0	0
2017/11/26 06:51:00	BASE	7.37	211	9.26	208	-3.6	87	-5.4	6	17	965.4	NA	0.0000		9999	1540	7190	0	0
2017/11/26 06:52:00	BASE	7.57	212	9.26	208	-3.6	87	-5.4	6	17	965.4	NA	0.0000		9999	1640	7250	0	0
2017/11/26 06:53:00	BASE	7.65	212	9.26	208	-3.6	88	-5.3	6	17	965.4	NA	0.0000		9999	1670	7350	0	0
2017/11/26 06:54:00	BASE	7.53	215	9.26	208	-3.6	88	-5.3	7	18	965.4	NA	0.0000		9999	1510	0	0	0
2017/11/26 06:55:00	BASE	7.35	215	9.21	213	-3.6	89	-5.2	7	19	965.4	NA	0.0000		9999	1510	7380	0	0
2017/11/26 06:56:00	BASE	6.93	208	9.21	213	-3.6	89	-5.2	7	19	965.4	NA	0.0000		9999	1800	2530	7320	0
2017/11/26 06:57:00	BASE	7.02	208	9.21	213	-3.7	89	-5.2	7	20	965.4	NA	0.0000		9999	1510	0	0	0
2017/11/26 06:58:00	BASE	7.21	212	9.21	213	-3.7	89	-5.2	7	20	965.4	NA	0.0000		9999	1540	0	0	0
2017/11/26 06:59:00	BASE	7.35	211	9.16	206	-3.7	89	-5.2	7	19	965.4	NA	0.0000		9999	1540	6500	0	0
2017/11/26 07:00:00	BASE	6.84	214	9.16	206	-3.7	90	-5.1	6	19	965.4	NA	0.0000		9999	1310	0	0	0
2017/11/26 07:01:00	BASE	6.83	214	9.16	206	-3.7	90	-5.1	7	21	965.4	NA	0.0000		9999	1350	1770	0	0
2017/11/26 07:02:00	BASE	7.33	211	8.90	213	-3.7	90	-5.1	7	21	965.5	NA	0.0000		9999	1940	7450	0	0
2017/11/26 07:03:00	BASE	6.55	213	8.90	213	-3.7	90	-5.1	7	21	965.6	NA	0.0000		9999	1310	0	0	0
2017/11/26 07:04:00	BASE	7.00	213	9.67	217	-3.7	90	-5.1	7	21	965.5	NA	0.0000		9999	1350	0	0	0
2017/11/26 07:05:00	BASE	7.20	215	9.67	217	-3.7	90	-5.1	7	22	965.6	NA	0.0000		9999	7280	0	0	0
2017/11/26 07:06:00	BASE	6.50	220	9.67	217	-3.7	90	-5.0	8	23	965.6	NA	0.0000		9999	1180	7420	0	0
2017/11/26 07:07:00	BASE	6.42	222	9.67	217	-3.6	91	-4.9	9	24	965.6	NA	0.0000		9999	1480	7350	0	0
2017/11/26 07:08:00	BASE	6.66	220	9.67	217	-3.6	91	-4.8	9	25	965.6	NA	0.0000		9999	1640	7420	0	0
2017/11/26 07:09:00	BASE	6.87	215	9.67	217	-3.6	92	-4.8	10	26	965.6	NA	0.0000		9999	1610	7320	0	0
2017/11/26 07:10:00	BASE	7.26	214	9.67	217	-3.6	92	-4.8	10	26	965.6	NA	0.0000		9999	1310	0	0	0
2017/11/26 07:11:00	BASE	7.40	217	9.67	217	-3.7	92	-4.8	11	27	965.6	NA	0.0000		9999	1380	0	0	0
2017/11/26 07:12:00	BASE	7.28	220	9.67	217	-3.7	92	-4.8	12	29	965.6	NA	0.0000		9999	1480	7320	0	0
2017/11/26 07:13:00	BASE	7.60	222	9.67	217	-3.7	92	-4.8	12	29	965.6	NA	0.0000		9999	7220	0	0	0
2017/11/26 07:14:00	BASE	7.31	221	8.90	219	-3.7	92	-4.8	12	29	965.6	NA	0.0000		9999	1610	7320	0	0
2017/11/26 07:15:00	BASE	7.19	221	8.90	219	-3.7	92	-4.8	12	30	965.6	NA	0.0000		9999	1800	7380	0	0
2017/11/26 07:16:00	BASE	7.67	224	8.90	219	-3.7	92	-4.8	12	30	965.6	NA	0.0000		9999	1350	7380	0	0
2017/11/26 07:17:00	BASE	8.07	225	8.95	218	-3.7	92	-4.8	13	32	965.6	NA	0.0000		9999	1280	0	0	0
2017/11/26 07:18:00	BASE	8.23	222	9.05	224	-3.7	92	-4.9	14	34	965.6	NA	0.0000		9999	1350	2000	7450	0
2017/11/26 07:19:00	BASE	8.34	219	9.31	218	-3.8	92	-4.9	14	35	965.6	NA	0.0000		9999	1350	7420	0	0
2017/11/26 07:20:00	BASE	7.89	216	9.31	218	-3.8	92	-4.9	15	36	965.7	NA	0.0000		9999	7380	0	0	0
2017/11/26 07:21:00	BASE	7.64	213	9.31	218	-3.8	92	-4.9	15	36	965.7	NA	0.0000		9999	7220	0	0	0
2017/11/26 07:22:00	BASE	7.64	214	9.31	218	-3.8	92	-4.9	15	37	965.7	NA	0.0000		9999	7350	0	0	0
2017/11/26 07:23:00	BASE	7.60	219	9.31	218	-3.8	92	-4.9	16	38	965.7	NA	0.0000		9999	2200	7450	0	0
2017/11/26 07:24:00	BASE	7.44	222	9.31	218	-3.8	92	-4.9	16	39	965.7	NA	0.0000		9999	1540	7420	0	0
2017/11/26 07:25:00	BASE	7.77	223	9.67	219	-3.7	92	-4.9	17	40	965.7	NA	0.0000		9999	7350	0	0	0
2017/11/26 07:26:00	BASE	8.46	221	9.67	219	-3.7	92	-4.8	17	41	965.7	NA	0.0000		9999	7350	0	0	0
2017/11/26 07:27:00	BASE	7.90	218	9.67	219	-3.8	92	-4.9	18	43	965.7	NA	0.0000		9999	7280	0	0	0
2017/11/26 07:28:00	BASE	7.15	223	9.67	219	-3.7	92	-4.9	18	44	965.8	NA	0.0000		9999	7320	0	0	0
2017/11/26 07:29:00	BASE	7.32	225	9.67	219	-3.7	92	-4.9	19	44	965.8	NA	0.0000		9999	7420	0	0	0
2017/11/26 07:30:00	BASE	7.70	225	9.67	219	-3.8	92	-4.9	19	45	965.8	NA	0.0000		9999	1350	7350	0	0
2017/11/26 07:31:00	BASE	7.29	227	9.67	219	-3.8	92	-4.9	18	44	965.8	NA	0.0000		9999	1640	7120	0	0
2017/11/26 07:32:00	BASE	7.20	226	9.67	219	-3.8	92	-4.9	19	45	965.8	NA	0.0000		9999	1440	7320	0	0
2017/11/26 07:33:00	BASE	7.67	229	9.67	219	-3.8	92	-4.9	20	48	965.8	NA	0.0000		9999	1210	1940	0	0
2017/11/26 07:34:00	BASE	8.07	229	9.67	219	-3.8	92	-4.9	21	50	965.8	NA	0.0000		9999	1180	7380	0	0
2017/11/26 07:35:00	BASE	8.17	221	9.52	222	-3.7	92	-4.8	22	51	965.8	NA	0.0000		9999	7450	0	0	0
2017/11/26 07:36:00	BASE	7.48	215	9.05	217	-3.7	92	-4.8	22	51	965.9	NA	0.0000		9999	7450	0	0	0
2017/11/26 07:37:00	BASE	6.65	217	9.05	217	-3.7	92	-4.8	22	51	965.9	NA	0.0000		9999	1380	7420	0	0
2017/11/26 07:38:00	BASE	7.00	217	9.05	217	-3.7	92	-4.8	22	52	965.8	NA	0.0000		9999	1510	7480	0	0
2017/11/26 07:39:00	BASE	6.86	220	9.05	217	-3.7	92	-4.8	23	53	965.9	NA	0.0000		9999	1350	7420	0	0
2017/11/26 07:40:00	BASE	6.67	225	9.05	217	-3.7	92	-4.8	23	54	965.8	NA	0.0000		9999	1640	7480	0	0
2017/11/26 07:41:00	BASE	6.98	224	9.05	217	-3.7	92	-4.8	24	55	965.9	NA	0.0000		9999	1940	7320	0	0
2017/11/26 07:42:00	BASE	7.02	224	9.05	217	-3.7	92	-4.8	24	56	965.9	NA	0.0000		9999	2400	7450	0	0
2017/11/26 07:43:00	BASE	7.16	225	9.05	217	-3.7	93	-4.7	25	59	965.9	NA	0.0000		9999	1380	2330	0	0
2017/11/26 07:44:00	BASE	7.09	218	9.11	208	-3.7	93	-4.7	26	60	965.9	NA	0.0000		9999	7450	0	0	0
2017/11/26 07:45:00	BASE	7.24	212	9.11	208	-3.8	93	-4.7	27	61	965.9	NA	0.0000		9999	7420	0	0	0
2017/11/26 07:46:00	BASE	7.63	213	9.62	213	-3.8	93	-4.8	27	62	965.9	NA	0.0000		9999	7420	0	0	0
2017/11/26 07:47:00	BASE	8.13	213	9.62	213	-3.8	93	-4.8	27	62	965.9	NA	0.0000		9999	1480	7450	0	0
2017/11/26 07:48:00	BASE	8.10	213	9.62	213	-3.8	92	-4.8	27	62	965.9	NA	0.0000		9999	1540	7510	0	0
2017/11/26 07:49:00	BASE	8.11	213	9.62	213	-3.8	92	-4.9	26	61	965.9	NA	0.0000		9999	2360	7450	0	0
2017/11/26 07:50:00	BASE	7.80	215	9.62	213	-3.8	92	-4.9	25	59	965.9	NA	0.0000		9999	1540	7550	0	0
2017/11/26 07:51:00	BASE	7.31	215	9.62	213	-3.8	92	-4.9	27	62	965.9	NA	0.0000		9999	1250	0	0	0
2017/11/26 07:52:00	BASE	7.23	215	9.62	213	-3.8	92	-4.9	28	66	965.9	NA	0.0000		9999	1510	7450	0	0
2017/11/26 07:53:00	BASE	6.88	216	9.62	213	-3.8	92	-4.9	29	67	965.9	NA	0.0000		9999	1740	7280	0	0
2017/11/26 07:54:00	BASE	6.96	215	9.62	213	-3.8	92	-4.9	28	66	966.0	NA	0.0000		9999	7380	0	0	0
2017/11/26 07:55:00	BASE	6.77	216	9.62	213	-3.8	92	-4.9	27	65	966.0	NA	0.0000		9999	1350	7380	0	0
2017/11/26 07:56:00	BASE	6.35	222	9.31	227	-3.8	92	-4.9	27	65	966.0	NA	0.0000		9999	1380	0	0	0
2017/11/26 07:57:00	BASE	6.97	222	9.31	227	-3.8	92	-4.9	28	67	966.0	NA	0.0000		9999	1440	0	0	0
2017/11/26 07:58:00	BASE	7.04	221	9.31	227	-3.8	92	-4.9	29	68	966.0	NA	0.0000		9999	2430	7380	0	0
2017/11/26 07:59:00	BASE	7.14	223	8.69	215	-3.8	92	-4.9	30	72	966.0	NA	0.0000		9999	1440	2130	0	0
2017/11/26 08:00:00	BASE	7.23	220	8.69	215	-3.8	92	-4.9	31	74	966.0	NA	0.0000		9999	1380	1940	7350	0
2017/11/26 08:01:00	BASE	6.60	215	8.54	212	-3.8	92	-4.9	32	76	966.1	NA	0.0000		9999	7350	0	0	0
2017/11/26 08:02:00	BASE	6.72	220	8.54	212	-3.8	92	-4.9	33	78	966.1	NA	0.0000		9999	1770	7380	0	0
2017/11/26 08:03:00	BASE	7.44	228	8.95	222	-3.8	92	-4.9	33	78	966.0	NA	0.0000		9999	7350	0	0	0
2017/11/26 08:04:00	BASE	7.79	227	8.95	222	-3.8	92	-4.9	31	75	966.0	NA	0.0000		9999	1350	1770	7510	0
2017/11/26 08:05:00	BASE	7.50	224	8.95	222	-3.8	92	-4.9	29	72	966.1	NA	0.0000		9999	1740	7480	0	0
2017/11/26 08:06:00	BASE	7.28	223	8.95	222	-3.8	92	-4.9	32	77	966.1	NA	0.0000		9999	1380	0	0	0
2017/11/26 08:07:00	BASE	6.82	225	8.95	222	-3.8	92	-4.9	33	80	966.1	NA	0.0000		9999	1480	7610	0	0
2017/11/26 08:08:00	BASE	6.73	225	8.95	222	-3.8	92	-4.9	35	83	966.1	NA	0.0000		9999	1510	7580	0	0
2017/11/26 08:09:00	BASE	7.57	221	9.05	209	-3.8	92	-4.9	37	88	966.1	NA	0.0000		9999	1380	0	0	0
2017/11/26 08:10:00	BASE	7.79	218	9.05	209	-3.8	92	-4.9	39	92	966.1	NA	0.0000		9999	1350	7610	0	0
2017/11/26 08:11:00	BASE	7.27	220	9.05	209	-3.8	92	-4.9	40	94	966.1	NA	0.0000		9999	1840	2230	7580	0
2017/11/26 08:12:00	BASE	7.06	220	9.05	209	-3.8	92	-4.9	41	96	966.1	NA	0.0000		9999	1570	0	0	0
2017/11/26 08:13:00	BASE	7.11	222	9.05	209	-3.8	92	-4.9	42	98	966.1	NA	0.0000		9999	1710	7640	0	0
2017/11/26 08:14:00	BASE	6.68	224	9.05	209	-3.8	92	-4.9	42	100	966.1	NA	0.0000		9999	1770	2530	0	0
2017/11/26 08:15:00	BASE	6.72	228	9.05	209	-3.8	92	-4.9	43	100	966.1	NA	0.0000		9999	1610	7740	0	0
2017/11/26 08:16:00	BASE	7.25	232	9.05	209	-3.8	92	-5.0	43	101	966.1	NA	0.0000		9999	1280	0	0	0
2017/11/26 08:17:00	BASE	7.45	231	9.05	209	-3.9	92	-5.0	43	102	966.1	NA	0.0000		9999	1250	7840	0	0
2017/11/26 08:18:00	BASE	7.29	232	9.05	209	-3.9	92	-5.0	44	103	966.1	NA	0.0000		9999	1280	1840	0	0
2017/11/26 08:19:00	BASE	7.36	228	8.85	226	-3.8	92	-4.9	45	106	966.2	NA	0.0000		9999	2100	2560	7810	0
2017/11/26 08:20:00	BASE	7.64	224	8.85	226	-3.8	92	-5.0	47	111	966.2	NA	0.0000		9999	1310	7710	0	0
2017/11/26 08:21:00	BASE	7.25	224	8.85	226	-3.8	92	-4.9	47	111	966.2	NA	0.0000		9999	3410	7740	0	0
2017/11/26 08:22:00	BASE	7.10	224	8.85	226	-3.8	92	-4.9	44	104	966.2	NA	0.0000		9999	7780	0	0	0
2017/11/26 08:23:00	BASE	6.79	224	8.85	226	-3.8	92	-4.9	37	92	966.2	NA	0.0000		9999	1510	2950	3610	0
2017/11/26 08:24:00	BASE	6.23	227	8.85	226	-3.8	92	-4.9	36	90	966.2	NA	0.0000		9999	1250	0	0	0
2017/11/26 08:25:00	BASE	6.19	228	8.75	222	-3.8	92	-4.9	38	93	966.2	NA	0.0000		9999	1310	0	0	0
2017/11/26 08:26:00	BASE	7.02	226	8.75	222	-3.8	92	-4.9	43	104	966.2	NA	0.0000		9999	1280	0	0	0
2017/11/26 08:27:00	BASE	7.53	223	8.75	222	-3.8	92	-4.9	48	114	966.2	NA	0.0000		9999	1350	7710	0	0
2017/11/26 08:28:00	BASE	7.63	220	9.36	221	-3.8	92	-4.9	52	121	966.2	NA	0.0000		9999	7580	0	0	0
2017/11/26 08:29:00	BASE	8.17	220	9.41	215	-3.8	92	-4.9	53	123	966.2	NA	0.0000		9999	2560	7610	0	0
2017/11/26 08:30:00	BASE	7.96	220	9.41	215	-3.8	92	-4.9	52	123	966.2	NA	0.0000		9999	3080	7580	0	0
2017/11/26 08:31:00	BASE	7.24	220	9.41	215	-3.8	92	-5.0	49	117	966.2	NA	0.0000		9999	1410	3380	7640	0
2017/11/26 08:32:00	BASE	6.98	226	9.41	215	-3.8	92	-5.0	46	113	966.2	NA	0.0000		9999	1350	2850	0	0
2017/11/26 08:33:00	BASE	7.78	225	9.41	215	-3.8	91	-5.0	49	118	966.2	NA	0.0000		9999	1280	0	0	0
2017/11/26 08:34:00	BASE	7.64	222	9.41	215	-3.8	91	-5.0	49	118	966.2	NA	0.0000		9999	1410	2720	7680	0
2017/11/26 08:35:00	BASE	6.91	219	9.41	215	-3.8	91	-5.1	44	109	966.3	NA	0.0000		9999	1570	3250	7610	0
2017/11/26 08:36:00	BASE	6.38	216	9.41	215	-3.8	91	-5.0	41	103	966.3	NA	0.0000		9999	1280	0	0	0
2017/11/26 08:37:00	BASE	6.21	221	9.41	215	-3.8	91	-5.0	42	105	966.3	NA	0.0000		9999	1380	2170	0	0
2017/11/26 08:38:00	BASE	7.05	223	9.41	215	-3.8	91	-5.0	46	112	966.3	NA	0.0000		9999	1410	2560	0	0
2017/11/26 08:39:00	BASE	7.56	224	9.11	215	-3.8	92	-4.9	47	115	966.3	NA	0.0000		9999	1380	2000	4100	0
2017/11/26 08:40:00	BASE	7.40	222	9.11	215	-3.8	92	-4.9	41	103	966.4	NA	0.0000		9999	1670	2590	0	0
2017/11/26 08:41:00	BASE	6.81	220	9.11	215	-3.8	92	-4.9	36	93	966.4	NA	0.0000		9999	1380	0	0	0
2017/11/26 08:42:00	BASE	6.84	225	9.11	215	-3.8	92	-4.9	35	91	966.4	NA	0.0000		9999	1250	2030	0	0
2017/11/26 08:43:00	BASE	7.09	228	8.49	228	-3.8	92	-4.9	37	96	966.4	NA	0.0000		9999	1380	1870	0	0
2017/11/26 08:44:00	BASE	7.60	228	9.21	219	-3.8	92	-4.9	39	99	966.4	NA	0.0000		9999	1510	0	0	0
2017/11/26 08:45:00	BASE	8.59	225	9.88	221	-3.8	92	-4.9	42	105	966.3	NA	0.0000		9999	1480	0	0	0
2017/11/26 08:46:00	BASE	8.06	221	9.88	221	-3.8	92	-4.9	47	116	966.4	NA	0.0000		9999	1480	2030	2620	0
2017/11/26 08:47:00	BASE	7.41	224	9.88	221	-3.8	92	-4.9	50	122	966.4	NA	0.0000		9999	3480	0	0	0
2017/11/26 08:48:00	BASE	7.94	224	9.88	221	-3.8	92	-4.9	53	128	966.4	NA	0.0000		9999	2850	3410	0	0
2017/11/26 08:49:00	BASE	7.94	219	9.88	221	-3.9	92	-5.0	55	133	966.4	NA	0.0000		9999	2950	0	0	0
2017/11/26 08:50:00	BASE	7.58	219	9.88	221	-3.9	92	-5.0	54	133	966.4	NA	0.0000		9999	2070	2990	7550	0
2017/11/26 08:51:00	BASE	7.36	222	9.88	221	-3.9	92	-5.0	54	132	966.4	NA	0.0000		9999	1710	7480	0	0
2017/11/26 08:52:00	BASE	7.47	223	9.88	221	-3.9	92	-5.0	58	140	966.5	NA	0.0000		9999	1480	3050	0	0
2017/11/26 08:53:00	BASE	7.96	223	9.88	221	-3.9	92	-5.0	58	141	966.4	NA	0.0000		9999	1510	3250	7610	0
2017/11/26 08:54:00	BASE	8.35	223	9.88	221	-3.9	92	-5.0	56	137	966.5	NA	0.0000		9999	1380	3250	0	0
2017/11/26 08:55:00	BASE	7.99	222	9.83	218	-3.9	92	-5.0	56	138	966.5	NA	0.0000		9999	1740	3640	7550	0
2017/11/26 08:56:00	BASE	7.92	221	9.83	218	-3.9	92	-5.0	59	144	966.5	NA	0.0000		9999	1510	0	0	0
2017/11/26 08:57:00	BASE	7.99	219	9.83	218	-3.9	91	-5.1	62	150	966.5	NA	0.0000		9999	1480	2430	3280	0
2017/11/26 08:58:00	BASE	7.67	221	9.83	218	-3.9	91	-5.1	60	145	966.5	NA	0.0000		9999	1610	3250	7580	0
2017/11/26 08:59:00	BASE	8.02	225	9.83	218	-3.9	91	-5.1	59	144	966.5	NA	0.0000		9999	1350	0	0	0
2017/11/26 09:00:00	BASE	8.01	224	9.83	218	-3.9	91	-5.1	57	142	966.5	NA	0.0000		9999	1540	0	0	0
2017/11/26 09:01:00	BASE	7.35	222	9.83	218	-3.9	91	-5.1	57	141	966.6	NA	0.0000		9999	1350	1840	3410	0
2017/11/26 09:02:00	BASE	7.23	225	9.83	218	-3.9	91	-5.1	53	133	966.6	NA	0.0000		9999	1280	1670	0	0
2017/11/26 09:03:00	BASE	7.91	226	9.77	219	-3.8	92	-5.0	56	139	966.5	NA	0.0000		9999	1350	1970	0	0
2017/11/26 09:04:00	BASE	8.38	223	9.77	219	-3.9	92	-5.0	58	142	966.6	NA	0.0000		9999	1350	3120	0	0
2017/11/26 09:05:00	BASE	8.35	222	9.77	219	-3.9	92	-5.0	62	150	966.6	NA	0.0000		9999	1350	0	0	0
2017/11/26 09:06:00	BASE	7.62	221	9.31	231	-3.8	92	-5.0	61	151	966.6	NA	0.0000		9999	1510	2230	0	0
2017/11/26 09:07:00	BASE	6.92	220	9.31	231	-3.8	92	-4.9	60	148	966.6	NA	0.0000		9999	1280	1970	0	0
2017/11/26 09:08:00	BASE	6.78	220	9.31	231	-3.8	92	-4.9	57	143	966.6	NA	0.0000		9999	1540	2400	3710	0
2017/11/26 09:09:00	BASE	7.05	225	9.31	231	-3.8	92	-4.9	61	151	966.6	NA	0.0000		9999	1380	0	0	0
2017/11/26 09:10:00	BASE	7.57	228	9.31	231	-3.8	92	-4.9	66	161	966.6	NA	0.0000		9999	1310	2790	0	0
2017/11/26 09:11:00	BASE	7.76	223	9.31	231	-3.8	92	-4.9	68	166	966.6	NA	0.0000		9999	1350	1870	3450	0
2017/11/26 09:12:00	BASE	7.51	218	9.31	231	-3.8	92	-4.9	71	171	966.6	NA	0.0000		9999	1350	3220	3770	0
2017/11/26 09:13:00	BASE	7.73	215	9.11	223	-3.8	92	-4.9	73	176	966.7	NA	0.0000		9999	1410	3510	0	0
2017/11/26 09:14:00	BASE	7.77	217	9.11	226	-3.8	92	-4.9	74	178	966.6	NA	0.0000		9999	1380	3640	7710	0
2017/11/26 09:15:00	BASE	7.25	220	9.11	226	-3.8	92	-5.0	75	181	966.7	NA	0.0000		9999	1440	3410	0	0
2017/11/26 09:16:00	BASE	7.02	220	9.11	226	-3.9	92	-5.0	78	187	966.7	NA	0.0000		9999	1540	3150	0	0
2017/11/26 09:17:00	BASE	7.20	217	9.11	226	-3.9	92	-5.0	81	194	966.7	NA	0.0000		9999	1540	3580	0	0
2017/11/26 09:18:00	BASE	6.71	213	9.11	226	-3.8	92	-4.9	83	198	966.7	NA	0.0000		9999	1540	3050	3610	0
2017/11/26 09:19:00	BASE	6.60	212	9.11	226	-3.8	92	-4.9	84	200	966.7	NA	0.0000		9999	3450	0	0	0
2017/11/26 09:20:00	BASE	7.49	213	9.36	215	-3.8	92	-4.9	83	199	966.7	NA	0.0000		9999	3540	0	0	0
2017/11/26 09:21:00	BASE	6.94	218	9.36	215	-3.8	92	-4.9	78	190	966.7	NA	0.0000		9999	1800	3580	0	0
2017/11/26 09:22:00	BASE	6.42	220	9.36	215	-3.8	91	-4.9	74	183	966.7	NA	0.0000		9999	1640	3640	0	0
2017/11/26 09:23:00	BASE	7.64	215	9.41	215	-3.7	91	-5.0	73	179	966.7	NA	0.0000		9999	1710	3050	0	0
2017/11/26 09:24:00	BASE	7.96	215	9.41	215	-3.8	91	-5.0	75	184	966.7	NA	0.0000		9999	1380	3080	0	0
2017/11/26 09:25:00	BASE	6.91	222	9.41	215	-3.7	91	-5.0	81	195	966.7	NA	0.0000		9999	1280	3350	0	0
2017/11/26 09:26:00	BASE	7.13	225	9.41	215	-3.8	91	-5.0	85	205	966.7	NA	0.0000		9999	3250	0	0	0
2017/11/26 09:27:00	BASE	7.46	226	9.41	215	-3.8	91	-5.0	90	215	966.7	NA	0.0000		9999	1480	3870	0	0
2017/11/26 09:28:00	BASE	7.33	225	9.41	215	-3.8	91	-5.1	95	224	966.7	NA	0.0000		9999	1380	7780	0	0
2017/11/26 09:29:00	BASE	7.69	219	10.08	217	-3.8	91	-5.1	102	239	966.7	NA	0.0000		9999	1410	2330	7840	0
2017/11/26 09:30:00	BASE	8.66	214	10.44	216	-3.9	91	-5.1	105	245	966.7	NA	0.0000		9999	7810	0	0	0
2017/11/26 09:31:00	BASE	8.53	213	10.44	216	-3.9	91	-5.2	106	248	966.8	NA	0.0000		9999	3510	7780	0	0
2017/11/26 09:32:00	BASE	7.96	214	10.44	216	-3.9	91	-5.2	106	248	966.8	NA	0.0000		9999	4070	7810	0	0
2017/11/26 09:33:00	BASE	8.36	214	10.44	216	-3.9	90	-5.2	100	238	966.8	NA	0.0000		9999	4230	7740	0	0
2017/11/26 09:34:00	BASE	8.22	215	10.44	216	-3.8	90	-5.2	95	228	966.8	NA	0.0000		9999	1640	4360	0	0
2017/11/26 09:35:00	BASE	8.00	220	10.44	216	-3.8	90	-5.2	86	212	966.8	NA	0.0000		9999	1870	3970	0	0
2017/11/26 09:36:00	BASE	7.56	219	10.44	216	-3.8	90	-5.2	83	206	966.8	NA	0.0000		9999	1480	3120	0	0
2017/11/26 09:37:00	BASE	7.77	218	10.44	216	-3.8	90	-5.2	84	208	966.8	NA	0.0000		9999	1870	3120	0	0
2017/11/26 09:38:00	BASE	8.40	222	10.44	216	-3.8	90	-5.2	88	217	966.8	NA	0.0000		9999	1710	3810	0	0
2017/11/26 09:39:00	BASE	8.09	222	10.44	216	-3.8	90	-5.2	100	238	966.8	NA	0.0000		9999	1610	0	0	0
2017/11/26 09:40:00	BASE	7.97	219	9.88	217	-3.8	90	-5.3	110	259	966.8	NA	0.0000		9999	1970	3900	0	0
2017/11/26 09:41:00	BASE	8.41	215	9.88	217	-3.8	89	-5.3	115	268	966.8	NA	0.0000		9999	1770	3940	7840	0
2017/11/26 09:42:00	BASE	8.91	213	9.88	212	-3.8	89	-5.3	123	284	966.8	NA	0.0000		9999	7910	0	0	0
2017/11/26 09:43:00	BASE	8.70	213	9.88	212	-3.8	89	-5.4	124	288	966.9	NA	0.0000		9999	1710	7840	21690	0
2017/11/26 09:44:00	BASE	7.46	214	9.88	212	-3.8	89	-5.3	120	282	966.9	NA	0.0000		9999	2100	7970	0	0
2017/11/26 09:45:00	BASE	7.27	213	9.88	212	-3.8	89	-5.3	108	259	966.9	NA	0.0000		9999	1740	7940	0	0
2017/11/26 09:46:00	BASE	8.61	208	11.01	205	-3.7	89	-5.3	101	245	966.9	NA	0.0000		9999	2170	7940	0	0
2017/11/26 09:47:00	BASE	9.39	210	11.01	205	-3.7	89	-5.3	104	251	966.9	NA	0.0000		9999	1670	0	0	0
2017/11/26 09:48:00	BASE	9.27	212	11.01	205	-3.8	89	-5.3	102	249	966.8	NA	0.0000		9999	1770	7910	0	0
2017/11/26 09:49:00	BASE	8.96	211	11.01	205	-3.8	89	-5.3	100	243	966.9	NA	0.0000		9999	2030	0	0	0
2017/11/26 09:50:00	BASE	8.42	208	11.01	205	-3.8	89	-5.4	109	261	966.9	NA	0.0000		9999	1840	0	0	0
2017/11/26 09:51:00	BASE	8.44	211	11.01	205	-3.8	89	-5.4	119	281	967.0	NA	0.0000		9999	2990	7910	23130	0
2017/11/26 09:52:00	BASE	9.04	216	11.01	205	-3.8	88	-5.4	124	290	966.9	NA	0.0000		9999	2070	2720	3310	0
2017/11/26 09:53:00	BASE	9.10	214	11.01	205	-3.8	88	-5.5	120	285	967.0	NA	0.0000		9999	1970	3540	7970	0
2017/11/26 09:54:00	BASE	8.71	208	11.01	205	-3.8	88	-5.5	111	268	967.0	NA	0.0000		9999	1870	2920	0	0
2017/11/26 09:55:00	BASE	8.92	200	11.01	205	-3.8	87	-5.6	107	259	967.0	NA	0.0000		9999	2100	2990	0	0
2017/11/26 09:56:00	BASE	9.90	200	11.21	206	-3.8	87	-5.7	107	260	967.0	NA	0.0000		9999	1970	3080	0	0
2017/11/26 09:57:00	BASE	10.30	204	11.21	206	-3.8	86	-5.8	109	265	967.0	NA	0.0000		9999	1900	2950	0	0
2017/11/26 09:58:00	BASE	9.91	206	11.21	206	-3.8	86	-5.9	108	263	967.0	NA	0.0000		9999	1940	3080	0	0
2017/11/26 09:59:00	BASE	9.85	205	11.68	202	-3.9	85	-6.0	103	253	967.0	NA	0.0000		9999	2360	3180	0	0
2017/11/26 10:00:00	BASE	10.58	201	12.45	199	-3.9	84	-6.1	106	259	967.0	NA	0.0000		9999	1970	0	0	0
2017/11/26 10:01:00	BASE	10.31	204	12.45	199	-3.9	83	-6.3	106	260	967.1	NA	0.0000		9999	1840	3350	0	0
2017/11/26 10:02:00	BASE	9.16	207	12.45	199	-3.9	83	-6.3	109	268	967.1	NA	0.0000		9999	1840	0	0	0
2017/11/26 10:03:00	BASE	8.53	208	12.45	199	-3.8	83	-6.3	112	274	967.1	NA	0.0000		9999	1900	0	0	0
2017/11/26 10:04:00	BASE	8.63	210	12.45	199	-3.8	83	-6.3	123	295	967.1	NA	0.0000		9999	1770	0	0	0
2017/11/26 10:05:00	BASE	8.71	212	12.45	199	-3.8	83	-6.3	123	298	967.1	NA	0.0000		9999	3540	0	0	0
2017/11/26 10:06:00	BASE	7.92	214	12.45	199	-3.8	83	-6.2	118	287	967.1	NA	0.0000		9999	1870	2620	3670	0
2017/11/26 10:07:00	BASE	8.67	213	12.45	199	-3.7	84	-6.1	125	300	967.1	NA	0.0000		9999	1740	0	0	0
2017/11/26 10:08:00	BASE	8.76	215	12.45	199	-3.7	84	-6.0	128	308	967.2	NA	0.0000		9999	2530	7970	0	0
2017/11/26 10:09:00	BASE	7.88	219	12.45	199	-3.7	85	-5.9	129	310	967.1	NA	0.0000		9999	1480	2760	4000	0
2017/11/26 10:10:00	BASE	8.59	223	10.80	212	-3.7	85	-5.9	136	324	967.1	NA	0.0000		9999	1570	0	0	0
2017/11/26 10:11:00	BASE	9.48	225	11.11	223	-3.8	86	-5.8	136	324	967.1	NA	0.0000		9999	2360	7910	0	0
2017/11/26 10:12:00	BASE	9.69	225	11.11	223	-3.8	86	-5.8	143	336	967.2	NA	0.0000		9999	1570	2000	0	0
2017/11/26 10:13:00	BASE	8.84	227	11.11	223	-3.9	86	-5.8	143	339	967.2	NA	0.0000		9999	7910	0	0	0
2017/11/26 10:14:00	BASE	8.33	224	11.11	223	-3.9	86	-5.8	133	320	967.2	NA	0.0000		9999	3120	7810	0	0
2017/11/26 10:15:00	BASE	8.50	225	11.11	223	-3.9	87	-5.8	134	323	967.2	NA	0.0000		9999	1640	0	0	0
2017/11/26 10:16:00	BASE	7.74	225	11.11	223	-3.9	87	-5.8	136	326	967.2	NA	0.0000		9999	1940	3640	7780	0
2017/11/26 10:17:00	BASE	7.83	216	11.11	223	-3.9	87	-5.7	140	334	967.2	NA	0.0000		9999	2850	0	0	0
2017/11/26 10:18:00	BASE	8.74	220	11.11	223	-3.9	87	-5.7	140	335	967.2	NA	0.0000		9999	2070	7910	19390	0
2017/11/26 10:19:00	BASE	8.99	226	11.11	223	-3.9	88	-5.7	142	340	967.2	NA	0.0000		9999	2130	2950	0	0
2017/11/26 10:20:00	BASE	8.70	225	11.11	223	-3.9	88	-5.7	147	350	967.3	NA	0.0000		9999	1440	2920	0	0
2017/11/26 10:21:00	BASE	8.67	225	10.65	225	-4.0	88	-5.7	146	350	967.2	NA	0.0000		9999	2430	3610	7910	0
2017/11/26 10:22:00	BASE	8.71	224	10.65	225	-4.0	88	-5.7	139	337	967.3	NA	0.0000		9999	1800	2850	0	0
2017/11/26 10:23:00	BASE	7.72	223	10.65	225	-4.0	88	-5.7	136	331	967.3	NA	0.0000		9999	1570	3220	0	0
2017/11/26 10:24:00	BASE	7.53	223	10.65	225	-4.0	88	-5.6	128	316	967.3	NA	0.0000		9999	1540	3380	7740	0
2017/11/26 10:25:00	BASE	7.79	222	10.65	225	-4.0	89	-5.6	130	317	967.4	NA	0.0000		9999	1640	0	0	0
2017/11/26 10:26:00	BASE	8.11	223	10.65	225	-3.9	89	-5.5	143	343	967.3	NA	0.0000		9999	1480	2660	0	0
2017/11/26 10:27:00	BASE	7.94	224	10.65	225	-3.9	89	-5.5	145	347	967.4	NA	0.0000		9999	1480	0	0	0
2017/11/26 10:28:00	BASE	8.14	222	10.65	225	-4.0	89	-5.5	139	338	967.4	NA	0.0000		9999	1540	2030	2590	0
2017/11/26 10:29:00	BASE	8.69	222	10.65	225	-4.0	89	-5.5	143	344	967.4	NA	0.0000		9999	1770	0	0	0
2017/11/26 10:30:00	BASE	8.36	223	10.65	225	-4.0	89	-5.5	149	357	967.4	NA	0.0000		9999	1770	7740	0	0
2017/11/26 10:31:00	BASE	8.23	222	10.03	221	-4.0	89	-5.6	147	354	967.4	NA	0.0000		9999	3180	0	0	0
2017/11/26 10:32:00	BASE	8.16	222	10.03	221	-4.1	89	-5.6	148	354	967.4	NA	0.0000		9999	1540	3050	0	0
2017/11/26 10:33:00	BASE	8.09	225	10.03	221	-4.1	89	-5.6	157	371	967.4	NA	0.0000		9999	1480	7740	0	0
2017/11/26 10:34:00	BASE	8.52	229	10.08	229	-4.0	89	-5.6	162	383	967.4	NA	0.0000		9999	1510	3510	7710	0
2017/11/26 10:35:00	BASE	8.73	229	10.08	229	-4.0	89	-5.6	164	387	967.4	NA	0.0000		9999	3250	7780	0	0
2017/11/26 10:36:00	BASE	7.92	226	10.08	229	-4.0	89	-5.6	163	386	967.4	NA	0.0000		9999	1610	7810	0	0
2017/11/26 10:37:00	BASE	7.45	225	10.08	229	-4.0	89	-5.6	159	380	967.4	NA	0.0000		9999	1710	3610	7810	0
2017/11/26 10:38:00	BASE	7.75	222	10.08	229	-4.0	89	-5.6	153	370	967.4	NA	0.0000		9999	3350	7840	0	0
2017/11/26 10:39:00	BASE	7.60	222	10.08	229	-4.0	89	-5.6	151	364	967.4	NA	0.0000		9999	3250	0	0	0
2017/11/26 10:40:00	BASE	7.81	226	10.08	229	-4.0	89	-5.5	158	378	967.5	NA	0.0000		9999	1570	3540	0	0
2017/11/26 10:41:00	BASE	8.49	226	10.08	229	-3.9	89	-5.5	161	385	967.4	NA	0.0000		9999	3840	0	0	0
2017/11/26 10:42:00	BASE	8.79	223	10.08	229	-4.0	89	-5.6	165	394	967.4	NA	0.0000		9999	7480	0	0	0
2017/11/26 10:43:00	BASE	8.71	224	10.08	225	-4.0	88	-5.6	163	391	967.4	NA	0.0000		9999	4270	0	0	0
2017/11/26 10:44:00	BASE	8.71	223	10.08	225	-4.0	88	-5.6	156	377	967.4	NA	0.0000		9999	3670	0	0	0
2017/11/26 10:45:00	BASE	8.33	218	10.08	225	-4.0	88	-5.7	148	364	967.4	NA	0.0000		9999	1540	3640	0	0
2017/11/26 10:46:00	BASE	7.27	219	10.08	225	-4.0	88	-5.6	144	356	967.5	NA	0.0000		9999	1440	2590	0	0
2017/11/26 10:47:00	BASE	7.41	224	10.08	225	-3.9	88	-5.6	138	341	967.4	NA	0.0000		9999	1540	2300	0	0
2017/11/26 10:48:00	BASE	8.46	226	10.08	225	-3.9	89	-5.5	140	347	967.4	NA	0.0000		9999	1440	2620	0	0
2017/11/26 10:49:00	BASE	8.32	227	10.08	225	-3.9	89	-5.5	137	339	967.4	NA	0.0000		9999	1570	2530	0	0
2017/11/26 10:50:00	BASE	7.89	227	10.08	225	-3.9	89	-5.4	135	335	967.4	NA	0.0000		9999	2530	0	0	0
2017/11/26 10:51:00	BASE	7.76	223	10.08	225	-3.9	89	-5.4	134	334	967.5	NA	0.0000		9999	1670	2490	0	0
2017/11/26 10:52:00	BASE	7.29	220	10.08	225	-3.9	89	-5.5	138	341	967.5	NA	0.0000		9999	2790	3510	0	0
2017/11/26 10:53:00	BASE	7.44	224	9.72	230	-3.9	89	-5.4	147	361	967.5	NA	0.0000		9999	1570	3050	0	0
2017/11/26 10:54:00	BASE	8.03	225	9.72	230	-3.9	89	-5.4	159	385	967.5	NA	0.0000		9999	1870	3380	0	0
2017/11/26 10:55:00	BASE	7.80	224	9.72	230	-3.9	89	-5.4	170	407	967.5	NA	0.0000		9999	1740	0	0	0
2017/11/26 10:56:00	BASE	7.31	226	9.72	230	-3.9	89	-5.4	176	423	967.5	NA	0.0000		9999	1800	0	0	0
2017/11/26 10:57:00	BASE	7.62	227	9.72	230	-3.9	90	-5.3	170	411	967.5	NA	0.0000		9999	2100	3970	0	0
2017/11/26 10:58:00	BASE	8.29	226	9.47	221	-3.8	90	-5.3	157	388	967.5	NA	0.0000		9999	4070	0	0	0
2017/11/26 10:59:00	BASE	7.95	221	9.47	221	-3.9	90	-5.3	148	370	967.5	NA	0.0000		9999	1870	0	0	0
2017/11/26 11:00:00	BASE	7.33	220	9.47	221	-3.9	90	-5.3	132	336	967.5	NA	0.0000		9999	1670	2170	4070	0
2017/11/26 11:01:00	BASE	7.34	222	9.72	226	-3.9	90	-5.3	111	293	967.5	NA	0.0000		9999	1310	1940	0	0
2017/11/26 11:02:00	BASE	8.06	225	9.72	226	-3.9	90	-5.3	114	296	967.5	NA	0.0000		9999	1350	2330	0	0
2017/11/26 11:03:00	BASE	8.60	224	9.72	226	-3.9	90	-5.3	111	289	967.5	NA	0.0000		9999	1380	0	0	0
2017/11/26 11:04:00	BASE	8.31	220	10.08	215	-3.9	90	-5.3	122	312	967.6	NA	0.0000		9999	1350	0	0	0
2017/11/26 11:05:00	BASE	8.06	216	10.08	215	-3.8	90	-5.2	139	348	967.6	NA	0.0000		9999	1410	3220	0	0
2017/11/26 11:06:00	BASE	8.29	214	10.08	215	-3.8	90	-5.2	148	368	967.6	NA	0.0000		9999	2820	0	0	0
2017/11/26 11:07:00	BASE	8.51	218	10.08	215	-3.9	90	-5.2	159	390	967.6	NA	0.0000		9999	1610	2230	0	0
2017/11/26 11:08:00	BASE	8.70	224	10.29	227	-3.9	90	-5.2	167	407	967.6	NA	0.0000		9999	1440	4070	7510	0
2017/11/26 11:09:00	BASE	9.19	223	10.65	220	-3.8	90	-5.2	158	391	967.6	NA	0.0000		9999	1570	3450	4040	0
2017/11/26 11:10:00	BASE	9.26	220	10.65	220	-3.9	90	-5.2	148	372	967.6	NA	0.0000		9999	1540	3710	0	0
2017/11/26 11:11:00	BASE	9.09	225	10.65	220	-3.9	90	-5.3	113	301	967.6	NA	0.0000		9999	3350	0	0	0
2017/11/26 11:12:00	BASE	9.64	229	11.42	232	-3.9	89	-5.4	85	239	967.6	NA	0.0000		9999	1480	0	0	0
2017/11/26 11:13:00	BASE	10.12	229	11.42	232	-3.9	89	-5.4	83	230	967.7	NA	0.0000		9999	1510	0	0	0
2017/11/26 11:14:00	BASE	9.57	228	11.42	232	-3.9	89	-5.5	103	270	967.6	NA	0.0000		9999	1480	0	0	0
2017/11/26 11:15:00	BASE	9.45	225	11.42	232	-4.0	89	-5.5	127	320	967.6	NA	0.0000		9999	1610	2690	0	0
2017/11/26 11:16:00	BASE	9.82	221	11.42	232	-4.0	89	-5.5	141	350	967.7	NA	0.0000		9999	2620	0	0	0
2017/11/26 11:17:00	BASE	10.42	216	12.91	207	-4.0	89	-5.5	156	381	967.7	NA	0.0000		9999	2720	0	0	0
2017/11/26 11:18:00	BASE	10.45	213	12.91	207	-4.0	89	-5.6	165	400	967.7	NA	0.0000		9999	1770	3050	0	0
2017/11/26 11:19:00	BASE	9.11	217	12.91	207	-4.0	89	-5.6	176	421	967.7	NA	0.0000		9999	3250	0	0	0
2017/11/26 11:20:00	BASE	9.27	222	12.91	207	-4.0	88	-5.7	182	435	967.7	NA	0.0000		9999	1710	2130	3350	0
2017/11/26 11:21:00	BASE	9.71	222	12.91	207	-4.0	88	-5.7	183	440	967.8	NA	0.0000		9999	7190	0	0	0
2017/11/26 11:22:00	BASE	9.43	219	12.91	210	-4.0	88	-5.7	182	441	967.8	NA	0.0000		9999	1570	2560	7710	0
2017/11/26 11:23:00	BASE	10.67	220	12.91	221	-4.0	88	-5.7	190	456	967.8	NA	0.0000		9999	1440	7640	0	0
2017/11/26 11:24:00	BASE	11.70	222	12.91	221	-4.0	88	-5.7	197	470	967.8	NA	0.0000		9999	2330	7510	0	0
2017/11/26 11:25:00	BASE	11.41	222	12.91	221	-4.0	88	-5.8	205	485	967.8	NA	0.0000	-SN	9999	7580	0	0	0
2017/11/26 11:26:00	BASE	10.63	221	12.91	221	-4.1	88	-5.7	211	499	967.8	NA	0.0000	-SN	9999	1940	7870	0	0
2017/11/26 11:27:00	BASE	9.94	220	12.91	221	-4.2	89	-5.8	219	515	967.9	NA	0.0000	-SN	9000	2100	7970	0	0
2017/11/26 11:28:00	BASE	10.31	216	12.91	221	-4.2	89	-5.7	205	490	967.8	NA	0.0000	-SN	7000	2990	7940	0	0
2017/11/26 11:29:00	BASE	11.54	214	12.91	221	-4.2	90	-5.7	192	465	967.8	NA	0.0000	-SN BR	3500	300	0	0	0
2017/11/26 11:30:00	BASE	11.97	214	13.48	218	-4.2	90	-5.6	173	427	967.8	NA	0.0000	-SN BR	2700	300	0	0	0
2017/11/26 11:31:00	BASE	11.03	216	13.48	218	-4.2	91	-5.5	175	430	967.9	NA	0.0000	-SN BR	2100	0	0	0	2990
2017/11/26 11:32:00	BASE	10.29	218	13.48	218	-4.3	91	-5.5	181	441	967.9	NA	0.0000	-SN BR	2400	390	0	0	0
2017/11/26 11:33:00	BASE	10.07	218	13.48	218	-4.3	92	-5.4	183	442	967.9	NA	0.0000	-SN BR	2300	300	0	0	0
2017/11/26 11:34:00	BASE	10.07	218	13.48	218	-4.3	92	-5.4	197	472	967.9	NA	0.0000	-SN BR	3100	330	0	0	0
2017/11/26 11:35:00	BASE	10.84	218	13.48	218	-4.3	93	-5.3	221	517	967.9	NA	0.0000	-SN BR	8000	330	2690	0	0
2017/11/26 11:36:00	BASE	11.24	217	13.48	218	-4.3	93	-5.3	244	566	967.9	NA	0.0000	-SN BR	5000	360	0	0	0
2017/11/26 11:37:00	BASE	10.97	215	13.48	218	-4.3	93	-5.2	271	620	968.0	NA	0.0000	-SN BR	9000	390	3310	0	0
2017/11/26 11:38:00	BASE	10.30	212	13.48	218	-4.3	93	-5.2	274	633	968.0	NA	0.0000	-SN BR	5000	300	0	0	0
2017/11/26 11:39:00	BASE	9.73	210	13.48	218	-4.3	94	-5.2	273	637	968.0	NA	0.0000	-SN BR	9999	300	0	0	0
2017/11/26 11:40:00	BASE	8.89	210	12.55	214	-4.3	94	-5.1	270	635	968.0	NA	0.0000	-SN BR	9999	3310	0	0	0
2017/11/26 11:41:00	BASE	8.94	211	12.55	214	-4.2	94	-5.0	245	581	968.0	NA	0.0000	-SN BR	9999	330	0	0	0
2017/11/26 11:42:00	BASE	10.11	213	12.55	214	-4.2	94	-5.0	248	586	968.0	NA	0.0000	-SN BR	9999	360	0	0	0
2017/11/26 11:43:00	BASE	10.19	216	12.45	214	-4.2	95	-4.9	256	602	968.0	NA	0.0000	-SN BR	9999	590	0	0	0
2017/11/26 11:44:00	BASE	10.21	216	12.45	214	-4.2	95	-4.9	277	642	968.0	NA	0.0000	-SN BR	9999	1280	0	0	0
2017/11/26 11:45:00	BASE	9.89	219	12.35	214	-4.2	95	-4.8	257	604	968.1	NA	0.0000	-SN	9999	1020	1770	0	0
2017/11/26 11:46:00	BASE	9.94	223	12.35	214	-4.2	95	-4.8	289	666	968.1	NA	0.0000	-SN	9999	1250	2330	0	0
2017/11/26 11:47:00	BASE	9.93	220	12.35	214	-4.2	95	-4.9	292	677	968.1	NA	0.0000	-SN	9999	1310	2130	0	0
2017/11/26 11:48:00	BASE	8.65	221	12.35	214	-4.2	95	-4.8	269	637	968.2	NA	0.0000	-SN	9999	1210	1900	0	0
2017/11/26 11:49:00	BASE	8.41	221	12.35	214	-4.1	95	-4.8	248	597	968.1	NA	0.0000	-SN	9999	1180	0	0	0
2017/11/26 11:50:00	BASE	8.62	220	12.35	214	-4.1	95	-4.8	203	510	968.2	NA	0.0000	-SN	9999	1350	0	0	0
2017/11/26 11:51:00	BASE	8.19	221	12.35	214	-4.1	95	-4.8	197	490	968.2	NA	0.0000	-SN	9999	1210	0	0	0
2017/11/26 11:52:00	BASE	8.15	223	11.68	214	-4.1	95	-4.8	181	459	968.1	NA	0.0000	-SN	8000	360	0	0	0
2017/11/26 11:53:00	BASE	9.04	223	11.47	227	-4.1	95	-4.8	151	394	968.2	NA	0.0000	-SN	4100	260	0	0	0
2017/11/26 11:54:00	BASE	9.54	222	11.47	227	-4.1	95	-4.8	182	452	968.2	NA	0.0000	-SN BR	2200	0	0	0	1410
2017/11/26 11:55:00	BASE	8.76	223	11.47	227	-4.1	95	-4.8	166	422	968.2	NA	0.0000	-SN BR	1900	0	0	0	3640
2017/11/26 11:56:00	BASE	8.46	225	11.47	227	-4.2	95	-4.8	172	428	968.2	NA	0.0000	-SN BR	1700	0	0	0	2030
2017/11/26 11:57:00	BASE	9.03	226	11.47	227	-4.2	96	-4.8	182	450	968.2	NA	0.0000	-SN BR	1400	0	0	0	1740
2017/11/26 11:58:00	BASE	8.99	224	11.47	227	-4.2	96	-4.8	199	487	968.2	NA	0.0000	-SN BR	2400	0	0	0	1970
2017/11/26 11:59:00	BASE	8.94	226	11.47	227	-4.2	96	-4.8	197	485	968.2	NA	0.0000	-SN BR	4100	0	0	0	3810
2017/11/26 12:00:00	BASE	8.85	224	11.47	227	-4.3	96	-4.8	192	473	968.2	NA	0.0000	-SN BR	3800	0	0	0	2360
2017/11/26 12:01:00	BASE	8.44	223	11.47	227	-4.3	96	-4.8	194	476	968.2	NA	0.0000	-SN BR	2400	0	0	0	2400
2017/11/26 12:02:00	BASE	9.10	227	11.68	233	-4.3	96	-4.8	187	463	968.2	NA	0.0000	-SN BR	2100	0	0	0	2890
2017/11/26 12:03:00	BASE	10.08	229	11.78	225	-4.3	96	-4.8	213	517	968.2	NA	0.0000	-SN BR	2500	0	0	0	2130
2017/11/26 12:04:00	BASE	10.18	229	11.78	225	-4.3	96	-4.7	221	534	968.2	NA	0.0000	-SN BR	4600	300	0	0	0
2017/11/26 12:05:00	BASE	10.12	228	11.78	225	-4.2	96	-4.7	245	582	968.2	NA	0.0000	-SN BR	9999	490	2070	0	0
2017/11/26 12:06:00	BASE	10.03	225	11.78	225	-4.2	96	-4.7	255	604	968.2	NA	0.0000	-SN BR	9999	1770	2430	0	0
2017/11/26 12:07:00	BASE	9.89	222	11.78	225	-4.2	96	-4.7	257	608	968.3	NA	0.0000	-SN BR	9999	1350	2030	0	0
2017/11/26 12:08:00	BASE	9.75	220	11.78	225	-4.1	96	-4.7	282	658	968.3	NA	0.0000	-SN BR	9999	1380	0	0	0
2017/11/26 12:09:00	BASE	9.62	224	11.78	225	-4.1	96	-4.7	302	702	968.3	NA	0.0000	-SN BR	9999	1380	2590	0	0
2017/11/26 12:10:00	BASE	10.20	228	12.30	229	-4.1	95	-4.7	288	673	968.3	NA	0.0000	-SN BR	9999	1440	0	0	0
2017/11/26 12:11:00	BASE	10.51	228	12.30	229	-4.0	95	-4.7	314	726	968.3	NA	0.0000	-SN BR	9999	1380	0	0	0
2017/11/26 12:12:00	BASE	10.28	228	12.30	229	-4.0	95	-4.8	322	746	968.3	NA	0.0000	-SN BR	9999	1410	0	0	0
2017/11/26 12:13:00	BASE	10.40	229	12.30	229	-4.0	94	-4.8	342	789	968.4	NA	0.0000	-SN	9999	1610	23230	0	0
2017/11/26 12:14:00	BASE	10.20	227	12.30	229	-4.0	94	-4.8	393	888	968.4	NA	0.0000	-SN	9999	1510	3220	0	0
2017/11/26 12:15:00	BASE	10.26	226	12.30	229	-4.0	94	-4.9	570	1257	968.4	NA	0.0000		9999	3410	7680	0	0
2017/11/26 12:16:00	BASE	9.83	223	12.30	229	-4.0	93	-4.9	330	779	968.5	NA	0.0000		9999	1840	0	0	0
2017/11/26 12:17:00	BASE	9.41	223	12.30	229	-4.0	93	-4.9	277	668	968.5	NA	0.0000		9999	1800	2820	0	0
2017/11/26 12:18:00	BASE	9.93	223	12.30	229	-3.9	93	-4.9	271	659	968.5	NA	0.0000		9999	1970	3120	0	0
2017/11/26 12:19:00	BASE	9.60	220	12.30	229	-3.9	93	-5.0	232	579	968.5	NA	0.0000		9999	1710	2230	0	0
2017/11/26 12:20:00	BASE	9.40	223	12.04	223	-4.0	92	-5.0	250	601	968.5	NA	0.0000		9999	1540	0	0	0
2017/11/26 12:21:00	BASE	9.71	224	12.04	223	-4.0	92	-5.1	288	676	968.5	NA	0.0000		9999	1440	3120	3810	0
2017/11/26 12:22:00	BASE	9.39	221	12.04	223	-4.0	92	-5.1	283	672	968.6	NA	0.0000		9999	1770	4920	0	0
2017/11/26 12:23:00	BASE	8.79	223	12.04	223	-4.0	91	-5.1	248	605	968.6	NA	0.0000		9999	1840	0	0	0
2017/11/26 12:24:00	BASE	9.00	223	12.04	223	-3.9	91	-5.1	244	595	968.6	NA	0.0000		9999	1480	0	0	0
2017/11/26 12:25:00	BASE	9.64	224	11.52	220	-3.9	91	-5.1	254	613	968.5	NA	0.0000		9999	1480	19160	23430	0
2017/11/26 12:26:00	BASE	9.43	224	11.52	220	-3.9	91	-5.1	263	631	968.6	NA	0.0000		9999	1410	3080	0	0
2017/11/26 12:27:00	BASE	8.89	226	11.52	220	-3.9	91	-5.1	295	692	968.6	NA	0.0000		9999	1570	3640	0	0
2017/11/26 12:28:00	BASE	8.72	226	11.01	215	-3.8	91	-5.1	332	766	968.6	NA	0.0000		9999	1840	4000	7910	0
2017/11/26 12:29:00	BASE	9.09	222	11.88	221	-3.8	91	-5.1	370	845	968.6	NA	0.0000		9999	2260	3770	0	0
2017/11/26 12:30:00	BASE	8.85	218	11.88	221	-3.8	91	-5.1	380	861	968.7	NA	0.0000		9999	1440	7870	0	0
2017/11/26 12:31:00	BASE	8.97	218	11.88	221	-3.8	91	-5.0	418	938	968.6	NA	0.0000		9999	4070	8040	0	0
2017/11/26 12:32:00	BASE	10.42	214	12.76	211	-3.8	91	-5.0	402	912	968.6	NA	0.0000		9999	7970	0	0	0
2017/11/26 12:33:00	BASE	11.08	208	12.76	211	-3.8	91	-5.0	374	855	968.6	NA	0.0000		9999	1410	7970	0	0
2017/11/26 12:34:00	BASE	10.17	212	12.76	211	-3.8	91	-5.0	382	879	968.7	NA	0.0000		9999	1510	7910	0	0
2017/11/26 12:35:00	BASE	8.96	219	12.76	211	-3.8	91	-5.0	359	832	968.7	NA	0.0000		9999	1310	0	0	0
2017/11/26 12:36:00	BASE	9.21	221	12.76	211	-3.8	91	-5.0	399	907	968.7	NA	0.0000		9999	1410	0	0	0
2017/11/26 12:37:00	BASE	10.13	220	12.76	211	-3.7	91	-5.0	411	942	968.7	NA	0.0000		9999	7970	0	0	0
2017/11/26 12:38:00	BASE	10.06	219	12.76	211	-3.7	91	-4.9	371	859	968.7	NA	0.0000		9999	1640	8010	0	0
2017/11/26 12:39:00	BASE	9.94	215	12.76	211	-3.7	91	-4.9	368	857	968.7	NA	0.0000		9999	1610	0	0	0
2017/11/26 12:40:00	BASE	9.15	213	12.76	211	-3.7	91	-4.9	365	850	968.8	NA	0.0000		9999	1410	0	0	0
2017/11/26 12:41:00	BASE	7.99	216	12.76	211	-3.7	91	-4.9	344	812	968.8	NA	0.0000		9999	1440	2300	4170	0
2017/11/26 12:42:00	BASE	8.24	220	11.83	218	-3.7	91	-4.9	311	745	968.8	NA	0.0000		9999	1350	2030	4360	0
2017/11/26 12:43:00	BASE	8.73	219	11.83	218	-3.6	91	-4.9	316	755	968.8	NA	0.0000		9999	1350	7870	0	0
2017/11/26 12:44:00	BASE	9.49	218	11.83	218	-3.6	91	-4.9	305	731	968.7	NA	0.0000		9999	1410	7550	22740	0
2017/11/26 12:45:00	BASE	9.53	218	11.83	218	-3.6	91	-4.8	304	728	968.8	NA	0.0000		9999	1250	0	0	0
2017/11/26 12:46:00	BASE	8.66	216	11.83	218	-3.6	91	-4.8	273	671	968.8	NA	0.0000		9999	1310	1940	0	0
2017/11/26 12:47:00	BASE	8.28	220	11.83	218	-3.6	91	-4.8	263	646	968.8	NA	0.0000		9999	1540	0	0	0
2017/11/26 12:48:00	BASE	8.73	224	11.47	221	-3.6	91	-4.8	277	673	968.8	NA	0.0000		9999	1210	0	0	0
2017/11/26 12:49:00	BASE	9.80	221	11.88	222	-3.6	91	-4.8	268	657	968.8	NA	0.0000		9999	1350	7420	0	0
2017/11/26 12:50:00	BASE	10.08	221	11.88	222	-3.6	91	-4.8	298	714	968.8	NA	0.0000		9999	1380	0	0	0
2017/11/26 12:51:00	BASE	9.72	223	11.88	222	-3.6	91	-4.8	323	764	968.8	NA	0.0000		9999	1540	2920	0	0
2017/11/26 12:52:00	BASE	9.84	222	13.12	217	-3.6	91	-4.8	321	765	968.8	NA	0.0000		9999	1640	0	0	0
2017/11/26 12:53:00	BASE	10.53	218	13.12	217	-3.6	91	-4.8	315	753	968.8	NA	0.0000		9999	1480	3120	0	0
2017/11/26 12:54:00	BASE	9.66	217	13.12	217	-3.6	91	-4.8	283	689	968.9	NA	0.0000		9999	1350	2890	0	0
2017/11/26 12:55:00	BASE	8.49	222	13.12	217	-3.6	91	-4.8	251	621	968.9	NA	0.0000		9999	1280	0	0	0
2017/11/26 12:56:00	BASE	9.45	226	13.12	217	-3.6	92	-4.8	279	671	968.8	NA	0.0000		9999	1350	2130	0	0
2017/11/26 12:57:00	BASE	10.08	226	13.12	217	-3.6	91	-4.8	287	689	968.9	NA	0.0000		9999	1510	2330	3220	0
2017/11/26 12:58:00	BASE	9.71	221	13.12	217	-3.6	92	-4.7	259	637	968.9	NA	0.0000		9999	1610	7420	0	0
2017/11/26 12:59:00	BASE	8.97	218	13.12	217	-3.5	92	-4.7	261	642	968.9	NA	0.0000		9999	1280	0	0	0
2017/11/26 13:00:00	BASE	9.98	219	13.12	217	-3.5	92	-4.7	241	607	968.9	NA	0.0000		9999	1610	0	0	0
2017/11/26 13:01:00	BASE	12.08	216	14.04	215	-3.6	92	-4.7	238	598	968.9	NA	0.0000		9999	1570	0	0	0
2017/11/26 13:02:00	BASE	12.11	215	14.15	217	-3.6	92	-4.7	258	637	968.9	NA	0.0000		9999	1380	0	0	0
2017/11/26 13:03:00	BASE	11.60	218	14.15	217	-3.7	92	-4.8	251	624	968.9	NA	0.0000		9999	1440	0	0	0
2017/11/26 13:04:00	BASE	11.81	219	14.15	217	-3.7	92	-4.8	248	613	968.9	NA	0.0000		9999	1250	0	0	0
2017/11/26 13:05:00	BASE	12.16	218	14.20	213	-3.8	92	-4.9	269	654	968.9	NA	0.0000		9999	1280	2030	0	0
2017/11/26 13:06:00	BASE	12.24	219	14.20	213	-3.8	92	-4.9	283	681	968.9	NA	0.0000		9999	1280	2230	0	0
2017/11/26 13:07:00	BASE	11.46	221	14.20	213	-3.8	92	-4.9	269	653	969.0	NA	0.0000		9999	1210	0	0	0
2017/11/26 13:08:00	BASE	10.70	219	14.20	213	-3.8	92	-4.9	259	634	969.0	NA	0.0000		9999	1350	1970	0	0
2017/11/26 13:09:00	BASE	11.35	217	14.20	213	-3.8	92	-4.9	270	650	969.0	NA	0.0000		9999	1310	0	0	0
2017/11/26 13:10:00	BASE	10.40	216	14.20	213	-3.8	92	-4.9	273	656	969.1	NA	0.0000		9999	1180	0	0	0
2017/11/26 13:11:00	BASE	9.40	220	14.20	213	-3.8	92	-4.9	266	647	969.0	NA	0.0000		9999	1150	0	0	0
2017/11/26 13:12:00	BASE	10.43	223	14.20	213	-3.8	92	-4.9	211	536	969.0	NA	0.0000		9999	1180	23690	0	0
2017/11/26 13:13:00	BASE	10.82	223	14.20	213	-3.8	92	-4.9	256	614	969.0	NA	0.0000		9999	1280	8100	0	0
2017/11/26 13:14:00	BASE	10.59	221	14.20	213	-3.8	92	-4.9	268	641	969.1	NA	0.0000		9999	3900	8460	0	0
2017/11/26 13:15:00	BASE	10.21	219	14.15	215	-3.8	92	-4.9	287	680	969.1	NA	0.0000		9999	1380	8460	0	0
2017/11/26 13:16:00	BASE	10.13	220	14.15	215	-3.8	92	-4.9	275	655	969.1	NA	0.0000		9999	4990	8790	0	0
2017/11/26 13:17:00	BASE	10.08	221	14.15	215	-3.8	92	-4.9	411	934	969.2	NA	0.0000		9999	1540	8860	0	0
2017/11/26 13:18:00	BASE	10.33	220	14.15	215	-3.8	92	-4.9	340	789	969.1	NA	0.0000		9999	1380	0	0	0
2017/11/26 13:19:00	BASE	10.37	218	12.76	226	-3.8	92	-4.8	329	767	969.2	NA	0.0000		9999	1410	24510	0	0
2017/11/26 13:20:00	BASE	10.89	217	13.48	229	-3.8	92	-4.9	501	1134	969.2	NA	0.0000		9999	1610	8960	0	0
2017/11/26 13:21:00	BASE	11.30	219	13.48	229	-3.7	92	-4.9	405	921	969.2	NA	0.0000		9999	1350	1870	0	0
2017/11/26 13:22:00	BASE	10.33	219	13.48	229	-3.7	92	-4.8	454	1023	969.2	NA	0.0000		9999	1210	8860	0	0
2017/11/26 13:23:00	BASE	9.63	217	13.48	229	-3.7	92	-4.8	539	1210	969.3	NA	0.0000		9999	1840	8920	0	0
2017/11/26 13:24:00	BASE	9.89	220	13.48	229	-3.6	92	-4.8	326	762	969.2	NA	0.0000		9999	1540	2300	0	0
2017/11/26 13:25:00	BASE	10.73	220	13.48	229	-3.6	92	-4.7	637	1385	969.2	NA	0.0000		9999	8920	0	0	0
2017/11/26 13:26:00	BASE	10.91	218	13.48	229	-3.6	92	-4.7	479	1073	969.3	NA	0.0000		9999	2030	9020	0	0
2017/11/26 13:27:00	BASE	9.95	218	13.48	229	-3.6	92	-4.7	431	955	969.3	NA	0.0000		9999	1410	8960	0	0
2017/11/26 13:28:00	BASE	9.91	217	13.48	229	-3.6	91	-4.8	594	1322	969.3	NA	0.0000		9999	9020	0	0	0
2017/11/26 13:29:00	BASE	10.38	214	13.48	229	-3.5	91	-4.8	519	1164	969.3	NA	0.0000		9999	8960	0	0	0
2017/11/26 13:30:00	BASE	9.92	216	13.12	214	-3.5	91	-4.8	405	918	969.4	NA	0.0000		9999	1250	9020	0	0
2017/11/26 13:31:00	BASE	10.31	217	12.96	212	-3.5	91	-4.8	449	1012	969.3	NA	0.0000		9999	9020	0	0	0
2017/11/26 13:32:00	BASE	11.45	214	12.96	212	-3.5	91	-4.8	486	1100	969.3	NA	0.0000		9999	1480	8990	0	0
2017/11/26 13:33:00	BASE	11.38	213	12.96	212	-3.6	91	-4.8	508	1136	969.4	NA	0.0000		9999	1350	9060	0	0
2017/11/26 13:34:00	BASE	10.02	212	12.96	212	-3.6	91	-4.8	478	1076	969.4	NA	0.0000		9999	1310	9090	0	0
2017/11/26 13:35:00	BASE	9.19	213	12.96	212	-3.6	91	-4.8	500	1132	969.4	NA	0.0000		9999	1310	0	0	0
2017/11/26 13:36:00	BASE	9.13	217	12.96	212	-3.6	91	-4.8	950	1515	969.5	NA	0.0000		9999	1710	9120	0	0
2017/11/26 13:37:00	BASE	8.32	218	12.96	212	-3.5	91	-4.8	715	1515	969.5	NA	0.0000		9999	1480	0	0	0
2017/11/26 13:38:00	BASE	8.18	214	12.96	212	-3.4	91	-4.7	426	1018	969.5	NA	0.0000		9999	1410	0	0	0
2017/11/26 13:39:00	BASE	8.70	215	12.96	212	-3.4	91	-4.6	269	681	969.5	NA	0.0000		9999	1480	0	0	0
2017/11/26 13:40:00	BASE	8.88	220	12.96	212	-3.4	91	-4.6	247	634	969.5	NA	0.0000		9999	1540	0	0	0
2017/11/26 13:41:00	BASE	10.02	219	12.91	217	-3.4	91	-4.6	295	739	969.4	NA	0.0000		9999	1510	0	0	0
2017/11/26 13:42:00	BASE	11.27	222	12.91	217	-3.4	91	-4.7	250	653	969.4	NA	0.0000		9999	1510	0	0	0
2017/11/26 13:43:00	BASE	11.16	225	12.91	217	-3.5	91	-4.8	196	520	969.4	NA	0.0000		9999	1280	0	0	0
2017/11/26 13:44:00	BASE	10.91	220	13.74	217	-3.5	90	-4.9	205	524	969.5	NA	0.0000	-SN	9999	1350	1900	0	0
2017/11/26 13:45:00	BASE	11.66	217	14.82	215	-3.5	90	-4.9	270	656	969.5	NA	0.0000	-SN	9999	5280	9450	0	0
2017/11/26 13:46:00	BASE	12.10	217	14.82	215	-3.6	90	-5.0	321	756	969.5	NA	0.0000	-SN	9999	2000	22470	0	0
2017/11/26 13:47:00	BASE	11.56	214	14.82	215	-3.6	90	-5.0	600	1321	969.5	NA	0.0000	-SN	9999	2030	6430	0	0
2017/11/26 13:48:00	BASE	10.97	215	14.82	215	-3.6	90	-5.1	714	1515	969.6	NA	0.0000	-SN	9999	2300	9480	0	0
2017/11/26 13:49:00	BASE	10.48	218	14.82	215	-3.7	90	-5.1	464	1029	969.6	NA	0.0000	-SN	9999	1840	9510	0	0
2017/11/26 13:50:00	BASE	11.24	216	14.82	215	-3.6	89	-5.2	600	1314	969.5	NA	0.0000	-SN	9999	3250	9450	0	0
2017/11/26 13:51:00	BASE	11.96	214	14.82	215	-3.6	89	-5.2	693	1505	969.6	NA	0.0000	-SN	9999	2360	9420	0	0
2017/11/26 13:52:00	BASE	10.56	215	14.82	215	-3.6	88	-5.2	564	1260	969.7	NA	0.0000	-SN	9999	3310	9510	0	0
2017/11/26 13:53:00	BASE	9.84	219	14.82	215	-3.5	88	-5.2	442	1005	969.7	NA	0.0000		9999	4200	9480	0	0
2017/11/26 13:54:00	BASE	10.14	222	14.82	215	-3.5	87	-5.3	444	1012	969.6	NA	0.0000		9999	3670	0	0	0
2017/11/26 13:55:00	BASE	10.11	223	14.15	215	-3.5	87	-5.3	401	927	969.7	NA	0.0000		9999	4130	4690	0	0
2017/11/26 13:56:00	BASE	10.27	221	13.84	218	-3.4	87	-5.3	407	934	969.7	NA	0.0000		9999	3740	9510	0	0
2017/11/26 13:57:00	BASE	10.65	221	13.84	218	-3.5	87	-5.4	411	949	969.7	NA	0.0000		9999	4130	0	0	0
2017/11/26 13:58:00	BASE	10.77	221	13.84	218	-3.5	86	-5.5	387	897	969.7	NA	0.0000		9999	4330	9480	0	0
2017/11/26 13:59:00	BASE	10.19	223	13.84	218	-3.5	86	-5.5	380	882	969.7	NA	0.0000		9999	3940	9420	24080	0
2017/11/26 14:00:00	BASE	10.29	222	13.58	205	-3.5	86	-5.5	384	892	969.7	NA	0.0000		9999	3220	4130	0	0
2017/11/26 14:01:00	BASE	10.59	220	12.55	214	-3.6	86	-5.6	395	908	969.7	NA	0.0000		9999	9380	0	0	0
2017/11/26 14:02:00	BASE	10.88	219	13.27	216	-3.6	86	-5.6	448	1020	969.7	NA	0.0000		9999	9420	0	0	0
2017/11/26 14:03:00	BASE	11.30	222	13.27	216	-3.6	85	-5.7	445	1009	969.7	NA	0.0000		9999	9420	0	0	0
2017/11/26 14:04:00	BASE	11.16	224	13.27	216	-3.6	85	-5.7	470	1063	969.7	NA	0.0000		9999	9350	0	0	0
2017/11/26 14:05:00	BASE	10.62	220	13.27	216	-3.6	85	-5.8	573	1281	969.8	NA	0.0000		9999	9450	21160	0	0
2017/11/26 14:06:00	BASE	10.49	218	13.27	216	-3.6	84	-5.9	520	1169	969.7	NA	0.0000		9999	9480	0	0	0
2017/11/26 14:07:00	BASE	10.63	222	13.27	216	-3.6	84	-5.9	643	1428	969.8	NA	0.0000		9999	9480	0	0	0
2017/11/26 14:08:00	BASE	10.67	221	13.27	216	-3.5	83	-6.0	544	1220	969.8	NA	0.0000		9999	9420	0	0	0
2017/11/26 14:09:00	BASE	10.53	219	13.27	216	-3.5	83	-6.0	532	1197	969.8	NA	0.0000		9999	9420	0	0	0
2017/11/26 14:10:00	BASE	10.21	221	13.27	216	-3.4	82	-6.1	535	1199	969.8	NA	0.0000		9999	9480	0	0	0
2017/11/26 14:11:00	BASE	10.24	219	13.27	216	-3.4	81	-6.1	507	1144	969.8	NA	0.0000		9999	5610	9510	0	0
2017/11/26 14:12:00	BASE	9.78	220	12.86	222	-3.4	81	-6.2	449	1024	969.8	NA	0.0000		9999	5510	0	0	0
2017/11/26 14:13:00	BASE	9.95	220	12.86	222	-3.3	80	-6.3	435	996	969.8	NA	0.0000		9999	5510	0	0	0
2017/11/26 14:14:00	BASE	9.87	223	12.86	222	-3.3	80	-6.4	453	1030	969.8	NA	0.0000		9999	5480	9510	0	0
2017/11/26 14:15:00	BASE	9.77	226	12.86	222	-3.3	79	-6.4	476	1080	969.8	NA	0.0000		9999	5450	9420	18670	0
2017/11/26 14:16:00	BASE	9.54	223	12.81	216	-3.3	79	-6.4	463	1055	969.9	NA	0.0000		9999	9450	0	0	0
2017/11/26 14:17:00	BASE	9.28	228	12.81	216	-3.3	79	-6.4	442	1006	969.8	NA	0.0000		9999	9420	0	0	0
2017/11/26 14:18:00	BASE	9.98	231	12.50	223	-3.3	79	-6.4	455	1028	969.8	NA	0.0000		9999	9450	0	0	0
2017/11/26 14:19:01	BASE	10.30	226	12.45	222	-3.3	79	-6.4	490	1103	969.8	NA	0.0000		9999	9450	0	0	0
2017/11/26 14:20:00	BASE	10.08	224	11.88	233	-3.3	79	-6.4	518	1169	969.8	NA	0.0000		9999	9380	0	0	0
2017/11/26 14:21:00	BASE	9.81	224	11.88	233	-3.2	78	-6.5	524	1183	969.8	NA	0.0000		9999	9450	0	0	0
2017/11/26 14:22:00	BASE	10.06	222	12.55	221	-3.2	78	-6.5	557	1245	969.9	NA	0.0000		9999	9420	0	0	0
2017/11/26 14:23:00	BASE	10.50	222	12.55	221	-3.2	78	-6.5	614	1371	969.9	NA	0.0000		9999	9480	0	0	0
2017/11/26 14:24:00	BASE	9.92	227	12.55	221	-3.2	78	-6.6	500	1141	969.9	NA	0.0000		9999	2330	0	0	0
2017/11/26 14:25:00	BASE	9.67	227	12.55	221	-3.2	78	-6.6	523	1179	969.9	NA	0.0000		9999	9350	0	0	0
2017/11/26 14:26:00	BASE	9.85	223	12.55	221	-3.2	77	-6.6	534	1208	969.9	NA	0.0000		9999	2620	9480	0	0
2017/11/26 14:27:00	BASE	9.75	221	12.55	221	-3.2	77	-6.6	502	1142	969.9	NA	0.0000		9999	2760	9450	0	0
2017/11/26 14:28:00	BASE	9.86	220	12.55	221	-3.2	77	-6.7	474	1090	969.9	NA	0.0000		9999	2950	9420	0	0
2017/11/26 14:29:00	BASE	9.49	222	12.55	221	-3.2	77	-6.7	528	1201	970.0	NA	0.0000		9999	2920	9450	21160	0
2017/11/26 14:30:00	BASE	8.75	226	12.55	221	-3.2	77	-6.7	586	1320	970.0	NA	0.0000		9999	2990	9510	0	0
2017/11/26 14:31:00	BASE	8.40	222	12.55	221	-3.2	77	-6.6	522	1175	970.1	NA	0.0000		9999	2130	0	0	0
2017/11/26 14:32:00	BASE	8.03	219	11.99	224	-3.2	78	-6.5	491	1118	970.1	NA	0.0000		9999	2230	3020	21200	0
2017/11/26 14:33:00	BASE	8.44	223	11.21	217	-3.1	78	-6.4	460	1051	970.0	NA	0.0000		9999	2170	3020	0	0
2017/11/26 14:34:01	BASE	9.77	219	11.21	214	-3.1	78	-6.4	504	1146	970.0	NA	0.0000		9999	2330	2990	9480	0
2017/11/26 14:35:00	BASE	9.69	219	11.21	214	-3.1	78	-6.4	509	1155	970.0	NA	0.0000		9999	9510	0	0	0
2017/11/26 14:36:00	BASE	9.40	222	11.21	214	-3.2	78	-6.4	596	1340	970.0	NA	0.0000		9999	2330	9510	0	0
2017/11/26 14:37:00	BASE	9.63	223	11.21	214	-3.2	78	-6.4	533	1200	970.1	NA	0.0000		9999	9450	0	0	0
2017/11/26 14:38:01	BASE	9.34	226	11.21	214	-3.2	78	-6.5	575	1284	970.1	NA	0.0000		9999	9510	0	0	0
2017/11/26 14:39:01	BASE	9.39	228	11.21	214	-3.2	78	-6.5	603	1340	970.1	NA	0.0000		9999	9480	0	0	0
2017/11/26 14:40:00	BASE	9.48	229	11.21	214	-3.2	78	-6.4	567	1265	970.1	NA	0.0000		9999	9510	0	0	0
2017/11/26 14:41:00	BASE	9.14	227	11.21	214	-3.2	78	-6.4	524	1173	970.1	NA	0.0000		9999	2130	9580	0	0
2017/11/26 14:42:01	BASE	9.21	224	11.21	214	-3.1	78	-6.4	563	1258	970.1	NA	0.0000		9999	9550	0	0	0
2017/11/26 14:43:01	BASE	9.08	220	11.21	214	-3.1	78	-6.4	576	1289	970.2	NA	0.0000		9999	9650	0	0	0
2017/11/26 14:44:00	BASE	8.85	217	11.11	224	-3.1	78	-6.3	570	1275	970.2	NA	0.0000		9999	2170	0	0	0
2017/11/26 14:45:01	BASE	9.06	222	11.11	224	-3.1	79	-6.3	566	1270	970.1	NA	0.0000		9999	9610	0	0	0
2017/11/26 14:46:01	BASE	9.44	227	11.11	231	-3.1	79	-6.3	511	1141	970.1	NA	0.0000		9999	9580	0	0	0
2017/11/26 14:47:00	BASE	9.69	226	11.47	228	-3.2	79	-6.3	606	1348	970.2	NA	0.0000		9999	9580	0	0	0
2017/11/26 14:48:01	BASE	9.95	228	11.57	233	-3.2	78	-6.4	651	1442	970.2	NA	0.0000		9999	9550	20410	23920	0
2017/11/26 14:49:01	BASE	10.13	226	11.57	233	-3.2	78	-6.5	642	1418	970.2	NA	0.0000		9999	9580	0	0	0
2017/11/26 14:50:01	BASE	9.66	223	11.57	233	-3.2	78	-6.5	601	1339	970.2	NA	0.0000		9999	9610	20380	0	0
2017/11/26 14:51:01	BASE	9.08	220	11.57	233	-3.2	78	-6.5	587	1307	970.2	NA	0.0000		9999	9580	0	0	0
2017/11/26 14:52:01	BASE	9.13	220	11.57	233	-3.2	78	-6.5	618	1384	970.2	NA	0.0000		9999	9550	0	0	0
2017/11/26 14:53:01	BASE	9.16	218	11.57	233	-3.2	78	-6.5	591	1328	970.2	NA	0.0000		9999	2130	9580	0	0
2017/11/26 14:54:01	BASE	8.69	218	11.57	233	-3.2	78	-6.5	581	1304	970.2	NA	0.0000		9999	9650	0	0	0
2017/11/26 14:55:00	BASE	8.95	220	11.57	233	-3.2	78	-6.5	678	1495	970.2	NA	0.0000		9999	9580	0	0	0
2017/11/26 14:56:00	BASE	9.00	220	11.57	233	-3.2	78	-6.5	693	1515	970.2	NA	0.0000		9999	9580	0	0	0
2017/11/26 14:57:00	BASE	8.42	222	11.57	233	-3.2	78	-6.5	751	1515	970.2	NA	0.0000		9999	2170	2560	3480	0
2017/11/26 14:58:00	BASE	8.28	218	11.32	228	-3.1	78	-6.4	598	1336	970.3	NA	0.0000		9999	2200	8070	9740	0
2017/11/26 14:59:00	BASE	8.42	216	11.21	219	-3.1	78	-6.4	609	1364	970.2	NA	0.0000		9999	8040	8370	9580	0
2017/11/26 15:00:00	BASE	8.71	222	11.21	219	-3.1	78	-6.4	585	1314	970.3	NA	0.0000		9999	8400	9610	0	0
2017/11/26 15:01:00	BASE	8.41	225	11.21	219	-3.1	78	-6.4	543	1230	970.3	NA	0.0000		9999	8100	9680	16540	0
2017/11/26 15:02:00	BASE	7.97	224	10.34	206	-3.1	78	-6.4	441	1028	970.3	NA	0.0000		9999	2030	2490	0	0
2017/11/26 15:03:00	BASE	7.94	222	10.19	223	-3.1	78	-6.3	486	1122	970.3	NA	0.0000		9999	2030	9610	22510	0
2017/11/26 15:04:00	BASE	9.09	221	12.24	221	-3.0	78	-6.3	448	1066	970.2	NA	0.0000		9999	1900	2990	0	0
2017/11/26 15:05:00	BASE	10.23	220	12.24	221	-3.0	79	-6.2	397	957	970.2	NA	0.0000		9999	1900	2400	0	0
2017/11/26 15:06:00	BASE	10.02	220	12.24	221	-3.1	79	-6.3	393	951	970.3	NA	0.0000		9999	2170	3610	0	0
2017/11/26 15:07:00	BASE	9.69	223	12.24	221	-3.1	79	-6.3	346	859	970.3	NA	0.0000		9999	2170	0	0	0
2017/11/26 15:08:00	BASE	9.40	219	12.24	221	-3.2	79	-6.4	283	720	970.3	NA	0.0000		9999	2170	0	0	0
2017/11/26 15:09:00	BASE	9.43	213	12.24	221	-3.3	78	-6.5	272	695	970.3	NA	0.0000		9999	2260	3080	0	0
2017/11/26 15:10:00	BASE	10.54	212	12.30	215	-3.3	78	-6.5	282	709	970.3	NA	0.0000		9999	2130	0	0	0
2017/11/26 15:11:00	BASE	11.47	214	12.45	211	-3.3	78	-6.6	290	724	970.3	NA	0.0000		9999	2690	3670	0	0
2017/11/26 15:12:00	BASE	11.43	214	12.45	211	-3.4	78	-6.7	282	708	970.3	NA	0.0000		9999	3450	4000	24410	0
2017/11/26 15:13:00	BASE	11.44	215	12.45	211	-3.5	78	-6.7	256	652	970.3	NA	0.0000		9999	4100	0	0	0
2017/11/26 15:14:00	BASE	11.38	216	12.45	211	-3.5	78	-6.8	249	632	970.3	NA	0.0000		9999	4130	0	0	0
2017/11/26 15:15:00	BASE	11.33	214	12.45	211	-3.6	78	-6.9	261	654	970.4	NA	0.0000		9999	4230	4860	0	0
2017/11/26 15:16:00	BASE	10.91	216	12.45	211	-3.6	78	-6.9	315	763	970.4	NA	0.0000		9999	4630	20540	0	0
2017/11/26 15:17:00	BASE	10.67	220	12.45	211	-3.6	78	-6.9	364	861	970.4	NA	0.0000		9999	2760	3280	0	0
2017/11/26 15:18:00	BASE	10.42	218	12.45	211	-3.6	78	-6.9	343	826	970.4	NA	0.0000		9999	3220	0	0	0
2017/11/26 15:19:00	BASE	10.54	215	12.91	211	-3.6	78	-7.0	289	714	970.4	NA	0.0000		9999	3450	0	0	0
2017/11/26 15:20:00	BASE	10.25	217	12.91	211	-3.6	77	-7.0	270	673	970.4	NA	0.0000		9999	4950	0	0	0
2017/11/26 15:21:00	BASE	9.12	222	12.91	211	-3.6	77	-7.0	295	721	970.5	NA	0.0000		9999	3310	4990	0	0
2017/11/26 15:22:00	BASE	9.25	224	12.91	211	-3.6	77	-7.0	326	784	970.5	NA	0.0000		9999	3640	0	0	0
2017/11/26 15:23:00	BASE	9.71	224	12.91	211	-3.6	77	-6.9	311	751	970.5	NA	0.0000		9999	4990	0	0	0
2017/11/26 15:24:00	BASE	10.38	225	12.91	211	-3.6	77	-6.9	290	708	970.5	NA	0.0000		9999	5050	0	0	0
2017/11/26 15:25:00	BASE	10.10	225	12.91	211	-3.6	77	-7.0	496	1136	970.6	NA	0.0000		9999	5220	0	0	0
2017/11/26 15:26:00	BASE	9.35	227	12.91	211	-3.5	77	-7.0	1085	1515	970.6	NA	0.0000		9999	5050	0	0	0
2017/11/26 15:27:00	BASE	9.54	226	12.91	211	-3.5	77	-7.0	734	1515	970.6	NA	0.0000		9999	0	0	0	0
2017/11/26 15:28:00	BASE	9.68	221	12.91	211	-3.4	76	-7.0	901	1515	970.6	NA	0.0000		9999	0	0	0	0
2017/11/26 15:29:00	BASE	9.74	219	12.19	222	-3.4	76	-7.0	801	1515	970.6	NA	0.0000		9999	0	0	0	0
2017/11/26 15:30:00	BASE	9.65	222	12.19	222	-3.3	76	-6.9	501	1143	970.6	NA	0.0000		9999	2170	0	0	0
2017/11/26 15:31:00	BASE	9.24	224	12.19	222	-3.3	76	-6.9	410	955	970.6	NA	0.0000		9999	2100	0	0	0
2017/11/26 15:32:00	BASE	9.00	223	12.19	222	-3.3	76	-6.9	812	1515	970.6	NA	0.0000		9999	2300	0	0	0
2017/11/26 15:33:00	BASE	8.33	221	12.19	222	-3.2	76	-6.8	547	1246	970.6	NA	0.0000		9999	2130	0	0	0
2017/11/26 15:34:00	BASE	8.25	221	11.42	219	-3.2	77	-6.7	441	1027	970.7	NA	0.0000		9999	2430	3450	0	0
2017/11/26 15:35:00	BASE	9.07	221	11.42	219	-3.2	77	-6.6	476	1094	970.6	NA	0.0000		9999	2170	3540	0	0
2017/11/26 15:36:00	BASE	9.48	222	11.63	219	-3.2	77	-6.6	445	1029	970.7	NA	0.0000		9999	2170	0	0	0
2017/11/26 15:37:00	BASE	9.76	224	11.63	219	-3.2	77	-6.6	465	1061	970.7	NA	0.0000		9999	2170	3610	20600	0
2017/11/26 15:38:00	BASE	9.22	222	11.63	219	-3.3	77	-6.7	343	829	970.8	NA	0.0000		9999	2170	3740	0	0
2017/11/26 15:39:00	BASE	9.32	218	11.99	218	-3.3	77	-6.7	321	783	970.7	NA	0.0000		9999	5220	0	0	0
2017/11/26 15:40:00	BASE	10.55	216	12.60	214	-3.4	77	-6.7	331	802	970.7	NA	0.0000		9999	5220	0	0	0
2017/11/26 15:41:00	BASE	10.36	217	12.60	214	-3.4	78	-6.7	331	805	970.8	NA	0.0000		9999	5090	0	0	0
2017/11/26 15:42:00	BASE	9.39	219	12.60	214	-3.4	78	-6.7	341	826	970.8	NA	0.0000		9999	2100	0	0	0
2017/11/26 15:43:00	BASE	10.37	221	12.66	221	-3.5	78	-6.7	355	856	970.7	NA	0.0000		9999	2230	0	0	0
2017/11/26 15:44:00	BASE	10.92	220	12.66	221	-3.5	79	-6.7	362	874	970.8	NA	0.0000		9999	3080	3770	0	0
2017/11/26 15:45:00	BASE	10.51	217	12.66	221	-3.5	79	-6.7	366	888	970.8	NA	0.0000		9999	3810	0	0	0
2017/11/26 15:46:00	BASE	10.47	216	12.66	221	-3.5	79	-6.6	369	897	970.8	NA	0.0000		9999	2490	4070	0	0
2017/11/26 15:47:00	BASE	9.56	218	12.66	221	-3.5	79	-6.6	362	887	970.9	NA	0.0000		9999	4100	23560	0	0
2017/11/26 15:48:00	BASE	9.50	222	12.66	221	-3.5	79	-6.6	367	895	970.9	NA	0.0000		9999	4100	0	0	0
2017/11/26 15:49:00	BASE	10.44	223	12.66	221	-3.5	80	-6.5	376	914	970.9	NA	0.0000		9999	2100	2920	4130	0
2017/11/26 15:50:00	BASE	9.99	224	12.66	221	-3.5	80	-6.5	368	901	970.9	NA	0.0000		9999	4100	0	0	0
2017/11/26 15:51:00	BASE	9.13	222	12.66	221	-3.5	80	-6.4	338	844	970.9	NA	0.0000		9999	1970	3940	0	0
2017/11/26 15:52:00	BASE	9.00	224	12.66	221	-3.4	80	-6.4	309	784	970.9	NA	0.0000		9999	1900	0	0	0
2017/11/26 15:53:00	BASE	8.64	225	12.40	220	-3.4	80	-6.3	304	766	970.9	NA	0.0000		9999	1940	0	0	0
2017/11/26 15:54:00	BASE	8.97	222	12.40	220	-3.4	81	-6.3	324	802	970.9	NA	0.0000		9999	2260	0	0	0
2017/11/26 15:55:00	BASE	9.77	220	12.24	210	-3.4	81	-6.2	339	834	970.9	NA	0.0000		9999	2850	0	0	0
2017/11/26 15:56:00	BASE	10.20	220	11.78	224	-3.5	81	-6.3	369	892	970.9	NA	0.0000		9999	2200	0	0	0
2017/11/26 15:57:00	BASE	9.83	219	11.78	224	-3.5	81	-6.3	384	926	970.9	NA	0.0000		9999	2200	2790	3220	0
2017/11/26 15:58:00	BASE	8.94	222	11.78	224	-3.5	81	-6.3	381	923	971.0	NA	0.0000		9999	2330	4270	0	0
2017/11/26 15:59:00	BASE	8.59	224	11.78	224	-3.5	81	-6.3	351	864	971.0	NA	0.0000		9999	1770	0	0	0
2017/11/26 16:00:00	BASE	8.49	221	11.78	224	-3.5	82	-6.2	331	824	971.0	NA	0.0000		9999	1800	2430	0	0
2017/11/26 16:01:00	BASE	8.48	222	11.78	224	-3.5	82	-6.2	312	784	971.1	NA	0.0000		9999	1670	0	0	0
2017/11/26 16:02:00	BASE	9.05	227	11.78	224	-3.5	82	-6.1	304	766	971.0	NA	0.0000		9999	1740	0	0	0
2017/11/26 16:03:00	BASE	9.92	228	11.78	224	-3.5	82	-6.0	288	730	971.0	NA	0.0000		9999	1710	0	0	0
2017/11/26 16:04:00	BASE	10.30	225	12.19	222	-3.5	82	-6.1	286	720	971.0	NA	0.0000		9999	1940	0	0	0
2017/11/26 16:05:00	BASE	10.26	224	12.19	222	-3.6	82	-6.1	278	702	971.0	NA	0.0000		9999	3020	0	0	0
2017/11/26 16:06:00	BASE	10.07	225	12.19	222	-3.6	82	-6.2	261	671	971.1	NA	0.0000		9999	1840	3450	0	0
2017/11/26 16:07:00	BASE	9.71	222	12.19	222	-3.6	82	-6.2	222	592	971.1	NA	0.0000		9999	1870	2850	4040	0
2017/11/26 16:08:00	BASE	9.28	220	12.19	222	-3.7	82	-6.3	184	509	971.2	NA	0.0000		9999	2200	0	0	0
2017/11/26 16:09:00	BASE	9.06	224	12.19	222	-3.7	82	-6.3	174	484	971.2	NA	0.0000		9999	2030	0	0	0
2017/11/26 16:10:00	BASE	9.11	229	12.19	222	-3.7	82	-6.3	173	482	971.2	NA	0.0000		9999	1870	2560	0	0
2017/11/26 16:11:00	BASE	8.98	227	12.19	222	-3.7	82	-6.3	173	482	971.2	NA	0.0000		9999	2430	0	0	0
2017/11/26 16:12:00	BASE	8.57	221	12.19	222	-3.7	82	-6.4	178	492	971.2	NA	0.0000		9999	1870	2460	0	0
2017/11/26 16:13:00	BASE	8.02	221	12.19	222	-3.7	82	-6.4	194	527	971.2	NA	0.0000		9999	1970	2530	0	0
2017/11/26 16:14:00	BASE	7.99	227	11.32	227	-3.7	82	-6.3	203	550	971.2	NA	0.0000		9999	2530	0	0	0
2017/11/26 16:15:00	BASE	9.39	232	11.88	236	-3.7	82	-6.2	195	534	971.2	NA	0.0000		9999	2430	0	0	0
2017/11/26 16:16:00	BASE	9.83	235	11.88	236	-3.7	83	-6.2	191	521	971.2	NA	0.0000		9999	1800	2720	0	0
2017/11/26 16:17:00	BASE	10.29	238	12.35	234	-3.7	83	-6.2	208	557	971.2	NA	0.0000		9999	1800	0	0	0
2017/11/26 16:18:00	BASE	11.35	238	12.35	234	-3.7	83	-6.2	236	617	971.2	NA	0.0000		9999	1900	0	0	0
2017/11/26 16:19:00	BASE	11.44	234	13.02	229	-3.7	83	-6.3	268	685	971.2	NA	0.0000		9999	1900	0	0	0
2017/11/26 16:20:00	BASE	11.17	230	13.02	229	-3.8	82	-6.3	286	728	971.3	NA	0.0000		9999	1970	3020	0	0
2017/11/26 16:21:00	BASE	9.93	226	13.02	229	-3.8	82	-6.4	281	722	971.3	NA	0.0000		9999	2000	3450	19230	0
2017/11/26 16:22:00	BASE	9.41	229	13.02	229	-3.8	82	-6.4	275	709	971.4	NA	0.0000		9999	1970	3220	0	0
2017/11/26 16:23:00	BASE	10.37	232	13.02	229	-3.8	82	-6.4	283	724	971.3	NA	0.0000		9999	2000	0	0	0
2017/11/26 16:24:00	BASE	11.03	231	13.02	229	-3.8	82	-6.4	302	761	971.4	NA	0.0000		9999	1940	2430	0	0
2017/11/26 16:25:00	BASE	10.88	231	13.02	229	-3.8	82	-6.4	313	785	971.4	NA	0.0000		9999	2070	3540	0	0
2017/11/26 16:26:00	BASE	10.10	233	13.02	229	-3.8	82	-6.5	325	808	971.4	NA	0.0000		9999	2070	3640	0	0
2017/11/26 16:27:00	BASE	9.11	233	13.02	229	-3.8	81	-6.5	335	830	971.4	NA	0.0000		9999	2300	3610	0	0
2017/11/26 16:28:00	BASE	9.86	232	13.02	229	-3.8	81	-6.6	337	834	971.4	NA	0.0000		9999	2130	0	0	0
2017/11/26 16:29:00	BASE	10.07	230	12.24	230	-3.8	80	-6.6	328	819	971.4	NA	0.0000		9999	2360	0	0	0
2017/11/26 16:30:01	BASE	9.45	228	12.24	230	-3.8	80	-6.7	315	793	971.4	NA	0.0000		9999	2100	2690	0	0
2017/11/26 16:31:00	BASE	9.83	227	12.24	230	-3.7	80	-6.7	286	736	971.4	NA	0.0000		9999	2460	0	0	0
2017/11/26 16:32:00	BASE	10.19	227	12.24	230	-3.8	80	-6.7	271	703	971.5	NA	0.0000		9999	2200	0	0	0
2017/11/26 16:33:00	BASE	9.92	227	12.24	230	-3.8	80	-6.8	271	700	971.5	NA	0.0000		9999	2170	0	0	0
2017/11/26 16:34:00	BASE	9.65	228	12.24	230	-3.8	79	-6.8	281	717	971.5	NA	0.0000		9999	2070	0	0	0
2017/11/26 16:35:01	BASE	10.40	230	12.24	230	-3.8	79	-6.9	302	762	971.5	NA	0.0000		9999	2430	0	0	0
2017/11/26 16:36:00	BASE	10.58	232	12.24	230	-3.8	79	-6.9	320	799	971.5	NA	0.0000		9999	2360	0	0	0
2017/11/26 16:37:00	BASE	11.02	234	13.48	234	-3.8	79	-6.9	313	787	971.4	NA	0.0000		9999	2400	3250	0	0
2017/11/26 16:38:00	BASE	11.28	235	13.48	234	-3.8	79	-6.9	290	740	971.5	NA	0.0000		9999	2070	2850	0	0
2017/11/26 16:39:00	BASE	11.33	234	13.48	234	-3.8	79	-6.9	272	702	971.5	NA	0.0000		9999	2100	2720	0	0
2017/11/26 16:40:00	BASE	10.43	231	13.48	234	-3.8	79	-6.9	275	708	971.5	NA	0.0000		9999	2030	0	0	0
2017/11/26 16:41:00	BASE	9.35	229	13.48	234	-3.8	79	-6.9	281	717	971.5	NA	0.0000		9999	2130	3150	0	0
2017/11/26 16:42:00	BASE	10.23	227	13.48	234	-3.8	79	-6.9	280	716	971.5	NA	0.0000		9999	2560	0	0	0
2017/11/26 16:43:00	BASE	10.07	227	13.48	234	-3.8	79	-6.9	270	698	971.6	NA	0.0000		9999	2070	2790	0	0
2017/11/26 16:44:00	BASE	9.82	231	13.48	234	-3.8	79	-6.9	268	694	971.6	NA	0.0000		9999	2260	0	0	0
2017/11/26 16:45:00	BASE	10.23	232	13.48	234	-3.7	79	-6.9	283	724	971.6	NA	0.0000		9999	2100	0	0	0
2017/11/26 16:46:00	BASE	9.92	225	13.48	234	-3.8	79	-6.9	301	758	971.6	NA	0.0000		9999	2170	2660	0	0
2017/11/26 16:47:00	BASE	9.96	221	13.02	230	-3.8	79	-6.9	314	782	971.6	NA	0.0000		9999	2070	0	0	0
2017/11/26 16:48:00	BASE	10.52	226	13.02	230	-3.8	79	-6.9	324	800	971.6	NA	0.0000		9999	2850	21390	0	0
2017/11/26 16:49:00	BASE	11.53	229	13.74	234	-3.8	79	-6.9	339	827	971.6	NA	0.0000		9999	2760	0	0	0
2017/11/26 16:50:00	BASE	11.96	225	13.74	234	-3.8	79	-7.0	348	846	971.6	NA	0.0000		9999	3180	0	0	0
2017/11/26 16:51:00	BASE	11.00	222	13.74	234	-3.8	78	-7.0	327	806	971.6	NA	0.0000		9999	3450	3870	0	0
2017/11/26 16:52:00	BASE	10.65	227	13.74	234	-3.8	78	-7.0	290	737	971.6	NA	0.0000		9999	2620	3710	0	0
2017/11/26 16:53:00	BASE	11.24	233	13.74	234	-3.8	78	-7.1	264	688	971.7	NA	0.0000		9999	2070	2720	0	0
2017/11/26 16:54:00	BASE	11.10	231	13.74	234	-3.8	78	-7.1	256	671	971.7	NA	0.0000		9999	2170	2690	0	0
2017/11/26 16:55:00	BASE	9.66	228	13.74	234	-3.8	78	-7.1	253	665	971.7	NA	0.0000		9999	2300	2890	0	0
2017/11/26 16:56:00	BASE	9.54	227	13.74	234	-3.8	78	-7.0	246	648	971.7	NA	0.0000		9999	2260	0	0	0
2017/11/26 16:57:00	BASE	10.53	225	13.74	234	-3.8	78	-7.0	247	648	971.7	NA	0.0000		9999	2170	0	0	0
2017/11/26 16:58:00	BASE	10.66	226	13.74	234	-3.8	78	-7.0	251	657	971.7	NA	0.0000		9999	2170	2760	0	0
2017/11/26 16:59:00	BASE	10.90	233	12.96	231	-3.8	78	-7.0	261	678	971.7	NA	0.0000		9999	2130	2760	0	0
2017/11/26 17:00:00	BASE	11.18	228	13.27	219	-3.8	78	-7.0	268	693	971.7	NA	0.0000		9999	2400	2890	0	0
2017/11/26 17:01:00	BASE	11.46	222	13.27	219	-3.8	78	-7.1	277	713	971.8	NA	0.0000		9999	2400	3150	0	0
2017/11/26 17:02:00	BASE	11.27	225	13.27	219	-3.9	78	-7.2	278	718	971.8	NA	0.0000		9999	2660	3080	19190	0
2017/11/26 17:03:01	BASE	10.34	226	13.27	219	-3.9	78	-7.2	290	740	971.8	NA	0.0000		9999	2590	0	0	0
2017/11/26 17:04:00	BASE	9.94	228	13.27	219	-3.9	77	-7.2	306	773	971.8	NA	0.0000		9999	2890	0	0	0
2017/11/26 17:05:00	BASE	10.90	229	13.27	219	-3.9	77	-7.3	331	824	971.8	NA	0.0000		9999	2760	0	0	0
2017/11/26 17:06:00	BASE	11.13	228	13.27	219	-3.9	77	-7.3	359	881	971.8	NA	0.0000		9999	2990	0	0	0
2017/11/26 17:07:01	BASE	10.30	232	13.27	219	-3.8	77	-7.3	379	923	971.8	NA	0.0000		9999	3220	0	0	0
2017/11/26 17:08:00	BASE	10.72	235	13.27	219	-3.8	77	-7.3	404	971	971.8	NA	0.0000		9999	3450	0	0	0
2017/11/26 17:09:00	BASE	11.76	234	13.27	219	-3.8	77	-7.3	450	1060	971.8	NA	0.0000		9999	3510	0	0	0
2017/11/26 17:10:00	BASE	11.40	233	13.12	232	-3.8	77	-7.2	511	1182	971.9	NA	0.0000		9999	3900	0	0	0
2017/11/26 17:11:00	BASE	10.91	232	13.12	232	-3.7	77	-7.2	764	1515	971.9	NA	0.0000		9999	2130	3870	0	0
2017/11/26 17:12:00	BASE	10.80	231	13.12	232	-3.7	77	-7.2	684	1515	971.9	NA	0.0000		9999	2170	4000	0	0
2017/11/26 17:13:00	BASE	10.74	226	13.12	232	-3.7	77	-7.1	957	1515	972.0	NA	0.0000		9999	3970	0	0	0
2017/11/26 17:14:00	BASE	10.96	224	13.12	232	-3.7	77	-7.1	496	1144	972.0	NA	0.0000		9999	4040	21720	0	0
2017/11/26 17:15:00	BASE	10.15	225	13.12	232	-3.6	77	-7.1	485	1127	972.0	NA	0.0000		9999	4360	0	0	0
2017/11/26 17:16:00	BASE	9.52	228	13.12	232	-3.6	77	-7.1	446	1046	972.1	NA	0.0000		9999	2030	0	0	0
2017/11/26 17:17:00	BASE	10.27	231	13.12	232	-3.6	77	-7.0	426	1005	972.0	NA	0.0000		9999	1970	4400	0	0
2017/11/26 17:18:00	BASE	10.79	229	13.12	232	-3.6	78	-7.0	396	942	972.0	NA	0.0000		9999	2000	4230	19330	0
2017/11/26 17:19:01	BASE	11.07	226	12.86	221	-3.6	78	-7.0	374	896	972.0	NA	0.0000		9999	2070	4130	0	0
2017/11/26 17:20:00	BASE	10.81	224	12.86	221	-3.6	78	-6.9	360	867	972.1	NA	0.0000		9999	2230	3280	0	0
2017/11/26 17:21:00	BASE	10.12	223	12.86	221	-3.7	78	-6.9	346	840	972.1	NA	0.0000		9999	3710	0	0	0
2017/11/26 17:22:01	BASE	9.81	222	12.86	221	-3.7	78	-7.0	333	815	972.1	NA	0.0000		9999	2300	3840	0	0
2017/11/26 17:23:00	BASE	9.71	223	12.86	221	-3.7	78	-7.0	317	783	972.2	NA	0.0000		9999	3710	0	0	0
2017/11/26 17:24:01	BASE	9.61	227	12.86	221	-3.7	78	-7.0	299	744	972.2	NA	0.0000		9999	3710	0	0	0
2017/11/26 17:25:01	BASE	9.17	229	12.86	221	-3.7	78	-6.9	283	710	972.2	NA	0.0000		9999	2590	3480	24480	0
2017/11/26 17:26:01	BASE	9.82	230	12.86	221	-3.7	79	-6.9	266	677	972.2	NA	0.0000		9999	3410	0	0	0
2017/11/26 17:27:01	BASE	11.12	231	12.86	221	-3.7	79	-6.9	248	640	972.2	NA	0.0000		9999	2950	0	0	0
2017/11/26 17:28:01	BASE	11.53	229	12.86	221	-3.7	79	-6.8	236	616	972.2	NA	0.0000		9999	3050	0	0	0
2017/11/26 17:29:01	BASE	11.36	229	12.60	232	-3.8	79	-6.9	218	582	972.2	NA	0.0000		9999	3150	0	0	0
2017/11/26 17:30:01	BASE	10.43	231	12.60	232	-3.9	79	-7.0	205	552	972.2	NA	0.0000		9999	2070	3250	0	0
2017/11/26 17:31:01	BASE	9.31	231	12.60	232	-3.9	78	-7.1	195	531	972.3	NA	0.0000		9999	2300	0	0	0
2017/11/26 17:32:00	BASE	8.85	226	12.60	232	-3.9	78	-7.2	187	512	972.3	NA	0.0000		9999	2330	0	0	0
2017/11/26 17:33:00	BASE	8.85	227	12.60	232	-4.0	78	-7.2	187	509	972.3	NA	0.0000		9999	2100	0	0	0
2017/11/26 17:34:00	BASE	9.17	232	12.60	232	-3.9	78	-7.2	180	496	972.3	NA	0.0000		9999	2300	0	0	0
2017/11/26 17:35:01	BASE	9.04	228	12.60	232	-3.9	78	-7.1	169	470	972.3	NA	0.0000		9999	2030	0	0	0
2017/11/26 17:36:01	BASE	8.86	227	12.35	231	-3.9	79	-7.0	156	441	972.3	NA	0.0000		9999	2230	0	0	0
2017/11/26 17:37:01	BASE	9.04	229	12.35	231	-3.8	79	-6.9	153	432	972.3	NA	0.0000		9999	2170	0	0	0
2017/11/26 17:38:01	BASE	9.34	228	12.19	229	-3.9	79	-6.9	150	427	972.4	NA	0.0000		9999	2230	0	0	0
2017/11/26 17:39:01	BASE	9.31	229	11.21	227	-3.9	79	-6.9	144	413	972.4	NA	0.0000		9999	2330	0	0	0
2017/11/26 17:40:01	BASE	8.92	231	10.44	233	-3.9	79	-7.0	143	407	972.4	NA	0.0000		9999	2100	0	0	0
2017/11/26 17:41:01	BASE	9.19	226	11.32	217	-3.9	79	-7.0	150	420	972.4	NA	0.0000		9999	2030	0	0	0
2017/11/26 17:42:01	BASE	9.80	225	11.32	217	-4.0	79	-7.1	146	414	972.4	NA	0.0000		9999	2530	0	0	0
2017/11/26 17:43:01	BASE	9.13	227	11.32	217	-4.0	79	-7.1	141	405	972.4	NA	0.0000		9999	2300	0	0	0
2017/11/26 17:44:01	BASE	7.88	226	11.32	217	-4.0	79	-7.1	138	397	972.5	NA	0.0000		9999	1970	0	0	0
2017/11/26 17:45:01	BASE	7.42	225	11.32	217	-4.0	79	-7.1	136	389	972.6	NA	0.0000		9999	1940	0	0	0
2017/11/26 17:46:01	BASE	8.06	221	11.32	217	-3.9	80	-7.0	141	399	972.5	NA	0.0000		9999	1800	0	0	0
2017/11/26 17:47:01	BASE	9.07	215	11.32	217	-3.9	80	-6.9	149	417	972.4	NA	0.0000		9999	2100	2660	0	0
2017/11/26 17:48:01	BASE	9.33	212	11.32	217	-3.9	80	-6.8	155	430	972.5	NA	0.0000		9999	2820	0	0	0
2017/11/26 17:49:01	BASE	9.37	213	11.32	217	-3.9	81	-6.7	151	423	972.5	NA	0.0000		9999	3020	0	0	0
2017/11/26 17:50:01	BASE	8.78	212	11.32	217	-3.9	81	-6.7	150	420	972.5	NA	0.0000		9999	2100	3020	0	0
2017/11/26 17:51:01	BASE	8.91	211	11.01	203	-4.0	81	-6.8	147	412	972.5	NA	0.0000		9999	1870	3020	0	0
2017/11/26 17:52:01	BASE	9.14	214	11.01	203	-4.0	81	-6.8	142	401	972.6	NA	0.0000		9999	2760	0	0	0
2017/11/26 17:53:01	BASE	8.48	215	11.01	203	-4.1	81	-6.8	135	387	972.6	NA	0.0000		9999	2000	3020	0	0
2017/11/26 17:54:01	BASE	7.96	210	11.01	203	-4.0	81	-6.8	128	372	972.6	NA	0.0000		9999	2130	19650	0	0
2017/11/26 17:55:01	BASE	8.23	205	11.01	203	-4.0	81	-6.8	125	363	972.6	NA	0.0000		9999	2490	0	0	0
2017/11/26 17:56:01	BASE	8.51	204	11.01	203	-4.1	81	-6.8	121	355	972.5	NA	0.0000		9999	2400	0	0	0
2017/11/26 17:57:01	BASE	8.69	206	11.01	203	-4.1	81	-6.8	115	344	972.5	NA	0.0000		9999	2260	0	0	0
2017/11/26 17:58:01	BASE	9.24	206	11.01	203	-4.1	81	-6.8	113	338	972.5	NA	0.0000		9999	2200	0	0	0
2017/11/26 17:59:01	BASE	9.18	203	11.01	203	-4.2	81	-6.9	113	337	972.5	NA	0.0000	-SN	9999	2070	0	0	0
2017/11/26 18:00:01	BASE	8.71	210	11.01	203	-4.2	81	-7.0	111	332	972.6	NA	0.0000	-SN	9999	2000	0	0	0
2017/11/26 18:01:01	BASE	8.04	209	10.34	200	-4.2	81	-7.0	112	332	972.6	NA	0.0000	-SN	9999	1940	0	0	0
2017/11/26 18:02:01	BASE	8.11	201	10.34	200	-4.2	81	-7.0	113	334	972.6	NA	0.0000	-SN	9999	2030	0	0	0
2017/11/26 18:03:01	BASE	7.90	200	10.34	200	-4.2	81	-6.9	121	351	972.6	NA	0.0000	-SN	9999	1970	22840	0	0
2017/11/26 18:04:01	BASE	8.00	201	10.34	200	-4.1	81	-6.9	128	368	972.6	NA	0.0000	-SN	9999	2100	2620	0	0
2017/11/26 18:05:01	BASE	8.56	202	10.03	209	-4.1	82	-6.8	125	362	972.6	NA	0.0000	-SN	9999	2100	2760	0	0
2017/11/26 18:06:01	BASE	8.43	208	10.03	209	-4.1	82	-6.8	127	364	972.7	NA	0.0000	-SN	9999	2000	0	0	0
2017/11/26 18:07:01	BASE	7.66	216	10.03	209	-4.1	82	-6.7	128	365	972.7	NA	0.0000	-SN	9999	1940	2790	0	0
2017/11/26 18:08:01	BASE	7.47	219	9.88	202	-4.1	82	-6.7	135	380	972.8	NA	0.0000	-SN	9999	2330	0	0	0
2017/11/26 18:09:01	BASE	8.15	220	9.88	202	-4.1	82	-6.7	134	380	972.7	NA	0.0000	-SN	9999	3020	22110	0	0
2017/11/26 18:10:01	BASE	8.31	227	9.88	202	-4.1	82	-6.7	136	384	972.7	NA	0.0000	-SN	9999	2170	2720	0	0
2017/11/26 18:11:01	BASE	8.15	232	9.88	202	-4.0	82	-6.7	135	385	972.7	NA	0.0000	-SN	9999	2330	3050	0	0
2017/11/26 18:12:01	BASE	7.49	230	9.88	202	-4.0	82	-6.7	131	379	972.8	NA	0.0000	-SN	9999	2430	0	0	0
2017/11/26 18:13:01	BASE	7.37	231	9.88	202	-4.0	81	-6.7	126	367	972.8	NA	0.0000	-SN	9999	2130	0	0	0
2017/11/26 18:14:01	BASE	8.55	234	10.19	229	-3.9	81	-6.7	124	361	972.7	NA	0.0000	-SN	9999	1900	0	0	0
2017/11/26 18:15:01	BASE	9.00	226	10.39	221	-3.9	81	-6.7	130	372	972.8	NA	0.0000	-SN	9999	1870	0	0	0
2017/11/26 18:16:01	BASE	8.46	219	10.39	221	-3.9	81	-6.6	134	382	972.9	NA	0.0000		9999	1970	3080	0	0
2017/11/26 18:17:01	BASE	8.43	225	10.39	221	-3.9	81	-6.7	136	387	972.8	NA	0.0000		9999	2430	3050	0	0
2017/11/26 18:18:01	BASE	8.91	228	10.39	224	-3.9	81	-6.7	139	393	972.9	NA	0.0000		9999	2170	0	0	0
2017/11/26 18:19:01	BASE	9.36	223	10.39	220	-3.9	81	-6.7	139	392	972.9	NA	0.0000		9999	2590	0	0	0
2017/11/26 18:20:01	BASE	9.25	222	10.39	220	-3.9	81	-6.7	139	391	972.9	NA	0.0000		9999	2330	17950	0	0
2017/11/26 18:21:01	BASE	8.80	226	10.44	236	-3.9	80	-6.8	147	408	972.9	NA	0.0000		9999	2260	2920	0	0
2017/11/26 18:22:01	BASE	9.38	230	10.91	233	-3.9	80	-6.8	157	432	972.9	NA	0.0000		9999	2760	0	0	0
2017/11/26 18:23:01	BASE	9.66	234	10.91	233	-3.9	80	-6.9	174	474	973.0	NA	0.0000		9999	2430	3080	0	0
2017/11/26 18:24:01	BASE	9.08	233	10.91	233	-3.9	80	-6.9	193	520	973.0	NA	0.0000		9999	3180	0	0	0
2017/11/26 18:25:01	BASE	9.22	234	11.01	239	-3.9	79	-6.9	210	563	973.0	NA	0.0000		9999	2200	2720	0	0
2017/11/26 18:26:01	BASE	9.38	236	11.01	239	-3.8	79	-7.0	237	623	973.0	NA	0.0000		9999	2360	0	0	0
2017/11/26 18:27:01	BASE	9.77	233	11.06	231	-3.8	78	-7.0	252	659	973.0	NA	0.0000		9999	3050	0	0	0
2017/11/26 18:28:01	BASE	10.12	233	11.47	237	-3.8	78	-7.1	257	672	973.0	NA	0.0000		9999	2430	2990	0	0
2017/11/26 18:29:01	BASE	9.66	230	11.47	237	-3.8	78	-7.1	264	681	973.1	NA	0.0000		9999	2260	0	0	0
2017/11/26 18:30:01	BASE	9.26	229	11.47	237	-3.8	78	-7.1	270	690	973.1	NA	0.0000		9999	2400	3050	0	0
2017/11/26 18:31:01	BASE	8.90	230	11.47	237	-3.8	78	-7.1	265	679	973.1	NA	0.0000		9999	2200	3080	0	0
2017/11/26 18:32:01	BASE	8.50	232	11.47	237	-3.7	78	-7.0	254	654	973.2	NA	0.0000		9999	2200	20010	0	0
2017/11/26 18:33:01	BASE	9.00	234	12.09	236	-3.7	78	-7.0	245	635	973.1	NA	0.0000		9999	2230	3310	0	0
2017/11/26 18:34:01	BASE	10.30	232	12.09	236	-3.7	78	-7.0	224	590	973.1	NA	0.0000		9999	3120	0	0	0
2017/11/26 18:35:01	BASE	10.34	228	12.09	236	-3.7	78	-7.0	207	550	973.3	NA	0.0000		9999	2300	3220	0	0
2017/11/26 18:36:01	BASE	9.43	228	12.09	236	-3.7	78	-7.0	195	523	973.3	NA	0.0000		9999	2590	22700	0	0
2017/11/26 18:37:01	BASE	10.24	231	12.96	238	-3.7	78	-7.0	181	493	973.2	NA	0.0000		9999	3050	0	0	0
2017/11/26 18:38:01	BASE	10.58	231	12.96	238	-3.8	78	-7.0	168	464	973.3	NA	0.0000		9999	2890	0	0	0
2017/11/26 18:39:01	BASE	9.70	227	12.96	238	-3.8	78	-7.0	158	442	973.3	NA	0.0000		9999	2430	0	0	0
2017/11/26 18:40:01	BASE	9.99	225	12.96	238	-3.8	78	-7.0	150	426	973.4	NA	0.0000		9999	2100	2590	0	0
2017/11/26 18:41:01	BASE	10.70	227	12.96	238	-3.8	78	-7.0	151	427	973.4	NA	0.0000		9999	2170	0	0	0
2017/11/26 18:42:01	BASE	10.79	229	12.96	238	-3.9	78	-7.1	151	426	973.4	NA	0.0000		9999	2300	0	0	0
2017/11/26 18:43:01	BASE	10.79	233	12.96	238	-3.9	78	-7.1	154	432	973.4	NA	0.0000		9999	2030	0	0	0
2017/11/26 18:44:01	BASE	11.34	234	12.96	238	-3.9	79	-7.1	156	436	973.4	NA	0.0000		9999	2030	0	0	0
2017/11/26 18:45:01	BASE	11.21	230	12.96	238	-3.9	79	-7.1	160	443	973.5	NA	0.0000		9999	2030	0	0	0
2017/11/26 18:46:01	BASE	11.22	227	13.38	233	-4.0	79	-7.1	162	449	973.5	NA	0.0000		9999	2360	0	0	0
2017/11/26 18:47:01	BASE	11.51	229	13.38	233	-4.0	79	-7.2	168	463	973.5	NA	0.0000		9999	2260	0	0	0
2017/11/26 18:48:01	BASE	10.12	232	13.38	233	-4.0	79	-7.2	173	473	973.5	NA	0.0000		9999	2200	0	0	0
2017/11/26 18:49:01	BASE	9.41	229	13.38	233	-4.0	79	-7.2	176	480	973.5	NA	0.0000		9999	2170	0	0	0
2017/11/26 18:50:01	BASE	9.59	228	13.38	233	-4.0	78	-7.2	170	469	973.6	NA	0.0000		9999	2360	0	0	0
2017/11/26 18:51:01	BASE	10.18	230	13.38	233	-4.0	78	-7.2	170	468	973.5	NA	0.0000		9999	2130	0	0	0
2017/11/26 18:52:01	BASE	10.60	229	13.38	233	-4.0	79	-7.2	178	487	973.6	NA	0.0000		9999	2170	0	0	0
2017/11/26 18:53:01	BASE	9.85	226	13.38	233	-4.0	79	-7.1	189	512	973.6	NA	0.0000		9999	2330	0	0	0
2017/11/26 18:54:01	BASE	9.71	225	13.38	233	-4.0	79	-7.1	199	535	973.6	NA	0.0000		9999	2400	0	0	0
2017/11/26 18:55:01	BASE	10.13	224	13.38	233	-4.0	79	-7.1	209	558	973.6	NA	0.0000		9999	2230	2690	0	0
2017/11/26 18:56:01	BASE	10.63	221	12.35	228	-4.0	79	-7.2	219	579	973.6	NA	0.0000		9999	2620	0	0	0
2017/11/26 18:57:01	BASE	10.29	222	12.04	215	-4.0	78	-7.2	227	594	973.6	NA	0.0000		9999	2720	0	0	0
2017/11/26 18:58:01	BASE	9.94	225	12.04	215	-4.0	78	-7.2	244	629	973.7	NA	0.0000		9999	2260	0	0	0
2017/11/26 18:59:01	BASE	10.17	223	12.04	215	-4.0	78	-7.3	262	666	973.7	NA	0.0000		9999	2760	0	0	0
2017/11/26 19:00:01	BASE	10.49	219	12.91	212	-4.0	78	-7.3	274	694	973.6	NA	0.0000		9999	2950	0	0	0
2017/11/26 19:01:01	BASE	10.39	221	12.91	212	-4.0	77	-7.4	281	708	973.7	NA	0.0000		9999	2890	0	0	0
2017/11/26 19:02:01	BASE	9.82	227	12.91	212	-4.0	77	-7.4	281	707	973.7	NA	0.0000		9999	3120	0	0	0
2017/11/26 19:03:01	BASE	9.78	226	12.91	212	-3.9	76	-7.5	277	696	973.7	NA	0.0000		9999	3350	0	0	0
2017/11/26 19:04:01	BASE	10.85	224	13.68	220	-3.9	76	-7.5	271	683	973.7	NA	0.0000		9999	3120	0	0	0
2017/11/26 19:05:01	BASE	11.22	223	13.68	220	-3.9	76	-7.5	263	664	973.7	NA	0.0000		9999	3220	0	0	0
2017/11/26 19:06:01	BASE	10.36	221	13.68	220	-3.9	76	-7.5	255	649	973.7	NA	0.0000		9999	3380	0	0	0
2017/11/26 19:07:01	BASE	9.62	221	13.68	220	-3.9	75	-7.6	249	635	973.7	NA	0.0000		9999	3250	0	0	0
2017/11/26 19:08:01	BASE	8.77	218	13.68	220	-3.9	75	-7.6	249	635	973.8	NA	0.0000		9999	3120	0	0	0
2017/11/26 19:09:01	BASE	9.23	218	13.68	220	-3.9	75	-7.7	252	638	973.8	NA	0.0000		9999	3280	0	0	0
2017/11/26 19:10:01	BASE	9.57	219	13.68	220	-3.9	75	-7.7	250	633	973.7	NA	0.0000		9999	3220	0	0	0
2017/11/26 19:11:01	BASE	9.15	221	13.68	220	-3.9	75	-7.7	246	624	973.7	NA	0.0000		9999	3120	0	0	0
2017/11/26 19:12:01	BASE	9.23	220	13.68	220	-3.9	75	-7.7	240	611	973.8	NA	0.0000		9999	3310	0	0	0
2017/11/26 19:13:01	BASE	9.39	215	13.68	220	-4.0	75	-7.8	233	597	973.7	NA	0.0000		9999	3250	0	0	0
2017/11/26 19:14:01	BASE	9.51	212	11.99	214	-4.0	74	-7.9	229	589	973.8	NA	0.0000		9999	3250	0	0	0
2017/11/26 19:15:01	BASE	8.27	210	11.99	214	-4.0	74	-7.9	222	576	973.9	NA	0.0000		9999	3280	0	0	0
2017/11/26 19:16:01	BASE	7.45	210	11.99	214	-4.0	74	-7.9	218	566	973.9	NA	0.0000		9999	3220	0	0	0
2017/11/26 19:17:01	BASE	8.31	210	11.99	214	-4.0	74	-7.9	217	564	973.8	NA	0.0000		9999	3120	0	0	0
2017/11/26 19:18:01	BASE	9.11	208	11.99	214	-4.0	75	-7.8	218	566	973.8	NA	0.0000		9999	3020	0	0	0
2017/11/26 19:19:01	BASE	8.82	208	11.11	210	-4.0	75	-7.8	215	561	973.9	NA	0.0000		9999	3120	0	0	0
2017/11/26 19:20:01	BASE	7.86	212	11.11	210	-4.0	75	-7.8	213	555	973.9	NA	0.0000		9999	2760	0	0	0
2017/11/26 19:21:01	BASE	6.92	217	11.11	210	-4.0	75	-7.7	213	552	973.9	NA	0.0000		9999	3050	0	0	0
2017/11/26 19:22:01	BASE	6.96	218	11.11	210	-4.0	75	-7.7	207	542	973.9	NA	0.0000		9999	3080	0	0	0
2017/11/26 19:23:01	BASE	7.91	214	10.39	216	-4.0	76	-7.6	202	533	973.9	NA	0.0000		9999	2620	3150	23130	0
2017/11/26 19:24:01	BASE	8.44	210	10.03	216	-3.9	76	-7.6	199	524	973.9	NA	0.0000		9999	2760	0	0	0
2017/11/26 19:25:01	BASE	8.28	214	10.03	216	-3.9	76	-7.5	198	521	973.9	NA	0.0000		9999	2690	0	0	0
2017/11/26 19:26:01	BASE	7.99	216	10.03	216	-3.9	76	-7.5	198	522	973.9	NA	0.0000		9999	2460	0	0	0
2017/11/26 19:27:01	BASE	8.52	212	9.88	212	-3.9	76	-7.5	202	530	973.9	NA	0.0000		9999	2400	0	0	0
2017/11/26 19:28:01	BASE	8.28	214	9.67	211	-4.0	76	-7.5	206	539	974.0	NA	0.0000		9999	2400	3050	0	0
2017/11/26 19:29:01	BASE	6.94	217	9.67	211	-4.0	77	-7.5	203	533	974.0	NA	0.0000		9999	2330	0	0	0
2017/11/26 19:30:01	BASE	6.61	217	9.67	211	-3.9	77	-7.4	194	515	974.0	NA	0.0000		9999	2330	0	0	0
2017/11/26 19:31:01	BASE	6.57	220	9.67	211	-3.9	77	-7.3	192	510	974.1	NA	0.0000		9999	2230	0	0	0
2017/11/26 19:32:01	BASE	6.49	223	9.67	211	-3.8	78	-7.2	195	518	974.1	NA	0.0000		9999	2360	0	0	0
2017/11/26 19:33:01	BASE	7.57	227	10.44	222	-3.8	78	-7.1	199	526	974.0	NA	0.0000		9999	2230	0	0	0
2017/11/26 19:34:01	BASE	8.70	227	10.44	222	-3.8	78	-7.1	200	527	974.0	NA	0.0000		9999	2330	0	0	0
2017/11/26 19:35:01	BASE	8.37	223	10.44	222	-3.8	78	-7.2	204	535	974.1	NA	0.0000		9999	2330	0	0	0
2017/11/26 19:36:01	BASE	7.35	226	10.44	222	-3.8	78	-7.2	203	532	974.1	NA	0.0000		9999	2260	0	0	0
2017/11/26 19:37:01	BASE	7.72	233	10.44	222	-3.9	78	-7.2	201	527	974.1	NA	0.0000		9999	2130	0	0	0
2017/11/26 19:38:01	BASE	8.58	235	10.44	222	-3.9	78	-7.2	205	537	974.1	NA	0.0000		9999	2230	0	0	0
2017/11/26 19:39:01	BASE	8.42	236	10.44	222	-3.9	78	-7.1	208	545	974.1	NA	0.0000		9999	2330	0	0	0
2017/11/26 19:40:01	BASE	7.80	238	10.44	222	-3.8	78	-7.1	223	580	974.1	NA	0.0000		9999	2170	0	0	0
2017/11/26 19:41:01	BASE	7.60	239	10.44	222	-3.8	79	-7.0	275	686	974.1	NA	0.0000		9999	1970	0	0	0
2017/11/26 19:42:01	BASE	7.73	235	10.44	222	-3.8	79	-6.9	285	701	974.2	NA	0.0000		9999	2230	0	0	0
2017/11/26 19:43:01	BASE	8.13	234	10.39	239	-3.8	79	-6.9	271	671	974.2	NA	0.0000		9999	2030	3670	0	0
2017/11/26 19:44:01	BASE	8.55	235	10.39	239	-3.8	79	-6.8	264	656	974.2	NA	0.0000		9999	2460	3150	21560	0
2017/11/26 19:45:01	BASE	8.41	230	10.39	239	-3.8	80	-6.8	250	628	974.2	NA	0.0000		9999	3380	0	0	0
2017/11/26 19:46:01	BASE	7.92	227	10.39	239	-3.8	80	-6.8	235	598	974.2	NA	0.0000		9999	3250	0	0	0
2017/11/26 19:47:01	BASE	7.71	230	10.39	239	-3.8	79	-6.9	217	562	974.2	NA	0.0000		9999	3280	0	0	0
2017/11/26 19:48:01	BASE	7.70	232	10.39	239	-3.8	79	-6.9	191	508	974.2	NA	0.0000		9999	2260	0	0	0
2017/11/26 19:49:01	BASE	7.30	235	10.39	239	-3.8	79	-6.9	169	460	974.2	NA	0.0000		9999	2030	2660	0	0
2017/11/26 19:50:01	BASE	7.35	233	10.39	239	-3.8	79	-6.9	155	426	974.2	NA	0.0000		9999	2200	0	0	0
2017/11/26 19:51:01	BASE	7.57	226	10.39	239	-3.8	79	-6.9	154	419	974.3	NA	0.0000		9999	1870	0	0	0
2017/11/26 19:52:01	BASE	7.36	228	10.39	239	-3.8	79	-6.9	144	399	974.3	NA	0.0000		9999	1970	0	0	0
2017/11/26 19:53:01	BASE	7.49	230	9.62	227	-3.8	80	-6.8	138	385	974.3	NA	0.0000		9999	2130	0	0	0
2017/11/26 19:54:01	BASE	7.61	227	9.62	227	-3.8	80	-6.8	134	376	974.3	NA	0.0000		9999	1870	0	0	0
2017/11/26 19:55:01	BASE	7.67	229	9.83	244	-3.8	80	-6.8	152	414	974.3	NA	0.0000		9999	1870	0	0	0
2017/11/26 19:56:01	BASE	8.30	236	9.83	244	-3.8	80	-6.8	158	427	974.3	NA	0.0000		9999	1870	0	0	0
2017/11/26 19:57:01	BASE	9.03	237	10.19	235	-3.8	80	-6.8	150	414	974.3	NA	0.0000		9999	2200	0	0	0
2017/11/26 19:58:01	BASE	8.93	235	10.19	235	-3.8	80	-6.8	146	404	974.3	NA	0.0000		9999	2030	0	0	0
2017/11/26 19:59:01	BASE	8.74	232	10.19	235	-3.8	80	-6.8	150	414	974.4	NA	0.0000		9999	2070	0	0	0
2017/11/26 20:00:01	BASE	8.86	227	10.19	235	-3.8	80	-6.8	156	427	974.4	NA	0.0000		9999	1940	0	0	0
2017/11/26 20:01:01	BASE	8.22	226	10.19	235	-3.8	80	-6.8	162	442	974.5	NA	0.0000		9999	1970	0	0	0
2017/11/26 20:02:00	BASE	8.06	226	10.19	235	-3.8	80	-6.7	175	468	974.5	NA	0.0000		9999	1970	0	0	0
2017/11/26 20:03:00	BASE	8.71	227	12.04	234	-3.8	80	-6.6	174	468	974.4	NA	0.0000		9999	1870	0	0	0
2017/11/26 20:04:00	BASE	9.00	217	12.04	234	-3.7	81	-6.6	178	478	974.4	NA	0.0000		9999	1800	0	0	0
2017/11/26 20:05:00	BASE	8.54	206	12.04	234	-3.8	81	-6.6	178	475	974.5	NA	0.0000		9999	1840	0	0	0
2017/11/26 20:06:00	BASE	7.91	209	12.04	234	-3.8	81	-6.6	194	511	974.6	NA	0.0000	-SN	9999	1970	0	0	0
2017/11/26 20:07:00	BASE	7.22	206	12.04	234	-3.9	81	-6.7	228	582	974.6	NA	0.0000	-SN	9999	2260	0	0	0
2017/11/26 20:08:00	BASE	6.48	210	12.04	234	-3.9	81	-6.7	248	625	974.6	NA	0.0000	-SN	9999	2230	0	0	0
2017/11/26 20:09:00	BASE	6.69	219	12.04	234	-4.0	81	-6.7	290	714	974.6	NA	0.0000	-SN	9999	2200	0	0	0
2017/11/26 20:10:00	BASE	7.64	221	12.04	234	-3.9	81	-6.7	446	1023	974.6	NA	0.0000	-SN	9999	2360	0	0	0
2017/11/26 20:11:00	BASE	7.23	224	12.04	234	-3.9	81	-6.6	432	990	974.6	NA	0.0000	-SN	9999	2890	23230	0	0
2017/11/26 20:12:00	BASE	7.23	225	12.04	234	-3.8	81	-6.6	416	954	974.5	NA	0.0000	-SN	9999	2620	0	0	0
2017/11/26 20:13:00	BASE	8.18	221	10.39	239	-3.7	81	-6.5	392	896	974.5	NA	0.0000	-SN	9999	2230	0	0	0
2017/11/26 20:14:00	BASE	8.13	218	10.19	230	-3.7	80	-6.5	339	795	974.6	NA	0.0000	-SN	9999	3050	0	0	0
2017/11/26 20:15:00	BASE	8.17	223	10.19	230	-3.6	80	-6.6	328	783	974.6	NA	0.0000	-SN	9999	2660	0	0	0
2017/11/26 20:16:00	BASE	8.19	224	10.19	230	-3.6	79	-6.6	336	805	974.6	NA	0.0000		9999	2560	0	0	0
2017/11/26 20:17:00	BASE	7.69	226	10.19	230	-3.6	79	-6.7	331	798	974.7	NA	0.0000		9999	2330	2850	0	0
2017/11/26 20:18:00	BASE	7.83	226	10.19	230	-3.5	79	-6.7	320	774	974.6	NA	0.0000		9999	2490	0	0	0
2017/11/26 20:19:00	BASE	8.75	223	10.19	230	-3.5	79	-6.7	322	779	974.7	NA	0.0000		9999	2260	0	0	0
2017/11/26 20:20:00	BASE	9.21	223	10.29	223	-3.5	78	-6.7	416	963	974.6	NA	0.0000		9999	2230	0	0	0
2017/11/26 20:21:00	BASE	9.47	225	11.47	222	-3.5	78	-6.8	369	864	974.6	NA	0.0000		9999	2490	3310	0	0
2017/11/26 20:22:00	BASE	9.77	223	11.47	222	-3.5	78	-6.8	344	817	974.7	NA	0.0000		9999	2360	2920	0	0
2017/11/26 20:23:00	BASE	9.82	218	11.47	222	-3.5	77	-7.0	353	830	974.7	NA	0.0000		9999	2490	0	0	0
2017/11/26 20:24:00	BASE	9.37	221	11.47	222	-3.6	77	-7.0	310	742	974.8	NA	0.0000		9999	2490	3120	0	0
2017/11/26 20:25:00	BASE	8.98	230	11.47	222	-3.5	77	-7.1	287	698	974.8	NA	0.0000		9999	2430	3050	0	0
2017/11/26 20:26:00	BASE	9.07	238	11.47	222	-3.5	77	-7.0	273	666	974.8	NA	0.0000		9999	2130	3120	0	0
2017/11/26 20:27:00	BASE	8.78	238	11.47	222	-3.5	77	-7.0	279	680	974.8	NA	0.0000		9999	2360	3150	22150	0
2017/11/26 20:28:00	BASE	8.75	234	11.47	222	-3.5	77	-6.9	307	738	974.8	NA	0.0000		9999	2170	0	0	0
2017/11/26 20:29:00	BASE	8.11	232	11.47	222	-3.5	78	-6.9	379	887	974.9	NA	0.0000		9999	2530	0	0	0
2017/11/26 20:30:00	BASE	7.47	235	11.47	222	-3.5	78	-6.8	491	1117	974.9	NA	0.0000		9999	2530	0	0	0
2017/11/26 20:31:00	BASE	7.76	235	11.27	211	-3.5	78	-6.8	439	1001	974.9	NA	0.0000		9999	2460	0	0	0
2017/11/26 20:32:00	BASE	7.35	236	10.44	214	-3.5	78	-6.8	408	924	974.9	NA	0.0000		9999	2260	0	0	0
2017/11/26 20:33:00	BASE	6.65	242	10.39	205	-3.5	78	-6.7	526	1167	974.9	NA	0.0000		9999	3280	0	0	0
2017/11/26 20:34:00	BASE	7.24	243	10.13	237	-3.4	79	-6.6	691	1461	974.9	NA	0.0000		9999	2130	0	0	0
2017/11/26 20:35:00	BASE	8.34	238	10.13	237	-3.4	79	-6.5	411	927	974.9	NA	0.0000		9999	2130	0	0	0
2017/11/26 20:36:00	BASE	7.96	235	10.13	237	-3.4	79	-6.5	376	847	975.0	NA	0.0000		9999	3510	0	0	0
2017/11/26 20:37:00	BASE	7.40	233	10.13	237	-3.4	79	-6.5	546	1203	975.0	NA	0.0000		9999	2490	3310	0	0
2017/11/26 20:38:00	BASE	8.19	231	10.13	229	-3.3	79	-6.4	381	856	975.0	NA	0.0000		9999	3150	0	0	0
2017/11/26 20:39:00	BASE	8.84	229	10.13	229	-3.3	79	-6.4	323	738	974.9	NA	0.0000		9999	2130	0	0	0
2017/11/26 20:40:00	BASE	8.29	225	10.13	229	-3.3	79	-6.5	357	807	975.0	NA	0.0000		9999	3310	0	0	0
2017/11/26 20:41:00	BASE	7.25	223	10.13	229	-3.4	79	-6.5	506	1101	975.0	NA	0.0000		9999	2990	0	0	0
2017/11/26 20:42:00	BASE	6.85	227	10.13	229	-3.3	79	-6.5	545	1175	975.0	NA	0.0000		9999	2460	2990	0	0
2017/11/26 20:43:00	BASE	7.61	229	10.13	229	-3.4	78	-6.6	387	875	975.0	NA	0.0000		9999	8790	0	0	0
2017/11/26 20:44:00	BASE	7.53	228	10.13	229	-3.4	78	-6.6	358	809	975.1	NA	0.0000		9999	3050	8960	0	0
2017/11/26 20:45:00	BASE	7.61	228	10.13	229	-3.4	78	-6.6	251	585	975.1	NA	0.0000		9999	2990	0	0	0
2017/11/26 20:46:00	BASE	7.87	229	10.13	229	-3.4	78	-6.6	237	559	975.1	NA	0.0000		9999	2950	0	0	0
2017/11/26 20:47:00	BASE	7.99	233	10.13	229	-3.4	78	-6.8	259	602	975.1	NA	0.0000		9999	2690	0	0	0
2017/11/26 20:48:00	BASE	8.32	236	9.83	231	-3.4	77	-6.8	262	612	975.1	NA	0.0000		9999	2820	0	0	0
2017/11/26 20:49:00	BASE	8.58	236	10.65	236	-3.5	77	-6.9	237	560	975.1	NA	0.0000		9999	2620	0	0	0
2017/11/26 20:50:00	BASE	8.97	233	10.65	236	-3.5	77	-6.9	258	610	975.1	NA	0.0000		9999	2820	3450	0	0
2017/11/26 20:51:00	BASE	9.02	229	10.65	236	-3.5	77	-6.9	298	697	975.1	NA	0.0000		9999	2490	0	0	0
2017/11/26 20:52:00	BASE	8.95	227	10.65	236	-3.5	77	-7.0	340	772	975.1	NA	0.0000		9999	2460	0	0	0
2017/11/26 20:53:00	BASE	8.65	229	10.65	236	-3.5	77	-7.0	317	730	975.1	NA	0.0000		9999	2590	0	0	0
2017/11/26 20:54:00	BASE	7.87	227	10.65	236	-3.5	76	-7.1	308	711	975.2	NA	0.0000		9999	2790	0	0	0
2017/11/26 20:55:00	BASE	7.41	223	10.65	236	-3.5	76	-7.1	285	663	975.2	NA	0.0000		9999	2620	0	0	0
2017/11/26 20:56:00	BASE	7.27	225	10.65	236	-3.5	76	-7.1	257	605	975.2	NA	0.0000		9999	2560	0	0	0
2017/11/26 20:57:00	BASE	7.00	230	10.65	236	-3.5	76	-7.1	233	554	975.2	NA	0.0000		9999	2170	2720	0	0
2017/11/26 20:58:00	BASE	7.34	229	10.65	236	-3.5	77	-7.0	218	522	975.2	NA	0.0000		9999	2560	3120	0	0
2017/11/26 20:59:00	BASE	7.64	225	10.44	231	-3.5	77	-7.1	223	535	975.2	NA	0.0000		9999	2300	3250	0	0
2017/11/26 21:00:00	BASE	7.80	231	10.44	231	-3.5	77	-7.0	225	540	975.2	NA	0.0000		9999	2200	0	0	0
2017/11/26 21:01:00	BASE	8.58	236	10.19	236	-3.6	77	-7.0	232	559	975.2	NA	0.0000		9999	2660	0	0	0
2017/11/26 21:02:00	BASE	8.77	231	10.19	236	-3.6	77	-7.1	238	574	975.2	NA	0.0000		9999	2530	0	0	0
2017/11/26 21:03:00	BASE	7.71	229	10.19	236	-3.6	76	-7.1	241	578	975.3	NA	0.0000		9999	2300	0	0	0
2017/11/26 21:04:00	BASE	7.45	239	10.19	236	-3.6	76	-7.1	241	577	975.2	NA	0.0000		9999	2260	0	0	0
2017/11/26 21:05:00	BASE	8.03	238	10.19	236	-3.6	76	-7.2	237	565	975.3	NA	0.0000		9999	2230	2820	0	0
2017/11/26 21:06:00	BASE	8.33	233	10.19	236	-3.5	76	-7.1	239	570	975.3	NA	0.0000		9999	2400	0	0	0
2017/11/26 21:07:00	BASE	8.60	233	10.19	236	-3.5	76	-7.1	243	579	975.3	NA	0.0000		9999	2460	0	0	0
2017/11/26 21:08:00	BASE	8.46	232	10.19	236	-3.5	77	-7.0	256	602	975.3	NA	0.0000		9999	2360	3020	0	0
2017/11/26 21:09:00	BASE	7.91	231	10.19	236	-3.5	77	-7.0	269	623	975.3	NA	0.0000		9999	2660	0	0	0
2017/11/26 21:10:00	BASE	7.97	229	10.19	236	-3.5	77	-7.0	279	642	975.3	NA	0.0000		9999	2890	0	0	0
2017/11/26 21:11:00	BASE	8.00	232	9.72	225	-3.5	77	-7.0	285	650	975.3	NA	0.0000		9999	2850	0	0	0
2017/11/26 21:12:00	BASE	7.30	235	9.72	225	-3.5	77	-7.0	292	665	975.3	NA	0.0000		9999	2130	2950	0	0
2017/11/26 21:13:00	BASE	7.38	236	9.72	225	-3.5	77	-7.0	288	652	975.3	NA	0.0000		9999	2920	0	0	0
2017/11/26 21:14:00	BASE	8.05	239	9.72	225	-3.5	77	-7.0	283	641	975.3	NA	0.0000		9999	3050	7190	0	0
2017/11/26 21:15:00	BASE	8.20	238	9.72	225	-3.5	77	-7.1	274	624	975.3	NA	0.0000		9999	2990	7190	0	0
2017/11/26 21:16:00	BASE	7.95	235	9.72	225	-3.6	77	-7.1	268	617	975.4	NA	0.0000		9999	2990	0	0	0
2017/11/26 21:17:00	BASE	8.11	234	9.72	225	-3.6	76	-7.1	262	604	975.4	NA	0.0000		9999	2890	0	0	0
2017/11/26 21:18:00	BASE	8.38	233	9.72	225	-3.6	76	-7.2	248	575	975.4	NA	0.0000		9999	2890	20900	0	0
2017/11/26 21:19:00	BASE	8.01	234	9.72	225	-3.6	76	-7.2	234	549	975.4	NA	0.0000		9999	2920	0	0	0
2017/11/26 21:20:00	BASE	8.13	233	9.72	227	-3.6	76	-7.2	232	546	975.4	NA	0.0000		9999	2790	0	0	0
2017/11/26 21:21:00	BASE	8.12	232	9.72	227	-3.6	76	-7.2	230	540	975.5	NA	0.0000		9999	2790	0	0	0
2017/11/26 21:22:00	BASE	7.86	233	9.72	227	-3.6	76	-7.2	229	536	975.4	NA	0.0000		9999	3020	0	0	0
2017/11/26 21:23:00	BASE	7.79	233	9.72	227	-3.6	76	-7.2	229	533	975.4	NA	0.0000		9999	2920	0	0	0
2017/11/26 21:24:00	BASE	7.53	234	9.72	227	-3.5	76	-7.2	229	533	975.5	NA	0.0000		9999	3120	7220	0	0
2017/11/26 21:25:00	BASE	7.76	235	9.72	227	-3.5	76	-7.2	229	534	975.5	NA	0.0000		9999	3280	7220	0	0
2017/11/26 21:26:00	BASE	7.91	233	9.72	227	-3.5	76	-7.2	231	535	975.5	NA	0.0000		9999	3450	0	0	0
2017/11/26 21:27:00	BASE	7.57	231	9.72	227	-3.5	75	-7.2	234	540	975.5	NA	0.0000		9999	3120	0	0	0
2017/11/26 21:28:00	BASE	6.92	231	9.72	227	-3.5	75	-7.3	235	541	975.5	NA	0.0000		9999	3150	7190	0	0
2017/11/26 21:29:00	BASE	6.78	233	9.72	227	-3.5	75	-7.3	237	544	975.5	NA	0.0000		9999	3020	0	0	0
2017/11/26 21:30:00	BASE	6.96	234	9.62	233	-3.5	75	-7.3	239	549	975.5	NA	0.0000		9999	3180	7250	0	0
2017/11/26 21:31:00	BASE	6.71	231	9.62	233	-3.5	75	-7.3	244	556	975.5	NA	0.0000		9999	7150	0	0	0
2017/11/26 21:32:00	BASE	7.01	230	9.62	233	-3.5	75	-7.2	245	558	975.5	NA	0.0000		9999	3080	7120	0	0
2017/11/26 21:33:00	BASE	7.26	231	9.62	233	-3.5	75	-7.2	242	550	975.5	NA	0.0000		9999	7150	0	0	0
2017/11/26 21:34:00	BASE	6.54	233	9.62	233	-3.5	75	-7.3	236	537	975.5	NA	0.0000		9999	7220	0	0	0
2017/11/26 21:35:00	BASE	6.17	238	9.21	230	-3.5	76	-7.2	230	524	975.5	NA	0.0000		9999	7220	0	0	0
2017/11/26 21:36:00	BASE	6.56	237	8.49	229	-3.5	76	-7.2	224	511	975.5	NA	0.0000		9999	3150	7190	0	0
2017/11/26 21:37:00	BASE	6.39	236	8.39	238	-3.5	76	-7.2	216	494	975.6	NA	0.0000		9999	3020	7120	22900	0
2017/11/26 21:38:00	BASE	6.13	228	8.39	238	-3.5	76	-7.2	211	482	975.6	NA	0.0000		9999	7250	0	0	0
2017/11/26 21:39:00	BASE	6.04	225	8.39	238	-3.5	76	-7.1	203	467	975.6	NA	0.0000		9999	7190	0	0	0
2017/11/26 21:40:00	BASE	5.75	231	8.39	238	-3.5	77	-7.1	197	455	975.6	NA	0.0000		9999	7120	0	0	0
2017/11/26 21:41:00	BASE	5.68	229	8.39	238	-3.5	77	-7.0	193	447	975.6	NA	0.0000		9999	7350	0	0	0
2017/11/26 21:42:00	BASE	5.98	223	7.77	238	-3.5	77	-7.0	190	442	975.6	NA	0.0000		9999	3310	7150	0	0
2017/11/26 21:43:00	BASE	6.17	225	7.77	238	-3.6	77	-7.0	195	453	975.6	NA	0.0000		9999	3180	7350	0	0
2017/11/26 21:44:00	BASE	5.63	229	7.77	238	-3.6	77	-7.0	193	448	975.6	NA	0.0000		9999	2990	7280	0	0
2017/11/26 21:45:00	BASE	5.26	232	7.61	219	-3.6	77	-7.0	189	440	975.6	NA	0.0000		9999	2720	0	0	0
2017/11/26 21:46:00	BASE	5.59	228	7.61	219	-3.6	77	-7.1	192	447	975.6	NA	0.0000		9999	2620	0	0	0
2017/11/26 21:47:00	BASE	5.51	226	7.61	219	-3.6	77	-7.1	191	446	975.6	NA	0.0000		9999	2620	0	0	0
2017/11/26 21:48:00	BASE	4.81	230	7.00	219	-3.6	77	-7.0	192	450	975.6	NA	0.0000		9999	2620	3080	7190	0
2017/11/26 21:49:00	BASE	4.82	224	7.00	219	-3.6	77	-7.0	192	450	975.6	NA	0.0000		9999	2920	0	0	0
2017/11/26 21:50:00	BASE	5.29	221	7.00	219	-3.6	77	-6.9	191	445	975.6	NA	0.0000		9999	2920	0	0	0
2017/11/26 21:51:00	BASE	5.29	224	7.00	219	-3.6	78	-6.9	189	439	975.6	NA	0.0000		9999	2890	20280	21750	0
2017/11/26 21:52:00	BASE	4.97	223	6.89	231	-3.6	78	-6.9	188	435	975.6	NA	0.0000		9999	2850	0	0	0
2017/11/26 21:53:00	BASE	5.10	228	6.79	223	-3.6	78	-6.9	184	426	975.5	NA	0.0000		9999	2760	22050	0	0
2017/11/26 21:54:00	BASE	5.57	231	6.79	223	-3.6	78	-6.9	179	417	975.6	NA	0.0000		9999	2690	0	0	0
2017/11/26 21:55:00	BASE	5.39	224	6.79	223	-3.7	78	-7.0	168	394	975.6	NA	0.0000		9999	2620	0	0	0
2017/11/26 21:56:00	BASE	5.78	217	7.41	213	-3.7	78	-7.0	164	386	975.6	NA	0.0000		9999	2070	2720	0	0
2017/11/26 21:57:00	BASE	5.87	216	7.41	213	-3.7	78	-7.0	170	398	975.5	NA	0.0000		9999	2950	0	0	0
2017/11/26 21:58:00	BASE	4.72	220	7.41	213	-3.7	78	-6.9	175	406	975.5	NA	0.0000		9999	2790	0	0	0
2017/11/26 21:59:00	BASE	4.49	216	7.41	213	-3.7	78	-6.9	166	385	975.4	NA	0.0000		9999	2820	0	0	0
2017/11/26 22:00:00	BASE	5.32	212	7.41	213	-3.6	79	-6.8	154	360	975.4	NA	0.0000		9999	3050	7020	0	0
2017/11/26 22:01:00	BASE	5.65	215	7.41	213	-3.7	79	-6.8	147	346	975.4	NA	0.0000		9999	2950	6730	7050	0
2017/11/26 22:02:00	BASE	5.09	215	7.41	213	-3.7	79	-6.9	142	338	975.4	NA	0.0000		9999	2990	6820	0	0
2017/11/26 22:03:27	BASE	M	M	7.41	213	-3.7	79	-6.9	142	337	M	NA	0.0000		M	2920	6760	0	0
2017/11/26 22:04:00	BASE	M	M	7.41	213	-3.7	79	-6.9	148	351	975.4	NA	0.0000		9999	2850	6690	0	0
2017/11/26 22:05:00	BASE	4.72	226	7.41	213	-3.7	79	-6.9	156	367	975.4	NA	0.0000		9999	2760	6590	0	0
2017/11/26 22:06:16	BASE	M	M	6.48	212	-3.7	79	-6.9	158	370	M	NA	0.0000		M	2720	6660	0	0
2017/11/26 22:07:00	BASE	M	M	6.12	217	-3.7	79	-6.9	157	365	975.4	NA	0.0000		9999	2620	7050	0	0
2017/11/26 22:08:00	BASE	4.60	217	6.12	217	-3.7	79	-6.9	154	358	975.5	NA	0.0000		9999	6990	0	0	0
2017/11/26 22:09:00	BASE	4.77	215	6.12	217	-3.6	78	-6.9	148	347	975.5	NA	0.0000		9999	6960	0	0	0
2017/11/26 22:10:00	BASE	4.42	224	5.92	218	-3.7	78	-6.9	143	337	975.6	NA	0.0000		9999	6860	0	0	0
2017/11/26 22:11:00	BASE	4.05	234	5.61	226	-3.7	78	-6.9	135	320	975.6	NA	0.0000		9999	6730	0	0	0
2017/11/26 22:12:00	BASE	4.14	237	5.61	226	-3.7	78	-6.9	124	300	975.6	NA	0.0000		9999	6630	0	0	0
2017/11/26 22:13:00	BASE	4.19	236	5.61	226	-3.7	78	-6.9	115	284	975.6	NA	0.0000		9999	2230	2760	0	0
2017/11/26 22:14:00	BASE	4.29	233	5.30	213	-3.7	79	-6.9	114	282	975.6	NA	0.0000		9999	2030	0	0	0
2017/11/26 22:15:00	BASE	4.17	233	5.30	213	-3.7	79	-6.9	122	296	975.6	NA	0.0000		9999	1970	0	0	0
2017/11/26 22:16:00	BASE	4.12	235	5.30	213	-3.7	79	-6.9	130	310	975.6	NA	0.0000		9999	1900	0	0	0
2017/11/26 22:17:00	BASE	4.05	234	5.30	213	-3.7	79	-6.8	131	311	975.6	NA	0.0000		9999	1900	6820	0	0
2017/11/26 22:18:00	BASE	3.73	226	5.14	233	-3.7	79	-6.7	127	300	975.6	NA	0.0000		9999	2000	6730	0	0
2017/11/26 22:19:00	BASE	2.90	226	5.14	233	-3.7	79	-6.7	121	290	975.6	NA	0.0000		9999	2360	6860	0	0
2017/11/26 22:20:00	BASE	2.61	226	5.14	233	-3.6	80	-6.7	119	285	975.6	NA	0.0000		9999	2000	0	0	0
2017/11/26 22:21:00	BASE	3.10	220	5.14	233	-3.6	80	-6.6	119	285	975.6	NA	0.0000		9999	1870	0	0	0
2017/11/26 22:22:00	BASE	3.00	220	5.04	235	-3.6	80	-6.5	120	286	975.6	NA	0.0000		9999	1840	6460	0	0
2017/11/26 22:23:00	BASE	2.96	221	4.99	235	-3.6	80	-6.5	118	283	975.6	NA	0.0000		9999	1940	6500	0	0
2017/11/26 22:24:00	BASE	3.35	221	4.99	235	-3.7	81	-6.5	119	284	975.6	NA	0.0000		9999	1940	6790	0	0
2017/11/26 22:25:00	BASE	3.13	234	4.99	235	-3.7	81	-6.5	119	284	975.6	NA	0.0000		9999	2130	6560	0	0
2017/11/26 22:26:00	BASE	2.96	243	4.48	216	-3.7	81	-6.4	118	281	975.6	NA	0.0000		9999	2100	6530	0	0
2017/11/26 22:27:00	BASE	3.40	238	4.48	216	-3.6	81	-6.4	118	281	975.6	NA	0.0000		9999	6590	0	0	0
2017/11/26 22:28:00	BASE	3.59	236	4.12	235	-3.6	81	-6.3	120	284	975.6	NA	0.0000		9999	2030	6630	0	0
2017/11/26 22:29:00	BASE	3.59	232	4.12	235	-3.6	82	-6.3	123	291	975.6	NA	0.0000		9999	1970	0	0	0
2017/11/26 22:30:00	BASE	3.42	228	4.12	235	-3.6	82	-6.2	126	298	975.6	NA	0.0000		9999	1900	0	0	0
2017/11/26 22:31:00	BASE	3.75	223	4.58	222	-3.6	82	-6.2	125	293	975.6	NA	0.0000		9999	1940	0	0	0
2017/11/26 22:32:00	BASE	3.98	222	4.58	222	-3.6	82	-6.2	119	279	975.6	NA	0.0000		9999	1870	6860	0	0
2017/11/26 22:33:00	BASE	3.77	230	4.58	222	-3.6	82	-6.3	110	262	975.6	NA	0.0000		9999	2070	6690	21030	0
2017/11/26 22:34:00	BASE	3.58	237	4.58	222	-3.7	82	-6.4	104	252	975.6	NA	0.0000		9999	2030	0	0	0
2017/11/26 22:35:00	BASE	3.20	239	4.58	222	-3.7	81	-6.4	103	249	975.6	NA	0.0000		9999	1900	0	0	0
2017/11/26 22:36:00	BASE	3.10	240	4.58	222	-3.7	81	-6.5	103	247	975.6	NA	0.0000		9999	1800	0	0	0
2017/11/26 22:37:00	BASE	3.15	241	4.58	222	-3.7	81	-6.5	103	246	975.6	NA	0.0000		9999	1900	6430	0	0
2017/11/26 22:38:00	BASE	3.23	243	4.58	222	-3.7	81	-6.5	100	240	975.6	NA	0.0000		9999	2230	6460	0	0
2017/11/26 22:39:00	BASE	3.05	249	4.58	222	-3.7	81	-6.4	98	236	975.6	NA	0.0000		9999	2000	6530	0	0
2017/11/26 22:40:00	BASE	2.96	254	4.58	222	-3.7	81	-6.4	97	234	975.6	NA	0.0000		9999	1940	6660	0	0
2017/11/26 22:41:00	BASE	3.12	251	4.17	240	-3.7	82	-6.4	95	230	975.6	NA	0.0000		9999	1870	6560	0	0
2017/11/26 22:42:00	BASE	3.25	250	4.17	240	-3.7	82	-6.3	91	222	975.6	NA	0.0000		9999	2400	6660	0	0
2017/11/26 22:43:00	BASE	3.45	249	4.01	250	-3.7	82	-6.3	87	214	975.6	NA	0.0000		9999	1870	0	0	0
2017/11/26 22:44:00	BASE	3.47	249	4.63	261	-3.7	82	-6.3	86	211	975.6	NA	0.0000		9999	1800	0	0	0
2017/11/26 22:45:00	BASE	3.26	249	4.63	261	-3.7	82	-6.3	87	212	975.7	NA	0.0000		9999	1840	0	0	0
2017/11/26 22:46:00	BASE	3.02	249	4.63	261	-3.6	82	-6.3	90	218	975.7	NA	0.0000		9999	1800	0	0	0
2017/11/26 22:47:00	BASE	3.30	252	5.04	248	-3.6	82	-6.2	92	220	975.7	NA	0.0000		9999	1800	6590	0	0
2017/11/26 22:48:00	BASE	3.57	245	5.04	248	-3.6	82	-6.2	91	217	975.8	NA	0.0000		9999	6560	0	0	0
2017/11/26 22:49:00	BASE	3.06	238	5.04	248	-3.6	82	-6.2	88	211	975.8	NA	0.0000		9999	2200	6500	0	0
2017/11/26 22:50:00	BASE	2.89	240	5.04	248	-3.6	82	-6.2	84	204	975.8	NA	0.0000		9999	2100	6460	0	0
2017/11/26 22:51:00	BASE	3.67	242	5.04	248	-3.6	82	-6.2	81	198	975.8	NA	0.0000		9999	1870	0	0	0
2017/11/26 22:52:00	BASE	4.29	241	5.04	248	-3.6	82	-6.2	81	198	975.8	NA	0.0000		9999	1840	6370	0	0
2017/11/26 22:53:00	BASE	4.14	238	5.04	248	-3.6	82	-6.3	81	198	975.8	NA	0.0000		9999	6170	0	0	0
2017/11/26 22:54:00	BASE	3.81	239	5.04	248	-3.6	82	-6.3	83	201	975.8	NA	0.0000		9999	6430	0	0	0
2017/11/26 22:55:00	BASE	3.17	242	5.04	248	-3.7	82	-6.3	85	204	975.7	NA	0.0000		9999	2560	6270	0	0
2017/11/26 22:56:00	BASE	2.80	247	5.04	248	-3.7	82	-6.4	86	205	975.7	NA	0.0000		9999	1900	6500	0	0
2017/11/26 22:57:00	BASE	2.80	252	4.84	247	-3.7	82	-6.4	86	206	975.7	NA	0.0000		9999	6270	0	0	0
2017/11/26 22:58:00	BASE	2.56	254	4.84	247	-3.8	82	-6.4	86	205	975.6	NA	0.0000		9999	6330	0	0	0
2017/11/26 22:59:00	BASE	2.43	251	4.84	247	-3.8	82	-6.4	88	208	975.6	NA	0.0000		9999	1900	6460	0	0
2017/11/26 23:00:00	BASE	2.72	244	4.84	247	-3.7	82	-6.4	89	211	975.6	NA	0.0000		9999	1940	6430	19420	0
2017/11/26 23:01:00	BASE	3.29	250	4.78	234	-3.7	82	-6.4	89	209	975.6	NA	0.0000		9999	6590	0	0	0
2017/11/26 23:02:00	BASE	3.50	257	4.42	229	-3.7	82	-6.4	86	205	975.6	NA	0.0000		9999	6630	0	0	0
2017/11/26 23:03:00	BASE	3.22	254	4.37	235	-3.7	82	-6.4	85	203	975.7	NA	0.0000		9999	1800	2660	0	0
2017/11/26 23:04:00	BASE	2.72	248	4.12	235	-3.7	82	-6.4	86	204	975.8	NA	0.0000		9999	2400	6530	0	0
2017/11/26 23:05:00	BASE	2.51	239	4.12	235	-3.8	81	-6.5	84	199	975.8	NA	0.0000		9999	1840	6460	0	0
2017/11/26 23:06:00	BASE	2.55	234	4.12	235	-3.8	81	-6.5	81	193	975.8	NA	0.0000		9999	6560	0	0	0
2017/11/26 23:07:00	BASE	2.31	235	4.12	235	-3.7	81	-6.5	80	190	975.8	NA	0.0000		9999	6590	0	0	0
2017/11/26 23:08:00	BASE	2.50	245	4.12	235	-3.7	81	-6.4	80	190	975.7	NA	0.0000		9999	6560	0	0	0
2017/11/26 23:09:00	BASE	2.84	244	4.12	235	-3.6	81	-6.3	79	188	975.8	NA	0.0000		9999	6560	0	0	0
2017/11/26 23:10:00	BASE	2.69	238	3.91	246	-3.6	82	-6.2	79	186	975.7	NA	0.0000		9999	6500	0	0	0
2017/11/26 23:11:00	BASE	2.55	239	3.76	255	-3.6	82	-6.2	78	186	975.6	NA	0.0000		9999	6630	0	0	0
2017/11/26 23:12:00	BASE	2.84	238	3.70	251	-3.6	82	-6.2	79	186	975.6	NA	0.0000		9999	2030	6500	0	0
2017/11/26 23:13:00	BASE	3.00	250	3.81	256	-3.6	82	-6.2	78	185	975.6	NA	0.0000		9999	6630	0	0	0
2017/11/26 23:14:00	BASE	3.06	257	3.91	254	-3.6	82	-6.3	77	181	975.6	NA	0.0000		9999	6560	0	0	0
2017/11/26 23:15:00	BASE	3.47	243	4.48	227	-3.7	82	-6.3	74	176	975.6	NA	0.0000		9999	6500	0	0	0
2017/11/26 23:16:00	BASE	3.18	230	4.48	227	-3.7	82	-6.4	73	173	975.6	NA	0.0000		9999	6590	0	0	0
2017/11/26 23:17:00	BASE	2.60	236	4.48	227	-3.7	81	-6.4	72	170	975.6	NA	0.0000		9999	6590	0	0	0
2017/11/26 23:18:00	BASE	2.28	247	4.48	227	-3.7	81	-6.4	71	169	975.6	NA	0.0000		9999	6560	0	0	0
2017/11/26 23:19:00	BASE	2.51	237	4.48	227	-3.7	81	-6.4	70	166	975.6	NA	0.0000		9999	6590	0	0	0
2017/11/26 23:20:00	BASE	2.86	221	4.48	227	-3.7	81	-6.5	68	162	975.6	NA	0.0000		9999	2230	6660	0	0
2017/11/26 23:21:00	BASE	2.37	233	4.48	227	-3.7	81	-6.5	66	159	975.6	NA	0.0000		9999	2100	6590	0	0
2017/11/26 23:22:00	BASE	2.08	245	4.48	227	-3.7	81	-6.5	65	156	975.6	NA	0.0000		9999	1940	6630	0	0
2017/11/26 23:23:00	BASE	2.46	245	4.48	227	-3.7	81	-6.5	64	152	975.5	NA	0.0000		9999	6560	0	0	0
2017/11/26 23:24:00	BASE	2.84	252	4.48	227	-3.7	81	-6.6	62	148	975.4	NA	0.0000		9999	1800	6560	0	0
2017/11/26 23:25:00	BASE	2.70	249	3.76	235	-3.7	81	-6.5	59	143	975.4	NA	0.0000		9999	6530	0	0	0
2017/11/26 23:26:00	BASE	2.36	241	3.76	235	-3.7	81	-6.4	57	138	975.4	NA	0.0000		9999	6530	0	0	0
2017/11/26 23:27:00	BASE	2.25	250	3.76	235	-3.7	82	-6.3	55	134	975.4	NA	0.0000		9999	6170	0	0	0
2017/11/26 23:28:00	BASE	2.43	265	3.76	235	-3.7	82	-6.3	54	131	975.4	NA	0.0000		9999	1940	6300	0	0
2017/11/26 23:29:00	BASE	2.36	255	3.70	249	-3.6	82	-6.3	52	126	975.4	NA	0.0000		9999	2000	6230	0	0
2017/11/26 23:30:00	BASE	2.08	237	3.70	249	-3.6	82	-6.3	50	123	975.4	NA	0.0000		9999	6300	0	0	0
2017/11/26 23:31:00	BASE	2.01	223	3.70	249	-3.6	82	-6.3	49	120	975.4	NA	0.0000		9999	6230	0	0	0
2017/11/26 23:32:00	BASE	1.98	222	3.70	249	-3.7	82	-6.3	48	118	975.4	NA	0.0000		9999	6300	0	0	0
2017/11/26 23:33:00	BASE	2.06	232	3.70	249	-3.7	82	-6.3	48	117	975.4	NA	0.0000		9999	6370	0	0	0
2017/11/26 23:34:00	BASE	2.09	238	3.19	261	-3.7	82	-6.3	47	115	975.4	NA	0.0000		9999	6200	0	0	0
2017/11/26 23:35:00	BASE	2.01	240	3.19	261	-3.7	82	-6.3	46	113	975.4	NA	0.0000		9999	6270	0	0	0
2017/11/26 23:36:00	BASE	1.46	238	3.19	261	-3.7	82	-6.3	46	112	975.4	NA	0.0000		9999	2000	0	0	0
2017/11/26 23:37:00	BASE	1.39	233	3.14	263	-3.7	82	-6.3	45	111	975.5	NA	0.0000		9999	2000	6330	0	0
2017/11/26 23:38:00	BASE	1.82	234	2.88	248	-3.7	82	-6.3	45	110	975.6	NA	0.0000		9999	6300	0	0	0
2017/11/26 23:39:00	BASE	1.78	228	2.88	248	-3.7	81	-6.5	45	110	975.6	NA	0.0000		9999	6370	0	0	0
2017/11/26 23:40:00	BASE	1.57	220	2.88	248	-3.7	81	-6.5	44	109	975.6	NA	0.0000		9999	6330	0	0	0
2017/11/26 23:41:00	BASE	1.66	230	2.88	248	-3.7	81	-6.6	44	108	975.5	NA	0.0000		9999	6370	0	0	0
2017/11/26 23:42:00	BASE	1.79	238	2.88	248	-3.7	80	-6.7	45	108	975.6	NA	0.0000		9999	6400	0	0	0
2017/11/26 23:43:00	BASE	1.65	239	2.88	248	-3.7	80	-6.7	45	108	975.6	NA	0.0000		9999	6370	0	0	0
2017/11/26 23:44:00	BASE	1.73	235	2.31	240	-3.7	80	-6.6	44	107	975.5	NA	0.0000		9999	6370	0	0	0
2017/11/26 23:45:00	BASE	1.55	226	2.31	240	-3.7	80	-6.6	44	106	975.5	NA	0.0000		9999	6270	0	0	0
2017/11/26 23:46:00	BASE	1.12	213	2.31	240	-3.7	81	-6.6	43	103	975.4	NA	0.0000		9999	6330	0	0	0
2017/11/26 23:47:00	BASE	1.12	202	2.31	240	-3.7	81	-6.5	42	101	975.4	NA	0.0000		9999	4200	6270	0	0
2017/11/26 23:48:00	BASE	1.40	205	2.31	240	-3.7	81	-6.5	41	99	975.4	NA	0.0000		9999	6270	0	0	0
2017/11/26 23:49:00	BASE	1.11	224	2.31	240	-3.7	80	-6.6	40	98	975.4	NA	0.0000		9999	2000	6230	0	0
2017/11/26 23:50:00	BASE	0.96	248	2.31	240	-3.7	80	-6.6	39	96	975.4	NA	0.0000		9999	6100	0	0	0
2017/11/26 23:51:00	BASE	1.65	254	2.42	257	-3.7	80	-6.6	38	94	975.4	NA	0.0000		9999	4330	6070	0	0
2017/11/26 23:52:00	BASE	2.30	245	3.24	240	-3.7	80	-6.6	37	91	975.4	NA	0.0000		9999	6000	0	0	0
2017/11/26 23:53:00	BASE	2.33	240	3.24	240	-3.7	80	-6.6	36	89	975.4	NA	0.0000		9999	4000	6140	0	0
2017/11/26 23:54:00	BASE	1.92	249	3.24	240	-3.7	80	-6.6	35	87	975.4	NA	0.0000		9999	3900	6170	0	0
2017/11/26 23:55:00	BASE	1.85	261	3.24	240	-3.7	80	-6.6	35	86	975.4	NA	0.0000		9999	3900	4400	6200	0
2017/11/26 23:56:00	BASE	2.04	270	3.24	240	-3.7	80	-6.6	34	84	975.5	NA	0.0000		9999	3940	0	0	0
2017/11/26 23:57:00	BASE	1.98	260	3.24	240	-3.7	80	-6.7	33	82	975.4	NA	0.0000		9999	6040	0	0	0
2017/11/26 23:58:00	BASE	1.34	260	3.24	240	-3.7	80	-6.7	33	81	975.4	NA	0.0000		9999	2360	6140	0	0
2017/11/26 23:59:00	BASE	1.15	267	3.24	240	-3.6	80	-6.7	33	81	975.4	NA	0.0000		9999	6100	0	0	0